Darstellungsparameter: Aktuell verwendete Einstellungen:
Skalierung der Graphiken ... ?
xyx+y,   Skalierungsfaktor:      Skalierung: Modus: x, Faktor: 1
Darstellungszeitraum ... ?
Vom - - bis: - -   Zeitraum: 17.07.2015 - 16.08.2015
Min/Max/Avg-Anzeige ... ?
Zeige MMA aktuell
Zeige MMA Monat
Zeige MMA alles
Zeige --A aktuell
Zeige --A Monat
Zeige --A alles
Keine MMA-Anzeige
MMA:
Keine MMA-Graphiken
MMA-Basis: 17.07.2015 - 16.08.2015
Quicknavigation für Darstellung... ?
Tage:      1T, 2T, 3T, 5T -1T -2T -3T -5T +1T +2T +3T +5T
Wochen: 1W, 2W, 3W -1W -2W -3W +1W +2W +3W
Monate: 1M, 3M, 6M -1M -3M -6M +1M +3M +6M
Jahre:    1J, 3J, 5J, 10J -1J -3J -5J -10J +1J +3J +5J +10J
Nutze für die Darstellung ... ?
Originaldaten oder Mittelwerte auf ...
Stundenbasis Tagesbasis Wochenbasis
Monatsbasis Jahresbasis      Datenbasis: Original-Daten
Darstellen als:
Statistik (Auto) Statistik J:M      Darstellung:
Zur Graphik,    zurück zur Übersicht aller Sensoren.
 
Tabellarische Datenbersicht: ?
 
Sensor: Nr:Datum:Temp:Feuchte:Taupunkt:
Aussen-T/F 1 17-07-2015 00:00:00 22.3 C 72 % 17.01 C
2 17-07-2015 00:05:00 22.3 C 72 % 17.01 C
3 17-07-2015 00:10:00 22.3 C 73 % 17.23 C
4 17-07-2015 00:15:00 22.3 C 72 % 17.01 C
5 17-07-2015 00:20:00 22.1 C 72 % 16.82 C
6 17-07-2015 00:25:00 22 C 73 % 16.94 C
7 17-07-2015 00:30:00 21.9 C 73 % 16.84 C
8 17-07-2015 00:35:00 21.8 C 72 % 16.53 C
9 17-07-2015 00:40:00 21.8 C 73 % 16.75 C
10 17-07-2015 00:45:00 21.6 C 74 % 16.77 C
11 17-07-2015 00:50:00 21.4 C 74 % 16.57 C
12 17-07-2015 00:55:00 21.2 C 74 % 16.38 C
13 17-07-2015 01:00:00 21.1 C 75 % 16.5 C
14 17-07-2015 01:05:00 21.1 C 76 % 16.7 C
15 17-07-2015 01:10:00 20.9 C 76 % 16.51 C
16 17-07-2015 01:15:00 20.9 C 76 % 16.51 C
17 17-07-2015 01:20:00 20.9 C 76 % 16.51 C
18 17-07-2015 01:25:00 20.8 C 76 % 16.41 C
19 17-07-2015 01:30:00 20.8 C 77 % 16.62 C
20 17-07-2015 01:35:00 20.7 C 77 % 16.52 C
21 17-07-2015 01:40:00 20.6 C 77 % 16.43 C
22 17-07-2015 01:45:00 20.6 C 77 % 16.43 C
23 17-07-2015 01:50:00 20.6 C 77 % 16.43 C
24 17-07-2015 01:55:00 20.5 C 78 % 16.53 C
25 17-07-2015 02:00:00 20.4 C 78 % 16.44 C
Sensor: Nr:Datum:Temp:Feuchte:Taupunkt:
Aussen-T/F 26 17-07-2015 02:05:00 20.4 C 79 % 16.64 C
27 17-07-2015 02:10:00 20.3 C 79 % 16.54 C
28 17-07-2015 02:15:00 20.3 C 79 % 16.54 C
29 17-07-2015 02:20:00 20.4 C 79 % 16.64 C
30 17-07-2015 02:25:00 20.4 C 80 % 16.83 C
31 17-07-2015 02:30:00 20.4 C 80 % 16.83 C
32 17-07-2015 02:35:00 20.7 C 80 % 17.13 C
33 17-07-2015 02:40:00 20.7 C 80 % 17.13 C
34 17-07-2015 02:45:00 20.7 C 80 % 17.13 C
35 17-07-2015 02:50:00 20.6 C 80 % 17.03 C
36 17-07-2015 02:55:00 20.6 C 80 % 17.03 C
37 17-07-2015 03:00:00 20.5 C 80 % 16.93 C
38 17-07-2015 03:05:00 20.4 C 80 % 16.83 C
39 17-07-2015 03:10:00 20.4 C 80 % 16.83 C
40 17-07-2015 03:15:00 20.4 C 81 % 17.03 C
41 17-07-2015 03:20:00 20.4 C 81 % 17.03 C
42 17-07-2015 03:25:00 20.3 C 82 % 17.13 C
43 17-07-2015 03:30:00 20.3 C 83 % 17.32 C
44 17-07-2015 03:35:00 20.2 C 83 % 17.22 C
45 17-07-2015 03:40:00 20.2 C 84 % 17.41 C
46 17-07-2015 03:45:00 20.2 C 84 % 17.41 C
47 17-07-2015 03:50:00 20.2 C 84 % 17.41 C
48 17-07-2015 03:55:00 20.2 C 84 % 17.41 C
49 17-07-2015 04:00:00 20.2 C 84 % 17.41 C
50 17-07-2015 04:05:00 20.2 C 83 % 17.22 C
Sensor: Nr:Datum:Temp:Feuchte:Taupunkt:
Aussen-T/F 51 17-07-2015 04:10:00 20.2 C 83 % 17.22 C
52 17-07-2015 04:15:00 20.2 C 83 % 17.22 C
53 17-07-2015 04:20:00 20.2 C 83 % 17.22 C
54 17-07-2015 04:25:00 20.2 C 83 % 17.22 C
55 17-07-2015 05:05:00 23.7 C 66 % 16.97 C
56 17-07-2015 05:10:00 22.7 C 70 % 16.95 C
57 17-07-2015 05:15:00 22.6 C 70 % 16.85 C
58 17-07-2015 05:20:00 22.7 C 70 % 16.95 C
59 17-07-2015 05:25:00 22.7 C 70 % 16.95 C
60 17-07-2015 05:45:00 23.6 C 66 % 16.88 C
61 17-07-2015 05:50:00 23.6 C 66 % 16.88 C
62 17-07-2015 05:55:00 23.6 C 62 % 15.89 C
63 17-07-2015 06:00:00 24.1 C 62 % 16.37 C
64 17-07-2015 06:05:00 24.6 C 56 % 15.24 C
65 17-07-2015 06:10:00 24.8 C 58 % 15.98 C
66 17-07-2015 06:15:00 24.7 C 60 % 16.41 C
67 17-07-2015 06:20:00 24.7 C 60 % 16.41 C
68 17-07-2015 06:25:00 24.7 C 60 % 16.41 C
69 17-07-2015 07:00:00 22.4 C 69 % 16.43 C
70 17-07-2015 07:05:00 22.3 C 69 % 16.34 C
71 17-07-2015 07:10:00 22.3 C 68 % 16.11 C
72 17-07-2015 07:15:00 22.4 C 69 % 16.43 C
73 17-07-2015 07:20:00 22.4 C 68 % 16.2 C
74 17-07-2015 07:25:00 22.3 C 69 % 16.34 C
75 17-07-2015 07:30:00 22.2 C 69 % 16.24 C
Sensor: Nr:Datum:Temp:Feuchte:Taupunkt:
Aussen-T/F 76 17-07-2015 07:35:00 22.2 C 68 % 16.01 C
77 17-07-2015 07:40:00 22.3 C 70 % 16.56 C
78 17-07-2015 07:45:00 22.4 C 69 % 16.43 C
79 17-07-2015 07:50:00 22.6 C 66 % 15.93 C
80 17-07-2015 07:55:00 23.1 C 65 % 16.16 C
81 17-07-2015 08:00:00 23.4 C 66 % 16.69 C
82 17-07-2015 08:05:00 23.3 C 63 % 15.86 C
83 17-07-2015 08:10:00 23.4 C 67 % 16.92 C
84 17-07-2015 08:15:00 23.5 C 64 % 16.3 C
85 17-07-2015 08:20:00 23.6 C 67 % 17.11 C
86 17-07-2015 08:25:00 23.6 C 67 % 17.11 C
87 17-07-2015 08:30:00 23.8 C 64 % 16.58 C
88 17-07-2015 08:35:00 23.9 C 68 % 17.63 C
89 17-07-2015 08:40:00 23.8 C 68 % 17.54 C
90 17-07-2015 08:45:00 23.6 C 70 % 17.81 C
91 17-07-2015 08:50:00 23.3 C 69 % 17.29 C
92 17-07-2015 08:55:00 23.2 C 71 % 17.65 C
93 17-07-2015 09:00:00 23.2 C 71 % 17.65 C
94 17-07-2015 09:05:00 23.2 C 71 % 17.65 C
95 17-07-2015 09:10:00 23.4 C 69 % 17.39 C
96 17-07-2015 09:15:00 23.7 C 70 % 17.9 C
97 17-07-2015 09:20:00 23.9 C 65 % 16.92 C
98 17-07-2015 09:25:00 24.4 C 64 % 17.15 C
99 17-07-2015 09:30:00 24.9 C 62 % 17.12 C
100 17-07-2015 09:35:00 25.3 C 61 % 17.24 C
Sensor: Nr:Datum:Temp:Feuchte:Taupunkt:
Aussen-T/F 101 17-07-2015 09:40:00 25.6 C 61 % 17.52 C
102 17-07-2015 09:45:00 25.8 C 60 % 17.45 C
103 17-07-2015 09:50:00 25.9 C 59 % 17.27 C
104 17-07-2015 09:55:00 26.2 C 58 % 17.28 C
105 17-07-2015 10:00:00 26.3 C 58 % 17.38 C
106 17-07-2015 10:05:00 26.5 C 58 % 17.56 C
107 17-07-2015 10:10:00 26.6 C 57 % 17.38 C
108 17-07-2015 10:15:00 26.7 C 57 % 17.47 C
109 17-07-2015 10:20:00 26.7 C 57 % 17.47 C
110 17-07-2015 10:25:00 26.7 C 56 % 17.19 C
111 17-07-2015 10:30:00 26.7 C 56 % 17.19 C
112 17-07-2015 10:35:00 26.9 C 56 % 17.38 C
113 17-07-2015 10:40:00 26.9 C 56 % 17.38 C
114 17-07-2015 10:45:00 27.3 C 53 % 16.88 C
115 17-07-2015 10:50:00 27.4 C 53 % 16.97 C
116 17-07-2015 10:55:00 27.8 C 52 % 17.04 C
117 17-07-2015 11:00:00 27.9 C 50 % 16.51 C
118 17-07-2015 11:05:00 28.1 C 49 % 16.38 C
119 17-07-2015 11:10:00 28.4 C 49 % 16.65 C
120 17-07-2015 11:15:00 28.8 C 48 % 16.69 C
121 17-07-2015 11:20:00 29.1 C 46 % 16.3 C
122 17-07-2015 11:25:00 29.3 C 46 % 16.48 C
123 17-07-2015 11:30:00 29.4 C 46 % 16.57 C
124 17-07-2015 11:35:00 29.6 C 46 % 16.75 C
125 17-07-2015 11:40:00 29.7 C 45 % 16.5 C
Sensor: Nr:Datum:Temp:Feuchte:Taupunkt:
Aussen-T/F 126 17-07-2015 11:45:00 29.8 C 47 % 17.27 C
127 17-07-2015 11:50:00 29.9 C 46 % 17.02 C
128 17-07-2015 11:55:00 30.2 C 46 % 17.3 C
129 17-07-2015 12:00:00 30.3 C 45 % 17.04 C
130 17-07-2015 12:05:00 30.4 C 45 % 17.13 C
131 17-07-2015 12:10:00 30.7 C 44 % 17.04 C
132 17-07-2015 12:15:00 30.9 C 44 % 17.22 C
133 17-07-2015 12:20:00 31.2 C 44 % 17.49 C
134 17-07-2015 12:25:00 31.5 C 42 % 17.03 C
135 17-07-2015 12:30:00 31.7 C 42 % 17.21 C
136 17-07-2015 12:35:00 31.8 C 41 % 16.92 C
137 17-07-2015 12:40:00 31.8 C 42 % 17.3 C
138 17-07-2015 12:45:00 31.9 C 40 % 16.62 C
139 17-07-2015 12:50:00 32.4 C 39 % 16.66 C
140 17-07-2015 12:55:00 32.7 C 41 % 17.72 C
141 17-07-2015 13:00:00 32.8 C 37 % 16.19 C
142 17-07-2015 13:05:00 33.1 C 36 % 16.02 C
143 17-07-2015 13:10:00 33.2 C 36 % 16.11 C
144 17-07-2015 13:15:00 33.3 C 36 % 16.2 C
145 17-07-2015 13:20:00 33.4 C 36 % 16.29 C
146 17-07-2015 13:25:00 33.7 C 36 % 16.55 C
147 17-07-2015 13:30:00 34 C 35 % 16.37 C
148 17-07-2015 13:35:00 34.4 C 33 % 15.8 C
149 17-07-2015 13:40:00 34.4 C 33 % 15.8 C
150 17-07-2015 13:45:00 34.4 C 32 % 15.32 C
Sensor: Nr:Datum:Temp:Feuchte:Taupunkt:
Aussen-T/F 151 17-07-2015 13:50:00 34.4 C 32 % 15.32 C
152 17-07-2015 13:55:00 34.7 C 32 % 15.58 C
153 17-07-2015 14:00:00 34.8 C 32 % 15.66 C
154 17-07-2015 14:05:00 35.3 C 26 % 12.88 C
155 17-07-2015 14:10:00 35.4 C 25 % 12.37 C
156 17-07-2015 14:15:00 35.4 C 24 % 11.75 C
157 17-07-2015 14:20:00 35.6 C 24 % 11.92 C
158 17-07-2015 14:25:00 35.6 C 24 % 11.92 C
159 17-07-2015 14:30:00 35.8 C 22 % 10.77 C
160 17-07-2015 14:35:00 35.9 C 21 % 10.15 C
161 17-07-2015 14:40:00 35.8 C 22 % 10.77 C
162 17-07-2015 14:45:00 35.8 C 22 % 10.77 C
163 17-07-2015 14:50:00 35.9 C 21 % 10.15 C
164 17-07-2015 14:55:00 36.1 C 22 % 11.02 C
165 17-07-2015 15:00:00 36.2 C 22 % 11.1 C
166 17-07-2015 15:05:00 36.1 C 22 % 11.02 C
167 17-07-2015 15:10:00 35.8 C 23 % 11.44 C
168 17-07-2015 15:15:00 35.9 C 22 % 10.85 C
169 17-07-2015 15:20:00 36.1 C 22 % 11.02 C
170 17-07-2015 15:25:00 36.4 C 20 % 9.84 C
171 17-07-2015 15:30:00 36.4 C 20 % 9.84 C
172 17-07-2015 15:35:00 36.3 C 20 % 9.75 C
173 17-07-2015 15:40:00 36.3 C 19 % 8.99 C
174 17-07-2015 15:45:00 36.4 C 21 % 10.56 C
175 17-07-2015 15:50:00 36.6 C 20 % 10 C
Sensor: Nr:Datum:Temp:Feuchte:Taupunkt:
Aussen-T/F 176 17-07-2015 15:55:00 36.4 C 18 % 8.27 C
177 17-07-2015 16:00:00 36.6 C 19 % 9.24 C
178 17-07-2015 16:05:00 36.6 C 20 % 10 C
179 17-07-2015 16:10:00 36.6 C 20 % 10 C
180 17-07-2015 16:15:00 36.6 C 21 % 10.73 C
181 17-07-2015 16:20:00 36.5 C 21 % 10.65 C
182 17-07-2015 16:25:00 36.3 C 21 % 10.48 C
183 17-07-2015 16:30:00 36.3 C 21 % 10.48 C
184 17-07-2015 16:35:00 36.6 C 21 % 10.73 C
185 17-07-2015 16:40:00 36.7 C 21 % 10.81 C
186 17-07-2015 16:45:00 36.7 C 22 % 11.51 C
187 17-07-2015 16:50:00 36.8 C 21 % 10.89 C
188 17-07-2015 16:55:00 36.6 C 22 % 11.43 C
189 17-07-2015 17:00:00 36.3 C 22 % 11.18 C
190 17-07-2015 17:05:00 36.4 C 23 % 11.94 C
191 17-07-2015 17:10:00 36.6 C 22 % 11.43 C
192 17-07-2015 17:15:00 36.5 C 23 % 12.02 C
193 17-07-2015 17:20:00 36.6 C 22 % 11.43 C
194 17-07-2015 17:25:00 36.6 C 23 % 12.1 C
195 17-07-2015 17:30:00 36.6 C 23 % 12.1 C
196 17-07-2015 17:35:00 36.7 C 24 % 12.83 C
197 17-07-2015 17:40:00 36.7 C 23 % 12.18 C
198 17-07-2015 17:45:00 36.5 C 24 % 12.67 C
199 17-07-2015 17:50:00 36.3 C 23 % 11.85 C
200 17-07-2015 17:55:00 36.3 C 25 % 13.12 C
Sensor: Nr:Datum:Temp:Feuchte:Taupunkt:
Aussen-T/F 201 17-07-2015 18:00:00 36.2 C 26 % 13.64 C
202 17-07-2015 18:05:00 36.2 C 26 % 13.64 C
203 17-07-2015 18:10:00 36.1 C 25 % 12.95 C
204 17-07-2015 18:15:00 36.1 C 26 % 13.56 C
205 17-07-2015 18:20:00 36.1 C 25 % 12.95 C
206 17-07-2015 18:25:00 36.1 C 25 % 12.95 C
207 17-07-2015 18:30:00 35.9 C 26 % 13.39 C
208 17-07-2015 18:35:00 36.1 C 26 % 13.56 C
209 17-07-2015 18:40:00 36 C 26 % 13.47 C
210 17-07-2015 18:45:00 35.8 C 26 % 13.3 C
211 17-07-2015 18:50:00 35.7 C 27 % 13.8 C
212 17-07-2015 18:55:00 35.5 C 27 % 13.63 C
213 17-07-2015 19:00:00 35.6 C 27 % 13.71 C
214 17-07-2015 19:05:00 35.6 C 27 % 13.71 C
215 17-07-2015 19:10:00 35.4 C 27 % 13.54 C
216 17-07-2015 19:15:00 35.3 C 27 % 13.46 C
217 17-07-2015 19:20:00 35.2 C 27 % 13.38 C
218 17-07-2015 19:25:00 35 C 27 % 13.21 C
219 17-07-2015 19:30:00 34.9 C 29 % 14.22 C
220 17-07-2015 19:35:00 34.7 C 28 % 13.51 C
221 17-07-2015 19:40:00 34.5 C 29 % 13.88 C
222 17-07-2015 19:45:00 34.3 C 30 % 14.23 C
223 17-07-2015 19:50:00 34.1 C 30 % 14.06 C
224 17-07-2015 19:55:00 33.9 C 30 % 13.89 C
225 17-07-2015 20:00:00 33.7 C 31 % 14.22 C
Sensor: Nr:Datum:Temp:Feuchte:Taupunkt:
Aussen-T/F 226 17-07-2015 20:05:00 33.6 C 32 % 14.62 C
227 17-07-2015 20:10:00 33.3 C 33 % 14.84 C
228 17-07-2015 20:15:00 33.1 C 33 % 14.67 C
229 17-07-2015 20:20:00 32.8 C 36 % 15.76 C
230 17-07-2015 20:25:00 32.6 C 34 % 14.7 C
231 17-07-2015 20:30:00 32.6 C 35 % 15.15 C
232 17-07-2015 20:35:00 32.3 C 37 % 15.75 C
233 17-07-2015 20:40:00 31.9 C 35 % 14.53 C
234 17-07-2015 20:45:00 31.7 C 39 % 16.04 C
235 17-07-2015 20:50:00 31.2 C 39 % 15.6 C
236 17-07-2015 20:55:00 30.8 C 40 % 15.64 C
237 17-07-2015 21:00:00 30.5 C 40 % 15.37 C
238 17-07-2015 21:05:00 30.3 C 40 % 15.19 C
239 17-07-2015 21:10:00 30 C 42 % 15.69 C
240 17-07-2015 21:15:00 29.8 C 40 % 14.75 C
241 17-07-2015 21:20:00 29.6 C 43 % 15.69 C
242 17-07-2015 21:25:00 29.5 C 44 % 15.96 C
243 17-07-2015 21:30:00 29.3 C 41 % 14.68 C
244 17-07-2015 21:35:00 29 C 46 % 16.21 C
245 17-07-2015 21:40:00 28.4 C 48 % 16.33 C
246 17-07-2015 21:45:00 27.9 C 49 % 16.2 C
247 17-07-2015 21:50:00 27.4 C 51 % 16.37 C
248 17-07-2015 21:55:00 27.2 C 50 % 15.87 C
249 17-07-2015 22:00:00 27.2 C 48 % 15.24 C
250 17-07-2015 22:05:00 27.1 C 51 % 16.09 C
Sensor: Nr:Datum:Temp:Feuchte:Taupunkt:
Aussen-T/F 251 17-07-2015 22:10:00 26.9 C 52 % 16.21 C
252 17-07-2015 22:15:00 26.8 C 52 % 16.12 C
253 17-07-2015 22:20:00 26.7 C 52 % 16.03 C
254 17-07-2015 22:25:00 26.6 C 53 % 16.23 C
255 17-07-2015 22:30:00 26.6 C 51 % 15.63 C
256 17-07-2015 22:35:00 26.6 C 52 % 15.94 C
257 17-07-2015 22:40:00 26.6 C 53 % 16.23 C
258 17-07-2015 22:45:00 26.3 C 54 % 16.25 C
259 17-07-2015 22:50:00 25.9 C 55 % 16.17 C
260 17-07-2015 22:55:00 25.7 C 56 % 16.26 C
261 17-07-2015 23:00:00 25.5 C 57 % 16.36 C
262 17-07-2015 23:05:00 25.3 C 55 % 15.61 C
263 17-07-2015 23:10:00 25.3 C 57 % 16.17 C
264 17-07-2015 23:15:00 25.3 C 56 % 15.89 C
265 17-07-2015 23:20:00 25.3 C 57 % 16.17 C
266 17-07-2015 23:25:00 25.2 C 57 % 16.08 C
267 17-07-2015 23:30:00 25.2 C 57 % 16.08 C
268 17-07-2015 23:35:00 25.1 C 57 % 15.98 C
269 17-07-2015 23:40:00 25.3 C 57 % 16.17 C
270 17-07-2015 23:45:00 25.4 C 58 % 16.54 C
271 17-07-2015 23:50:00 25.3 C 59 % 16.71 C
272 17-07-2015 23:55:00 25.3 C 59 % 16.71 C
273 18-07-2015 00:00:00 25.2 C 60 % 16.88 C
274 18-07-2015 00:05:00 25 C 61 % 16.96 C
275 18-07-2015 00:10:00 24.8 C 62 % 17.02 C
Sensor: Nr:Datum:Temp:Feuchte:Taupunkt:
Aussen-T/F 276 18-07-2015 00:15:00 24.6 C 63 % 17.09 C
277 18-07-2015 00:20:00 24.4 C 63 % 16.9 C
278 18-07-2015 00:25:00 24.3 C 63 % 16.81 C
279 18-07-2015 00:30:00 24.3 C 63 % 16.81 C
280 18-07-2015 00:35:00 24.2 C 64 % 16.96 C
281 18-07-2015 00:40:00 24.1 C 65 % 17.11 C
282 18-07-2015 00:45:00 23.8 C 65 % 16.83 C
283 18-07-2015 00:50:00 23.6 C 66 % 16.88 C
284 18-07-2015 00:55:00 23.6 C 66 % 16.88 C
285 18-07-2015 01:00:00 23.6 C 66 % 16.88 C
286 18-07-2015 01:05:00 23.1 C 68 % 16.87 C
287 18-07-2015 01:10:00 22.9 C 69 % 16.91 C
288 18-07-2015 01:15:00 22.9 C 68 % 16.68 C
289 18-07-2015 01:20:00 22.9 C 69 % 16.91 C
290 18-07-2015 01:25:00 23 C 69 % 17.01 C
291 18-07-2015 01:30:00 22.9 C 69 % 16.91 C
292 18-07-2015 01:35:00 22.7 C 69 % 16.72 C
293 18-07-2015 01:40:00 22.6 C 70 % 16.85 C
294 18-07-2015 01:45:00 22.4 C 71 % 16.88 C
295 18-07-2015 01:50:00 22.2 C 71 % 16.69 C
296 18-07-2015 01:55:00 22.1 C 72 % 16.82 C
297 18-07-2015 02:00:00 21.9 C 72 % 16.62 C
298 18-07-2015 02:05:00 21.8 C 72 % 16.53 C
299 18-07-2015 02:10:00 21.7 C 73 % 16.65 C
300 18-07-2015 02:15:00 21.7 C 72 % 16.43 C
Sensor: Nr:Datum:Temp:Feuchte:Taupunkt:
Aussen-T/F 301 18-07-2015 02:20:00 21.9 C 71 % 16.4 C
302 18-07-2015 02:25:00 22.1 C 71 % 16.6 C
303 18-07-2015 02:30:00 22.2 C 69 % 16.24 C
304 18-07-2015 02:35:00 22.5 C 68 % 16.3 C
305 18-07-2015 02:40:00 22.7 C 67 % 16.26 C
306 18-07-2015 02:45:00 22.7 C 67 % 16.26 C
307 18-07-2015 02:50:00 22.7 C 67 % 16.26 C
308 18-07-2015 02:55:00 22.5 C 68 % 16.3 C
309 18-07-2015 03:00:00 22.3 C 69 % 16.34 C
310 18-07-2015 03:05:00 22.1 C 70 % 16.37 C
311 18-07-2015 03:10:00 21.7 C 71 % 16.21 C
312 18-07-2015 03:15:00 21.4 C 72 % 16.14 C
313 18-07-2015 03:20:00 21.2 C 73 % 16.17 C
314 18-07-2015 03:25:00 21 C 74 % 16.19 C
315 18-07-2015 03:30:00 20.9 C 74 % 16.09 C
316 18-07-2015 03:35:00 20.9 C 74 % 16.09 C
317 18-07-2015 03:40:00 20.9 C 74 % 16.09 C
318 18-07-2015 03:45:00 20.8 C 74 % 16 C
319 18-07-2015 03:50:00 20.8 C 74 % 16 C
320 18-07-2015 03:55:00 20.7 C 75 % 16.11 C
321 18-07-2015 04:00:00 20.7 C 75 % 16.11 C
322 18-07-2015 04:05:00 20.7 C 75 % 16.11 C
323 18-07-2015 04:10:00 20.7 C 75 % 16.11 C
324 18-07-2015 04:15:00 20.7 C 75 % 16.11 C
325 18-07-2015 04:20:00 20.6 C 76 % 16.22 C
Sensor: Nr:Datum:Temp:Feuchte:Taupunkt:
Aussen-T/F 326 18-07-2015 04:25:00 20.6 C 76 % 16.22 C
327 18-07-2015 04:30:00 20.4 C 77 % 16.23 C
328 18-07-2015 04:35:00 20.4 C 77 % 16.23 C
329 18-07-2015 04:40:00 20.4 C 77 % 16.23 C
330 18-07-2015 04:45:00 20.5 C 77 % 16.33 C
331 18-07-2015 04:50:00 20.5 C 77 % 16.33 C
332 18-07-2015 04:55:00 20.4 C 77 % 16.23 C
333 18-07-2015 05:00:00 20.5 C 76 % 16.12 C
334 18-07-2015 05:05:00 20.6 C 76 % 16.22 C
335 18-07-2015 05:10:00 20.5 C 76 % 16.12 C
336 18-07-2015 05:15:00 20.5 C 76 % 16.12 C
337 18-07-2015 05:20:00 20.6 C 76 % 16.22 C
338 18-07-2015 05:25:00 20.8 C 77 % 16.62 C
339 18-07-2015 05:30:00 20.8 C 76 % 16.41 C
340 18-07-2015 05:35:00 20.8 C 78 % 16.82 C
341 18-07-2015 05:40:00 20.8 C 79 % 17.02 C
342 18-07-2015 05:45:00 20.7 C 80 % 17.13 C
343 18-07-2015 05:50:00 20.7 C 80 % 17.13 C
344 18-07-2015 05:55:00 20.7 C 81 % 17.32 C
345 18-07-2015 06:00:00 20.6 C 81 % 17.22 C
346 18-07-2015 06:05:00 20.6 C 81 % 17.22 C
347 18-07-2015 06:10:00 20.6 C 81 % 17.22 C
348 18-07-2015 06:15:00 20.6 C 81 % 17.22 C
349 18-07-2015 06:20:00 20.5 C 81 % 17.13 C
350 18-07-2015 06:25:00 20.5 C 82 % 17.32 C
Sensor: Nr:Datum:Temp:Feuchte:Taupunkt:
Aussen-T/F 351 18-07-2015 06:30:00 20.4 C 82 % 17.22 C
352 18-07-2015 06:35:00 20.4 C 82 % 17.22 C
353 18-07-2015 06:40:00 20.4 C 82 % 17.22 C
354 18-07-2015 06:45:00 20.4 C 82 % 17.22 C
355 18-07-2015 06:50:00 20.3 C 83 % 17.32 C
356 18-07-2015 06:55:00 20.3 C 83 % 17.32 C
357 18-07-2015 07:00:00 20.3 C 84 % 17.51 C
358 18-07-2015 07:05:00 20.3 C 84 % 17.51 C
359 18-07-2015 07:10:00 20.4 C 83 % 17.42 C
360 18-07-2015 07:15:00 20.5 C 83 % 17.51 C
361 18-07-2015 07:20:00 20.6 C 83 % 17.61 C
362 18-07-2015 07:25:00 20.6 C 83 % 17.61 C
363 18-07-2015 07:30:00 20.7 C 83 % 17.71 C
364 18-07-2015 07:35:00 20.7 C 83 % 17.71 C
365 18-07-2015 07:40:00 20.8 C 82 % 17.61 C
366 18-07-2015 07:45:00 20.9 C 82 % 17.71 C
367 18-07-2015 07:50:00 21 C 82 % 17.81 C
368 18-07-2015 07:55:00 21.1 C 82 % 17.91 C
369 18-07-2015 08:00:00 21.2 C 81 % 17.81 C
370 18-07-2015 08:05:00 21.2 C 81 % 17.81 C
371 18-07-2015 08:10:00 21.3 C 81 % 17.91 C
372 18-07-2015 08:15:00 21.4 C 80 % 17.81 C
373 18-07-2015 08:20:00 21.4 C 81 % 18 C
374 18-07-2015 08:25:00 21.5 C 80 % 17.9 C
375 18-07-2015 08:30:00 21.6 C 80 % 18 C
Sensor: Nr:Datum:Temp:Feuchte:Taupunkt:
Aussen-T/F 376 18-07-2015 08:35:00 21.6 C 80 % 18 C
377 18-07-2015 08:40:00 21.7 C 79 % 17.9 C
378 18-07-2015 08:45:00 21.7 C 79 % 17.9 C
379 18-07-2015 08:50:00 21.8 C 79 % 18 C
380 18-07-2015 08:55:00 21.8 C 79 % 18 C
381 18-07-2015 09:00:00 21.9 C 79 % 18.09 C
382 18-07-2015 09:05:00 22.1 C 78 % 18.08 C
383 18-07-2015 09:10:00 22.4 C 77 % 18.17 C
384 18-07-2015 09:15:00 22.7 C 76 % 18.25 C
385 18-07-2015 09:20:00 22.8 C 75 % 18.14 C
386 18-07-2015 09:25:00 22.9 C 74 % 18.02 C
387 18-07-2015 09:30:00 23.1 C 72 % 17.78 C
388 18-07-2015 09:35:00 23.2 C 71 % 17.65 C
389 18-07-2015 09:40:00 23.2 C 71 % 17.65 C
390 18-07-2015 09:45:00 23.2 C 70 % 17.42 C
391 18-07-2015 09:50:00 23.3 C 70 % 17.52 C
392 18-07-2015 09:55:00 23.4 C 69 % 17.39 C
393 18-07-2015 10:00:00 23.6 C 68 % 17.35 C
394 18-07-2015 10:05:00 23.7 C 70 % 17.9 C
395 18-07-2015 10:10:00 24 C 66 % 17.26 C
396 18-07-2015 10:15:00 24.3 C 66 % 17.54 C
397 18-07-2015 10:20:00 24.7 C 65 % 17.68 C
398 18-07-2015 10:25:00 25.1 C 63 % 17.56 C
399 18-07-2015 10:30:00 25.4 C 61 % 17.33 C
400 18-07-2015 10:35:00 25.6 C 60 % 17.26 C
Sensor: Nr:Datum:Temp:Feuchte:Taupunkt:
Aussen-T/F 401 18-07-2015 10:40:00 25.7 C 60 % 17.35 C
402 18-07-2015 10:45:00 25.7 C 60 % 17.35 C
403 18-07-2015 10:50:00 25.7 C 60 % 17.35 C
404 18-07-2015 10:55:00 25.7 C 60 % 17.35 C
405 18-07-2015 11:00:00 26.1 C 60 % 17.73 C
406 18-07-2015 11:05:00 26.3 C 58 % 17.38 C
407 18-07-2015 11:10:00 26.4 C 56 % 16.92 C
408 18-07-2015 11:15:00 26.2 C 56 % 16.73 C
409 18-07-2015 11:20:00 26.2 C 58 % 17.28 C
410 18-07-2015 11:25:00 26.4 C 56 % 16.92 C
411 18-07-2015 11:30:00 26.8 C 54 % 16.71 C
412 18-07-2015 11:35:00 26.9 C 54 % 16.81 C
413 18-07-2015 11:40:00 26.9 C 54 % 16.81 C
414 18-07-2015 11:45:00 26.8 C 54 % 16.71 C
415 18-07-2015 11:50:00 26.8 C 55 % 17 C
416 18-07-2015 11:55:00 27.1 C 54 % 16.99 C
417 18-07-2015 12:00:00 27.1 C 53 % 16.7 C
418 18-07-2015 12:05:00 27.2 C 53 % 16.79 C
419 18-07-2015 12:10:00 27.3 C 52 % 16.58 C
420 18-07-2015 12:15:00 27.3 C 52 % 16.58 C
421 18-07-2015 12:20:00 27.6 C 50 % 16.24 C
422 18-07-2015 12:25:00 27.8 C 48 % 15.78 C
423 18-07-2015 12:30:00 27.8 C 48 % 15.78 C
424 18-07-2015 12:35:00 27.7 C 49 % 16.01 C
425 18-07-2015 12:40:00 27.5 C 49 % 15.83 C
Sensor: Nr:Datum:Temp:Feuchte:Taupunkt:
Aussen-T/F 426 18-07-2015 12:45:00 27.4 C 49 % 15.74 C
427 18-07-2015 12:50:00 27.3 C 49 % 15.65 C
428 18-07-2015 12:55:00 27.3 C 49 % 15.65 C
429 18-07-2015 13:00:00 27.3 C 49 % 15.65 C
430 18-07-2015 13:05:00 27.3 C 50 % 15.97 C
431 18-07-2015 13:10:00 27.3 C 49 % 15.65 C
432 18-07-2015 13:15:00 27.6 C 48 % 15.6 C
433 18-07-2015 13:20:00 27.7 C 48 % 15.69 C
434 18-07-2015 13:25:00 27.7 C 48 % 15.69 C
435 18-07-2015 13:30:00 27.6 C 48 % 15.6 C
436 18-07-2015 13:35:00 27.6 C 48 % 15.6 C
437 18-07-2015 13:40:00 27.6 C 48 % 15.6 C
438 18-07-2015 13:45:00 27.8 C 47 % 15.45 C
439 18-07-2015 13:50:00 27.9 C 48 % 15.87 C
440 18-07-2015 13:55:00 27.9 C 46 % 15.21 C
441 18-07-2015 14:00:00 27.9 C 47 % 15.55 C
442 18-07-2015 14:05:00 27.9 C 46 % 15.21 C
443 18-07-2015 14:10:00 28.2 C 47 % 15.82 C
444 18-07-2015 14:15:00 28.2 C 45 % 15.14 C
445 18-07-2015 14:20:00 28.2 C 45 % 15.14 C
446 18-07-2015 14:25:00 28.1 C 46 % 15.39 C
447 18-07-2015 14:30:00 28.1 C 45 % 15.05 C
448 18-07-2015 14:35:00 28 C 45 % 14.96 C
449 18-07-2015 14:40:00 27.9 C 47 % 15.55 C
450 18-07-2015 14:45:00 27.9 C 44 % 14.52 C
Sensor: Nr:Datum:Temp:Feuchte:Taupunkt:
Aussen-T/F 451 18-07-2015 14:50:00 27.8 C 45 % 14.78 C
452 18-07-2015 14:55:00 27.8 C 44 % 14.43 C
453 18-07-2015 15:00:00 27.6 C 45 % 14.6 C
454 18-07-2015 15:05:00 27.6 C 47 % 15.27 C
455 18-07-2015 15:10:00 27.4 C 46 % 14.76 C
456 18-07-2015 15:15:00 27.3 C 47 % 15 C
457 18-07-2015 15:20:00 27.2 C 47 % 14.91 C
458 18-07-2015 15:25:00 27.2 C 49 % 15.56 C
459 18-07-2015 15:30:00 27.1 C 47 % 14.82 C
460 18-07-2015 15:35:00 27.1 C 47 % 14.82 C
461 18-07-2015 15:40:00 27 C 47 % 14.73 C
462 18-07-2015 15:45:00 26.9 C 46 % 14.3 C
463 18-07-2015 15:50:00 26.8 C 46 % 14.21 C
464 18-07-2015 15:55:00 26.8 C 46 % 14.21 C
465 18-07-2015 16:00:00 26.8 C 46 % 14.21 C
466 18-07-2015 16:05:00 26.8 C 46 % 14.21 C
467 18-07-2015 16:10:00 26.8 C 46 % 14.21 C
468 18-07-2015 16:15:00 26.7 C 47 % 14.45 C
469 18-07-2015 16:20:00 26.8 C 46 % 14.21 C
470 18-07-2015 16:25:00 26.9 C 45 % 13.96 C
471 18-07-2015 16:30:00 26.8 C 44 % 13.53 C
472 18-07-2015 16:35:00 26.7 C 46 % 14.12 C
473 18-07-2015 16:40:00 26.7 C 45 % 13.78 C
474 18-07-2015 16:45:00 26.7 C 45 % 13.78 C
475 18-07-2015 16:50:00 26.7 C 44 % 13.44 C
Sensor: Nr:Datum:Temp:Feuchte:Taupunkt:
Aussen-T/F 476 18-07-2015 16:55:00 26.8 C 44 % 13.53 C
477 18-07-2015 17:00:00 26.8 C 44 % 13.53 C
478 18-07-2015 17:05:00 26.8 C 44 % 13.53 C
479 18-07-2015 17:10:00 27 C 45 % 14.06 C
480 18-07-2015 17:15:00 27.1 C 45 % 14.15 C
481 18-07-2015 17:20:00 27.1 C 45 % 14.15 C
482 18-07-2015 17:25:00 27.1 C 45 % 14.15 C
483 18-07-2015 19:45:00 26.1 C 51 % 15.17 C
484 18-07-2015 19:50:00 25.8 C 52 % 15.2 C
485 18-07-2015 19:55:00 25.7 C 45 % 12.88 C
486 18-07-2015 20:00:00 25.8 C 48 % 13.96 C
487 18-07-2015 20:05:00 25.8 C 46 % 13.31 C
488 18-07-2015 20:10:00 25.9 C 44 % 12.72 C
489 18-07-2015 20:15:00 26.1 C 44 % 12.9 C
490 18-07-2015 20:20:00 26.2 C 44 % 12.99 C
491 18-07-2015 20:25:00 26.2 C 43 % 12.64 C
492 18-07-2015 20:30:00 26.2 C 43 % 12.64 C
493 18-07-2015 20:35:00 26 C 42 % 12.1 C
494 18-07-2015 20:40:00 26 C 42 % 12.1 C
495 18-07-2015 20:45:00 26 C 43 % 12.46 C
496 18-07-2015 20:50:00 25.4 C 43 % 11.92 C
497 18-07-2015 20:55:00 25.3 C 43 % 11.83 C
498 18-07-2015 21:00:00 25.1 C 44 % 12 C
499 18-07-2015 21:05:00 24.7 C 48 % 12.96 C
500 18-07-2015 21:10:00 24 C 51 % 13.24 C
Sensor: Nr:Datum:Temp:Feuchte:Taupunkt:
Aussen-T/F 501 18-07-2015 21:15:00 23.3 C 52 % 12.9 C
502 18-07-2015 21:20:00 22.8 C 53 % 12.73 C
503 18-07-2015 21:25:00 22.3 C 55 % 12.83 C
504 18-07-2015 21:30:00 22 C 55 % 12.55 C
505 18-07-2015 21:35:00 21.8 C 56 % 12.64 C
506 18-07-2015 21:40:00 21.6 C 58 % 12.99 C
507 18-07-2015 21:45:00 21.3 C 59 % 12.97 C
508 18-07-2015 21:50:00 21.2 C 60 % 13.13 C
509 18-07-2015 21:55:00 21.1 C 59 % 12.78 C
510 18-07-2015 22:00:00 20.9 C 59 % 12.59 C
511 18-07-2015 22:05:00 20.8 C 61 % 13.01 C
512 18-07-2015 22:10:00 20.8 C 61 % 13.01 C
513 18-07-2015 22:15:00 20.8 C 61 % 13.01 C
514 18-07-2015 22:20:00 20.6 C 61 % 12.82 C
515 18-07-2015 22:25:00 20.4 C 62 % 12.88 C
516 18-07-2015 22:30:00 20.3 C 62 % 12.79 C
517 18-07-2015 22:35:00 20.2 C 61 % 12.44 C
518 18-07-2015 22:40:00 20.2 C 61 % 12.44 C
519 18-07-2015 22:45:00 20.2 C 63 % 12.94 C
520 18-07-2015 22:50:00 20.1 C 63 % 12.84 C
521 18-07-2015 22:55:00 20 C 63 % 12.75 C
522 18-07-2015 23:00:00 19.9 C 63 % 12.65 C
523 18-07-2015 23:05:00 19.8 C 63 % 12.56 C
524 18-07-2015 23:10:00 19.7 C 63 % 12.46 C
525 18-07-2015 23:15:00 19.6 C 64 % 12.61 C
Sensor: Nr:Datum:Temp:Feuchte:Taupunkt:
Aussen-T/F 526 18-07-2015 23:20:00 19.5 C 64 % 12.51 C
527 18-07-2015 23:25:00 19.4 C 64 % 12.42 C
528 18-07-2015 23:30:00 19.4 C 64 % 12.42 C
529 18-07-2015 23:35:00 19.3 C 66 % 12.79 C
530 18-07-2015 23:40:00 19.3 C 65 % 12.56 C
531 18-07-2015 23:45:00 19.2 C 66 % 12.7 C
532 18-07-2015 23:50:00 19.2 C 66 % 12.7 C
533 18-07-2015 23:55:00 19.1 C 66 % 12.6 C
534 19-07-2015 00:00:00 18.9 C 67 % 12.64 C
535 19-07-2015 00:05:00 18.9 C 67 % 12.64 C
536 19-07-2015 00:10:00 18.8 C 68 % 12.77 C
537 19-07-2015 00:15:00 18.8 C 68 % 12.77 C
538 19-07-2015 05:10:00 16.7 C 91 % 15.22 C
539 19-07-2015 05:15:00 16.5 C 91 % 15.03 C
540 19-07-2015 05:20:00 16.3 C 91 % 14.83 C
541 19-07-2015 05:25:00 16.3 C 92 % 15 C
542 19-07-2015 05:30:00 16.2 C 92 % 14.9 C
543 19-07-2015 05:35:00 16.2 C 93 % 15.07 C
544 19-07-2015 05:40:00 16.1 C 93 % 14.97 C
545 19-07-2015 05:45:00 16.1 C 93 % 14.97 C
546 19-07-2015 07:00:00 16.4 C 95 % 15.6 C
547 19-07-2015 07:05:00 16.3 C 95 % 15.5 C
548 19-07-2015 07:10:00 16.3 C 94 % 15.33 C
549 19-07-2015 07:15:00 16.3 C 94 % 15.33 C
550 19-07-2015 08:40:00 17.1 C 95 % 16.29 C
Sensor: Nr:Datum:Temp:Feuchte:Taupunkt:
Aussen-T/F 551 19-07-2015 08:45:00 17.1 C 95 % 16.29 C
552 19-07-2015 08:50:00 17.2 C 95 % 16.39 C
553 19-07-2015 08:55:00 17.2 C 95 % 16.39 C
554 19-07-2015 09:00:00 17.2 C 95 % 16.39 C
555 19-07-2015 09:05:00 17.2 C 95 % 16.39 C
556 19-07-2015 09:10:00 17.2 C 95 % 16.39 C
557 19-07-2015 09:15:00 17.2 C 95 % 16.39 C
558 19-07-2015 09:40:00 18 C 100 % 18 C
559 19-07-2015 09:45:00 18 C 100 % 18 C
560 19-07-2015 09:50:00 18.1 C 94 % 17.12 C
561 19-07-2015 09:55:00 18.3 C 94 % 17.32 C
562 19-07-2015 10:00:00 18.3 C 94 % 17.32 C
563 19-07-2015 10:05:00 18.3 C 94 % 17.32 C
564 19-07-2015 10:25:00 19.8 C 94 % 18.81 C
565 19-07-2015 10:30:00 20.1 C 93 % 18.93 C
566 19-07-2015 10:35:00 20.4 C 92 % 19.06 C
567 19-07-2015 10:40:00 20.4 C 90 % 18.7 C
568 19-07-2015 10:45:00 21 C 89 % 19.12 C
569 19-07-2015 10:50:00 21.1 C 89 % 19.22 C
570 19-07-2015 10:55:00 21.4 C 88 % 19.33 C
571 19-07-2015 11:00:00 21.7 C 87 % 19.44 C
572 19-07-2015 11:05:00 21.9 C 86 % 19.45 C
573 19-07-2015 11:10:00 22.1 C 87 % 19.83 C
574 19-07-2015 11:15:00 22.2 C 86 % 19.75 C
575 19-07-2015 11:20:00 22.3 C 85 % 19.65 C
Sensor: Nr:Datum:Temp:Feuchte:Taupunkt:
Aussen-T/F 576 19-07-2015 11:25:00 22.4 C 84 % 19.56 C
577 19-07-2015 11:30:00 22.5 C 84 % 19.66 C
578 19-07-2015 11:35:00 22.7 C 84 % 19.86 C
579 19-07-2015 11:40:00 22.9 C 82 % 19.66 C
580 19-07-2015 11:45:00 23.2 C 82 % 19.95 C
581 19-07-2015 11:50:00 23.3 C 81 % 19.85 C
582 19-07-2015 11:55:00 23.2 C 80 % 19.56 C
583 19-07-2015 12:00:00 22.9 C 80 % 19.26 C
584 19-07-2015 12:05:00 22.6 C 81 % 19.17 C
585 19-07-2015 12:10:00 22.4 C 83 % 19.37 C
586 19-07-2015 12:15:00 22.4 C 82 % 19.17 C
587 19-07-2015 12:20:00 22.4 C 82 % 19.17 C
588 19-07-2015 12:25:00 22.4 C 83 % 19.37 C
589 19-07-2015 12:30:00 22.7 C 81 % 19.27 C
590 19-07-2015 12:35:00 22.8 C 80 % 19.17 C
591 19-07-2015 12:40:00 23.1 C 81 % 19.66 C
592 19-07-2015 12:45:00 23.3 C 79 % 19.45 C
593 19-07-2015 12:50:00 23.4 C 77 % 19.14 C
594 19-07-2015 12:55:00 23.5 C 79 % 19.65 C
595 19-07-2015 13:00:00 23.6 C 78 % 19.54 C
596 19-07-2015 13:05:00 23.6 C 77 % 19.33 C
597 19-07-2015 13:10:00 23.5 C 78 % 19.44 C
598 19-07-2015 13:15:00 23.3 C 78 % 19.25 C
599 19-07-2015 13:20:00 23.2 C 78 % 19.15 C
600 19-07-2015 13:25:00 23.1 C 79 % 19.26 C
Sensor: Nr:Datum:Temp:Feuchte:Taupunkt:
Aussen-T/F 601 19-07-2015 13:30:00 23 C 81 % 19.56 C
602 19-07-2015 13:35:00 22.9 C 81 % 19.46 C
603 19-07-2015 13:40:00 23 C 80 % 19.36 C
604 19-07-2015 13:45:00 23.1 C 80 % 19.46 C
605 19-07-2015 13:50:00 23.1 C 81 % 19.66 C
606 19-07-2015 13:55:00 23.3 C 81 % 19.85 C
607 19-07-2015 14:00:00 23.6 C 78 % 19.54 C
608 19-07-2015 14:05:00 23.8 C 76 % 19.31 C
609 19-07-2015 14:10:00 23.9 C 76 % 19.41 C
610 19-07-2015 14:15:00 23.9 C 76 % 19.41 C
611 19-07-2015 14:20:00 23.9 C 75 % 19.2 C
612 19-07-2015 14:25:00 24 C 75 % 19.29 C
613 19-07-2015 14:30:00 24.1 C 74 % 19.17 C
614 19-07-2015 14:35:00 23.9 C 74 % 18.98 C
615 19-07-2015 14:40:00 23.7 C 76 % 19.22 C
616 19-07-2015 14:45:00 23.5 C 76 % 19.02 C
617 19-07-2015 14:50:00 23.5 C 76 % 19.02 C
618 19-07-2015 14:55:00 23.5 C 75 % 18.81 C
619 19-07-2015 15:00:00 23.6 C 78 % 19.54 C
620 19-07-2015 15:05:00 23.6 C 76 % 19.12 C
621 19-07-2015 15:10:00 23.7 C 75 % 19 C
622 19-07-2015 15:15:00 23.8 C 73 % 18.67 C
623 19-07-2015 15:20:00 24.1 C 73 % 18.96 C
624 19-07-2015 15:25:00 24.3 C 72 % 18.93 C
625 19-07-2015 15:30:00 24.5 C 71 % 18.89 C
Sensor: Nr:Datum:Temp:Feuchte:Taupunkt:
Aussen-T/F 626 19-07-2015 15:35:00 24.5 C 70 % 18.67 C
627 19-07-2015 15:40:00 24.4 C 69 % 18.34 C
628 19-07-2015 15:45:00 24.4 C 69 % 18.34 C
629 19-07-2015 15:50:00 24.4 C 69 % 18.34 C
630 19-07-2015 15:55:00 24.4 C 71 % 18.8 C
631 19-07-2015 16:00:00 24.1 C 74 % 19.17 C
632 19-07-2015 16:05:00 23.7 C 76 % 19.22 C
633 19-07-2015 16:10:00 23.3 C 78 % 19.25 C
634 19-07-2015 16:15:00 22.9 C 79 % 19.06 C
635 19-07-2015 16:20:00 22.7 C 80 % 19.07 C
636 19-07-2015 16:25:00 22.4 C 82 % 19.17 C
637 19-07-2015 16:30:00 22.3 C 83 % 19.27 C
638 19-07-2015 16:35:00 22.3 C 83 % 19.27 C
639 19-07-2015 16:40:00 22.3 C 84 % 19.46 C
640 19-07-2015 16:45:00 22.3 C 84 % 19.46 C
641 19-07-2015 16:50:00 22.5 C 82 % 19.27 C
642 19-07-2015 16:55:00 22.8 C 81 % 19.37 C
643 19-07-2015 17:00:00 23.2 C 75 % 18.52 C
644 19-07-2015 17:05:00 23.8 C 69 % 17.77 C
645 19-07-2015 17:10:00 24 C 69 % 17.96 C
646 19-07-2015 17:15:00 24.1 C 66 % 17.35 C
647 19-07-2015 17:20:00 23.9 C 66 % 17.16 C
648 19-07-2015 17:25:00 23.8 C 66 % 17.07 C
649 19-07-2015 17:30:00 23.5 C 67 % 17.02 C
650 19-07-2015 17:35:00 23.3 C 66 % 16.59 C
Sensor: Nr:Datum:Temp:Feuchte:Taupunkt:
Aussen-T/F 651 19-07-2015 17:40:00 23.2 C 67 % 16.73 C
652 19-07-2015 17:45:00 23.3 C 68 % 17.06 C
653 19-07-2015 17:50:00 23.4 C 68 % 17.16 C
654 19-07-2015 17:55:00 23.4 C 69 % 17.39 C
655 19-07-2015 18:00:00 23.4 C 69 % 17.39 C
656 19-07-2015 18:05:00 23.4 C 68 % 17.16 C
657 19-07-2015 18:10:00 23.4 C 65 % 16.45 C
658 19-07-2015 18:15:00 23.3 C 65 % 16.35 C
659 19-07-2015 18:20:00 23.2 C 66 % 16.5 C
660 19-07-2015 18:25:00 23.2 C 65 % 16.26 C
661 19-07-2015 18:30:00 23.1 C 65 % 16.16 C
662 19-07-2015 18:35:00 23.1 C 65 % 16.16 C
663 19-07-2015 18:40:00 23 C 66 % 16.31 C
664 19-07-2015 18:45:00 23 C 66 % 16.31 C
665 19-07-2015 18:50:00 23 C 67 % 16.54 C
666 19-07-2015 18:55:00 23 C 67 % 16.54 C
667 19-07-2015 19:00:00 23 C 66 % 16.31 C
668 19-07-2015 19:05:00 22.9 C 67 % 16.45 C
669 19-07-2015 19:10:00 22.9 C 67 % 16.45 C
670 19-07-2015 19:15:00 22.9 C 67 % 16.45 C
671 19-07-2015 19:20:00 22.9 C 68 % 16.68 C
672 19-07-2015 19:25:00 22.8 C 67 % 16.35 C
673 19-07-2015 19:30:00 22.8 C 67 % 16.35 C
674 19-07-2015 19:35:00 22.9 C 67 % 16.45 C
675 19-07-2015 19:40:00 22.9 C 66 % 16.21 C
Sensor: Nr:Datum:Temp:Feuchte:Taupunkt:
Aussen-T/F 676 19-07-2015 19:45:00 22.8 C 66 % 16.12 C
677 19-07-2015 19:50:00 22.7 C 66 % 16.02 C
678 19-07-2015 19:55:00 22.6 C 67 % 16.16 C
679 19-07-2015 20:00:00 22.4 C 67 % 15.97 C
680 19-07-2015 20:05:00 22.3 C 68 % 16.11 C
681 19-07-2015 20:10:00 22.2 C 68 % 16.01 C
682 19-07-2015 20:15:00 22.1 C 69 % 16.15 C
683 19-07-2015 20:20:00 22 C 70 % 16.28 C
684 19-07-2015 20:25:00 21.9 C 70 % 16.18 C
685 19-07-2015 20:30:00 21.9 C 71 % 16.4 C
686 19-07-2015 20:35:00 21.8 C 71 % 16.31 C
687 19-07-2015 20:40:00 21.8 C 71 % 16.31 C
688 19-07-2015 20:45:00 21.8 C 71 % 16.31 C
689 19-07-2015 20:50:00 21.7 C 72 % 16.43 C
690 19-07-2015 20:55:00 21.7 C 72 % 16.43 C
691 19-07-2015 21:00:00 21.7 C 72 % 16.43 C
692 19-07-2015 21:05:00 21.6 C 73 % 16.55 C
693 19-07-2015 21:10:00 21.6 C 73 % 16.55 C
694 19-07-2015 21:15:00 21.6 C 73 % 16.55 C
695 19-07-2015 21:20:00 21.5 C 73 % 16.46 C
696 19-07-2015 21:25:00 21.5 C 73 % 16.46 C
697 19-07-2015 21:30:00 21.5 C 73 % 16.46 C
698 20-07-2015 07:10:00 18.3 C 92 % 16.98 C
699 20-07-2015 07:15:00 18.3 C 92 % 16.98 C
700 20-07-2015 07:20:00 18.3 C 93 % 17.15 C
Sensor: Nr:Datum:Temp:Feuchte:Taupunkt:
Aussen-T/F 701 20-07-2015 07:25:00 18.3 C 93 % 17.15 C
702 20-07-2015 07:30:00 18.3 C 93 % 17.15 C
703 20-07-2015 07:35:00 18.3 C 93 % 17.15 C
704 20-07-2015 07:40:00 18.3 C 93 % 17.15 C
705 20-07-2015 07:45:00 18.3 C 93 % 17.15 C
706 20-07-2015 07:50:00 18.3 C 94 % 17.32 C
707 20-07-2015 07:55:00 18.3 C 94 % 17.32 C
708 20-07-2015 08:00:00 18.4 C 94 % 17.42 C
709 20-07-2015 08:05:00 18.4 C 94 % 17.42 C
710 20-07-2015 08:10:00 18.4 C 94 % 17.42 C
711 20-07-2015 08:15:00 18.4 C 94 % 17.42 C
712 20-07-2015 08:20:00 18.4 C 94 % 17.42 C
713 20-07-2015 08:25:00 18.5 C 94 % 17.52 C
714 20-07-2015 08:30:00 18.6 C 94 % 17.62 C
715 20-07-2015 08:35:00 18.6 C 94 % 17.62 C
716 20-07-2015 08:40:00 18.6 C 95 % 17.78 C
717 20-07-2015 08:45:00 18.6 C 95 % 17.78 C
718 20-07-2015 08:50:00 18.6 C 95 % 17.78 C
719 20-07-2015 08:55:00 18.7 C 95 % 17.88 C
720 20-07-2015 09:00:00 18.7 C 95 % 17.88 C
721 20-07-2015 09:05:00 18.8 C 95 % 17.98 C
722 20-07-2015 09:10:00 18.9 C 95 % 18.08 C
723 20-07-2015 09:15:00 18.9 C 95 % 18.08 C
724 20-07-2015 09:20:00 18.9 C 95 % 18.08 C
725 20-07-2015 09:40:00 19.2 C 94 % 18.21 C
Sensor: Nr:Datum:Temp:Feuchte:Taupunkt:
Aussen-T/F 726 20-07-2015 09:45:00 19.2 C 94 % 18.21 C
727 20-07-2015 09:50:00 19.3 C 95 % 18.48 C
728 20-07-2015 09:55:00 19.4 C 94 % 18.41 C
729 20-07-2015 10:00:00 19.4 C 94 % 18.41 C
730 20-07-2015 10:05:00 19.5 C 94 % 18.51 C
731 20-07-2015 10:10:00 19.6 C 94 % 18.61 C
732 20-07-2015 10:15:00 19.8 C 94 % 18.81 C
733 20-07-2015 10:20:00 20 C 94 % 19 C
734 20-07-2015 10:25:00 20.1 C 94 % 19.1 C
735 20-07-2015 10:30:00 20.3 C 94 % 19.3 C
736 20-07-2015 10:35:00 20.3 C 92 % 18.96 C
737 20-07-2015 10:40:00 20.5 C 92 % 19.15 C
738 20-07-2015 10:45:00 20.6 C 92 % 19.25 C
739 20-07-2015 10:50:00 20.6 C 92 % 19.25 C
740 20-07-2015 10:55:00 20.6 C 91 % 19.08 C
741 20-07-2015 11:00:00 20.6 C 91 % 19.08 C
742 20-07-2015 11:05:00 20.7 C 92 % 19.35 C
743 20-07-2015 11:10:00 20.8 C 92 % 19.45 C
744 20-07-2015 11:15:00 20.9 C 91 % 19.37 C
745 20-07-2015 11:20:00 21.1 C 92 % 19.75 C
746 20-07-2015 11:25:00 21.3 C 92 % 19.95 C
747 20-07-2015 11:30:00 21.4 C 91 % 19.87 C
748 20-07-2015 11:35:00 21.6 C 90 % 19.89 C
749 20-07-2015 11:40:00 21.8 C 90 % 20.09 C
750 20-07-2015 11:45:00 21.9 C 88 % 19.82 C
Sensor: Nr:Datum:Temp:Feuchte:Taupunkt:
Aussen-T/F 751 20-07-2015 11:50:00 22 C 89 % 20.1 C
752 20-07-2015 11:55:00 22.1 C 87 % 19.83 C
753 20-07-2015 12:00:00 22.1 C 89 % 20.2 C
754 20-07-2015 12:05:00 22.1 C 88 % 20.02 C
755 20-07-2015 12:10:00 22.1 C 87 % 19.83 C
756 20-07-2015 12:15:00 22.2 C 87 % 19.93 C
757 20-07-2015 12:20:00 22.3 C 86 % 19.84 C
758 20-07-2015 12:25:00 22.6 C 87 % 20.32 C
759 20-07-2015 12:30:00 22.9 C 84 % 20.05 C
760 20-07-2015 12:35:00 23.5 C 84 % 20.64 C
761 20-07-2015 12:40:00 24 C 80 % 20.33 C
762 20-07-2015 12:45:00 24.4 C 79 % 20.52 C
763 20-07-2015 12:50:00 24.4 C 77 % 20.1 C
764 20-07-2015 12:55:00 24.3 C 77 % 20.01 C
765 20-07-2015 13:00:00 24.1 C 78 % 20.02 C
766 20-07-2015 13:05:00 24.2 C 78 % 20.12 C
767 20-07-2015 13:10:00 24.4 C 77 % 20.1 C
768 20-07-2015 13:15:00 24.4 C 77 % 20.1 C
769 20-07-2015 13:20:00 24.4 C 79 % 20.52 C
770 20-07-2015 13:25:00 24.4 C 76 % 19.89 C
771 20-07-2015 13:30:00 24.4 C 75 % 19.68 C
772 20-07-2015 13:35:00 24.4 C 78 % 20.31 C
773 20-07-2015 13:40:00 24.3 C 79 % 20.42 C
774 20-07-2015 13:45:00 24 C 78 % 19.92 C
775 20-07-2015 13:50:00 23.7 C 80 % 20.04 C
Sensor: Nr:Datum:Temp:Feuchte:Taupunkt:
Aussen-T/F 776 20-07-2015 13:55:00 23.6 C 81 % 20.15 C
777 20-07-2015 14:00:00 23.6 C 82 % 20.34 C
778 20-07-2015 14:05:00 23.4 C 81 % 19.95 C
779 20-07-2015 14:10:00 23.2 C 84 % 20.34 C
780 20-07-2015 14:15:00 22.8 C 84 % 19.95 C
781 20-07-2015 14:20:00 22.6 C 86 % 20.14 C
782 20-07-2015 14:25:00 22.4 C 89 % 20.5 C
783 20-07-2015 14:30:00 22.3 C 90 % 20.58 C
784 20-07-2015 14:35:00 22.2 C 90 % 20.48 C
785 20-07-2015 14:40:00 22.1 C 90 % 20.38 C
786 20-07-2015 14:45:00 21.9 C 91 % 20.36 C
787 20-07-2015 14:50:00 21.9 C 92 % 20.54 C
788 20-07-2015 14:55:00 21.9 C 92 % 20.54 C
789 20-07-2015 15:00:00 21.9 C 93 % 20.72 C
790 20-07-2015 15:05:00 21.9 C 93 % 20.72 C
791 20-07-2015 15:45:00 22.6 C 91 % 21.05 C
792 20-07-2015 15:50:00 22.8 C 91 % 21.25 C
793 20-07-2015 15:55:00 22.8 C 90 % 21.07 C
794 20-07-2015 16:00:00 23 C 91 % 21.45 C
795 20-07-2015 16:05:00 23.3 C 92 % 21.93 C
796 20-07-2015 16:10:00 23.6 C 91 % 22.04 C
797 20-07-2015 16:15:00 23.9 C 89 % 21.97 C
798 20-07-2015 16:20:00 24.1 C 86 % 21.61 C
799 20-07-2015 16:25:00 24.2 C 89 % 22.27 C
800 20-07-2015 16:30:00 24.1 C 88 % 21.99 C
Sensor: Nr:Datum:Temp:Feuchte:Taupunkt:
Aussen-T/F 801 20-07-2015 16:35:00 24.2 C 84 % 21.32 C
802 20-07-2015 16:40:00 24.4 C 84 % 21.52 C
803 20-07-2015 16:45:00 24.7 C 86 % 22.2 C
804 20-07-2015 16:50:00 25.1 C 81 % 21.61 C
805 20-07-2015 16:55:00 25.8 C 80 % 22.08 C
806 20-07-2015 17:00:00 26.1 C 80 % 22.38 C
807 20-07-2015 17:05:00 25.8 C 77 % 21.46 C
808 20-07-2015 17:10:00 25.6 C 81 % 22.09 C
809 20-07-2015 17:15:00 25.4 C 81 % 21.9 C
810 20-07-2015 17:20:00 25.4 C 79 % 21.49 C
811 20-07-2015 17:25:00 25.3 C 80 % 21.6 C
812 20-07-2015 17:30:00 25.1 C 79 % 21.2 C
813 20-07-2015 17:35:00 24.9 C 81 % 21.41 C
814 20-07-2015 17:40:00 24.9 C 81 % 21.41 C
815 20-07-2015 17:45:00 24.8 C 81 % 21.31 C
816 20-07-2015 17:50:00 24.8 C 82 % 21.52 C
817 20-07-2015 17:55:00 24.8 C 80 % 21.11 C
818 20-07-2015 18:00:00 24.8 C 77 % 20.49 C
819 20-07-2015 18:05:00 24.9 C 79 % 21 C
820 20-07-2015 18:10:00 24.8 C 78 % 20.7 C
821 20-07-2015 18:15:00 24.7 C 79 % 20.81 C
822 20-07-2015 18:20:00 24.7 C 77 % 20.39 C
823 20-07-2015 18:25:00 24.7 C 79 % 20.81 C
824 20-07-2015 18:30:00 24.6 C 80 % 20.92 C
825 20-07-2015 18:35:00 24.5 C 83 % 21.42 C
Sensor: Nr:Datum:Temp:Feuchte:Taupunkt:
Aussen-T/F 826 20-07-2015 18:40:00 24.2 C 85 % 21.52 C
827 20-07-2015 18:45:00 23.9 C 84 % 21.03 C
828 20-07-2015 18:50:00 23.9 C 82 % 20.64 C
829 20-07-2015 18:55:00 24.1 C 85 % 21.42 C
830 20-07-2015 19:00:00 23.9 C 85 % 21.22 C
831 20-07-2015 19:05:00 23.8 C 85 % 21.12 C
832 20-07-2015 19:10:00 23.8 C 84 % 20.93 C
833 20-07-2015 19:15:00 23.9 C 83 % 20.83 C
834 20-07-2015 19:20:00 23.8 C 84 % 20.93 C
835 20-07-2015 19:25:00 23.6 C 85 % 20.93 C
836 20-07-2015 19:30:00 23.4 C 87 % 21.11 C
837 20-07-2015 19:35:00 23.1 C 88 % 21 C
838 20-07-2015 19:40:00 22.9 C 88 % 20.81 C
839 20-07-2015 19:45:00 22.9 C 89 % 20.99 C
840 20-07-2015 19:50:00 22.8 C 89 % 20.89 C
841 20-07-2015 19:55:00 22.6 C 90 % 20.87 C
842 20-07-2015 20:00:00 22.4 C 90 % 20.68 C
843 20-07-2015 20:05:00 22.4 C 89 % 20.5 C
844 20-07-2015 20:10:00 22.7 C 88 % 20.61 C
845 20-07-2015 20:15:00 22.7 C 88 % 20.61 C
846 20-07-2015 20:20:00 22.7 C 89 % 20.79 C
847 20-07-2015 20:25:00 22.5 C 89 % 20.59 C
848 20-07-2015 20:30:00 22.4 C 90 % 20.68 C
849 20-07-2015 20:35:00 22.3 C 90 % 20.58 C
850 20-07-2015 20:40:00 22.2 C 90 % 20.48 C
Sensor: Nr:Datum:Temp:Feuchte:Taupunkt:
Aussen-T/F 851 20-07-2015 20:45:00 22.1 C 90 % 20.38 C
852 20-07-2015 20:50:00 22 C 90 % 20.28 C
853 20-07-2015 20:55:00 21.9 C 91 % 20.36 C
854 20-07-2015 21:00:00 21.8 C 91 % 20.26 C
855 20-07-2015 21:05:00 21.8 C 91 % 20.26 C
856 20-07-2015 21:10:00 21.7 C 91 % 20.17 C
857 20-07-2015 21:15:00 21.6 C 92 % 20.24 C
858 20-07-2015 21:20:00 21.5 C 92 % 20.14 C
859 20-07-2015 21:25:00 21.4 C 92 % 20.05 C
860 20-07-2015 21:30:00 21.3 C 93 % 20.12 C
861 20-07-2015 21:35:00 21.4 C 93 % 20.22 C
862 20-07-2015 21:40:00 21.4 C 93 % 20.22 C
863 20-07-2015 21:45:00 21.4 C 92 % 20.05 C
864 20-07-2015 21:50:00 21.3 C 93 % 20.12 C
865 20-07-2015 21:55:00 21.3 C 93 % 20.12 C
866 20-07-2015 22:00:00 21.2 C 93 % 20.02 C
867 20-07-2015 22:05:00 21.1 C 93 % 19.92 C
868 20-07-2015 22:10:00 20.9 C 93 % 19.72 C
869 20-07-2015 22:15:00 20.8 C 93 % 19.63 C
870 20-07-2015 22:20:00 20.7 C 93 % 19.53 C
871 20-07-2015 22:25:00 20.6 C 93 % 19.43 C
872 20-07-2015 22:30:00 20.5 C 93 % 19.33 C
873 20-07-2015 22:35:00 20.4 C 93 % 19.23 C
874 20-07-2015 22:40:00 20.4 C 94 % 19.4 C
875 20-07-2015 22:45:00 20.3 C 93 % 19.13 C
Sensor: Nr:Datum:Temp:Feuchte:Taupunkt:
Aussen-T/F 876 20-07-2015 22:50:00 20.3 C 94 % 19.3 C
877 20-07-2015 22:55:00 20.3 C 94 % 19.3 C
878 21-07-2015 02:25:00 18.7 C 95 % 17.88 C
879 21-07-2015 02:30:00 18.7 C 95 % 17.88 C
880 21-07-2015 02:35:00 18.8 C 96 % 18.15 C
881 21-07-2015 02:40:00 18.8 C 96 % 18.15 C
882 21-07-2015 03:55:00 19 C 96 % 18.35 C
883 21-07-2015 04:00:00 19 C 96 % 18.35 C
884 21-07-2015 04:05:00 18.9 C 96 % 18.25 C
885 21-07-2015 04:10:00 18.9 C 96 % 18.25 C
886 21-07-2015 04:15:00 18.9 C 96 % 18.25 C
887 21-07-2015 04:20:00 18.8 C 96 % 18.15 C
888 21-07-2015 04:25:00 18.8 C 96 % 18.15 C
889 21-07-2015 04:30:00 18.8 C 96 % 18.15 C
890 21-07-2015 05:30:00 18.3 C 96 % 17.65 C
891 21-07-2015 05:35:00 18.3 C 96 % 17.65 C
892 21-07-2015 07:25:00 18.4 C 97 % 17.91 C
893 21-07-2015 07:30:00 18.6 C 96 % 17.95 C
894 21-07-2015 07:35:00 18.7 C 96 % 18.05 C
895 21-07-2015 07:40:00 18.8 C 97 % 18.31 C
896 21-07-2015 07:45:00 18.8 C 97 % 18.31 C
897 21-07-2015 08:05:00 19.9 C 94 % 18.91 C
898 21-07-2015 08:10:00 20.3 C 93 % 19.13 C
899 21-07-2015 08:15:00 20.7 C 91 % 19.18 C
900 21-07-2015 08:20:00 21.1 C 90 % 19.39 C
Sensor: Nr:Datum:Temp:Feuchte:Taupunkt:
Aussen-T/F 901 21-07-2015 08:25:00 21.4 C 88 % 19.33 C
902 21-07-2015 08:30:00 21.7 C 87 % 19.44 C
903 21-07-2015 08:35:00 21.9 C 86 % 19.45 C
904 21-07-2015 08:40:00 22 C 85 % 19.36 C
905 21-07-2015 08:45:00 22.2 C 85 % 19.56 C
906 21-07-2015 08:50:00 22.2 C 85 % 19.56 C
907 21-07-2015 08:55:00 22.7 C 85 % 20.05 C
908 21-07-2015 09:00:00 22.8 C 85 % 20.14 C
909 21-07-2015 09:05:00 22.7 C 82 % 19.47 C
910 21-07-2015 09:10:00 22.7 C 82 % 19.47 C
911 21-07-2015 09:15:00 22.6 C 82 % 19.37 C
912 21-07-2015 09:20:00 22.5 C 83 % 19.47 C
913 21-07-2015 09:25:00 22.5 C 82 % 19.27 C
914 21-07-2015 09:30:00 22.3 C 82 % 19.08 C
915 21-07-2015 09:35:00 22.3 C 82 % 19.08 C
916 21-07-2015 09:40:00 22.8 C 82 % 19.56 C
917 21-07-2015 09:45:00 22.8 C 81 % 19.37 C
918 21-07-2015 09:50:00 22.8 C 81 % 19.37 C
919 21-07-2015 09:55:00 22.9 C 81 % 19.46 C
920 21-07-2015 10:00:00 22.9 C 81 % 19.46 C
921 21-07-2015 10:05:00 23.2 C 81 % 19.76 C
922 21-07-2015 10:10:00 23.4 C 79 % 19.55 C
923 21-07-2015 10:15:00 23.4 C 78 % 19.34 C
924 21-07-2015 10:20:00 23.5 C 79 % 19.65 C
925 21-07-2015 10:25:00 23.7 C 78 % 19.63 C
Sensor: Nr:Datum:Temp:Feuchte:Taupunkt:
Aussen-T/F 926 21-07-2015 10:30:00 23.9 C 77 % 19.62 C
927 21-07-2015 10:35:00 24.2 C 75 % 19.49 C
928 21-07-2015 10:40:00 24.3 C 74 % 19.37 C
929 21-07-2015 10:45:00 24.4 C 74 % 19.46 C
930 21-07-2015 10:50:00 24.6 C 74 % 19.66 C
931 21-07-2015 10:55:00 24.8 C 73 % 19.63 C
932 21-07-2015 11:00:00 24.6 C 73 % 19.44 C
933 21-07-2015 11:05:00 24.6 C 74 % 19.66 C
934 21-07-2015 11:10:00 24.8 C 75 % 20.06 C
935 21-07-2015 11:15:00 24.9 C 72 % 19.5 C
936 21-07-2015 11:20:00 25 C 73 % 19.82 C
937 21-07-2015 11:25:00 24.9 C 73 % 19.72 C
938 21-07-2015 11:30:00 25 C 72 % 19.6 C
939 21-07-2015 11:35:00 25.2 C 72 % 19.79 C
940 21-07-2015 11:40:00 25.4 C 72 % 19.98 C
941 21-07-2015 11:45:00 25.6 C 70 % 19.72 C
942 21-07-2015 11:50:00 25.7 C 72 % 20.27 C
943 21-07-2015 11:55:00 25.9 C 70 % 20.01 C
944 21-07-2015 12:00:00 26.2 C 67 % 19.59 C
945 21-07-2015 12:05:00 26.6 C 68 % 20.2 C
946 21-07-2015 12:10:00 26.5 C 65 % 19.38 C
947 21-07-2015 12:15:00 26.3 C 66 % 19.44 C
948 21-07-2015 12:20:00 26.4 C 66 % 19.53 C
949 21-07-2015 12:25:00 26.7 C 67 % 20.06 C
950 21-07-2015 12:30:00 26.8 C 65 % 19.67 C
Sensor: Nr:Datum:Temp:Feuchte:Taupunkt:
Aussen-T/F 951 21-07-2015 12:35:00 26.9 C 65 % 19.76 C
952 21-07-2015 12:40:00 27.2 C 64 % 19.79 C
953 21-07-2015 12:45:00 27.4 C 64 % 19.98 C
954 21-07-2015 12:50:00 27.8 C 61 % 19.59 C
955 21-07-2015 12:55:00 27.9 C 62 % 19.94 C
956 21-07-2015 13:00:00 28.2 C 61 % 19.96 C
957 21-07-2015 13:05:00 28.4 C 60 % 19.88 C
958 21-07-2015 13:10:00 28.6 C 59 % 19.8 C
959 21-07-2015 13:15:00 28.7 C 58 % 19.62 C
960 21-07-2015 13:20:00 28.8 C 58 % 19.71 C
961 21-07-2015 13:25:00 28.8 C 59 % 19.99 C
962 21-07-2015 13:30:00 28.7 C 58 % 19.62 C
963 21-07-2015 13:35:00 28.4 C 59 % 19.61 C
964 21-07-2015 13:40:00 28.4 C 59 % 19.61 C
965 21-07-2015 13:45:00 28.8 C 58 % 19.71 C
966 21-07-2015 13:50:00 29 C 58 % 19.9 C
967 21-07-2015 13:55:00 29.4 C 58 % 20.27 C
968 21-07-2015 14:00:00 29.7 C 54 % 19.39 C
969 21-07-2015 14:05:00 29.7 C 55 % 19.69 C
970 21-07-2015 14:10:00 29.9 C 54 % 19.58 C
971 21-07-2015 14:15:00 29.7 C 54 % 19.39 C
972 21-07-2015 14:20:00 29.4 C 54 % 19.12 C
973 21-07-2015 14:25:00 29.1 C 59 % 20.27 C
974 21-07-2015 14:30:00 28.9 C 60 % 20.35 C
975 21-07-2015 14:35:00 29.2 C 55 % 19.23 C
Sensor: Nr:Datum:Temp:Feuchte:Taupunkt:
Aussen-T/F 976 21-07-2015 14:40:00 29.3 C 56 % 19.61 C
977 21-07-2015 14:45:00 29.1 C 57 % 19.71 C
978 21-07-2015 14:50:00 29 C 60 % 20.44 C
979 21-07-2015 14:55:00 28.7 C 58 % 19.62 C
980 21-07-2015 15:00:00 28.6 C 62 % 20.6 C
981 21-07-2015 15:05:00 28.4 C 61 % 20.15 C
982 21-07-2015 15:10:00 28.5 C 66 % 21.52 C
983 21-07-2015 15:15:00 28.8 C 57 % 19.43 C
984 21-07-2015 15:20:00 29.1 C 58 % 19.99 C
985 21-07-2015 15:25:00 29.4 C 55 % 19.41 C
986 21-07-2015 15:30:00 29.8 C 56 % 20.07 C
987 21-07-2015 15:35:00 30.4 C 52 % 19.43 C
988 21-07-2015 15:40:00 30.8 C 52 % 19.8 C
989 21-07-2015 15:45:00 30.8 C 50 % 19.17 C
990 21-07-2015 15:50:00 30.8 C 51 % 19.49 C
991 21-07-2015 15:55:00 30.9 C 52 % 19.89 C
992 21-07-2015 16:00:00 30.9 C 49 % 18.94 C
993 21-07-2015 16:05:00 30.7 C 51 % 19.4 C
994 21-07-2015 16:10:00 30.7 C 50 % 19.08 C
995 21-07-2015 16:15:00 31.1 C 50 % 19.44 C
996 21-07-2015 16:20:00 31.2 C 47 % 18.54 C
997 21-07-2015 16:25:00 31.2 C 49 % 19.21 C
998 21-07-2015 16:30:00 31.6 C 47 % 18.91 C
999 21-07-2015 16:35:00 31.9 C 47 % 19.18 C
1000 21-07-2015 16:40:00 31.8 C 47 % 19.09 C
Sensor: Nr:Datum:Temp:Feuchte:Taupunkt:
Aussen-T/F 1001 21-07-2015 16:45:00 31.4 C 48 % 19.06 C
1002 21-07-2015 16:50:00 31.7 C 48 % 19.34 C
1003 21-07-2015 16:55:00 31.9 C 47 % 19.18 C
1004 21-07-2015 17:00:00 32.3 C 47 % 19.54 C
1005 21-07-2015 17:05:00 32.3 C 46 % 19.2 C
1006 21-07-2015 17:10:00 32 C 47 % 19.27 C
1007 21-07-2015 17:15:00 32 C 48 % 19.61 C
1008 21-07-2015 17:20:00 32.1 C 46 % 19.02 C
1009 21-07-2015 17:25:00 32.2 C 46 % 19.11 C
1010 21-07-2015 17:30:00 32.4 C 45 % 18.93 C
1011 21-07-2015 17:35:00 32.6 C 46 % 19.47 C
1012 21-07-2015 17:40:00 32.6 C 45 % 19.12 C
1013 21-07-2015 17:45:00 32.6 C 44 % 18.75 C
1014 21-07-2015 17:50:00 32.4 C 45 % 18.93 C
1015 21-07-2015 17:55:00 32.3 C 45 % 18.84 C
1016 21-07-2015 18:00:00 31.9 C 46 % 18.83 C
1017 21-07-2015 18:05:00 31.9 C 46 % 18.83 C
1018 21-07-2015 18:10:00 32.3 C 46 % 19.2 C
1019 21-07-2015 18:15:00 32.3 C 45 % 18.84 C
1020 21-07-2015 18:20:00 31.7 C 47 % 19 C
1021 21-07-2015 18:25:00 31.1 C 47 % 18.45 C
1022 21-07-2015 18:30:00 30.7 C 52 % 19.71 C
1023 21-07-2015 18:35:00 30.6 C 50 % 18.99 C
1024 21-07-2015 18:40:00 30.9 C 48 % 18.61 C
1025 21-07-2015 18:45:00 31.2 C 48 % 18.88 C
Sensor: Nr:Datum:Temp:Feuchte:Taupunkt:
Aussen-T/F 1026 21-07-2015 18:50:00 30.8 C 53 % 20.11 C
1027 21-07-2015 18:55:00 30.1 C 53 % 19.46 C
1028 21-07-2015 19:00:00 29.7 C 56 % 19.98 C
1029 21-07-2015 19:05:00 29.6 C 56 % 19.89 C
1030 21-07-2015 19:10:00 29.4 C 58 % 20.27 C
1031 21-07-2015 19:15:00 29.6 C 56 % 19.89 C
1032 21-07-2015 19:20:00 30 C 55 % 19.97 C
1033 21-07-2015 19:25:00 30.3 C 56 % 20.54 C
1034 21-07-2015 19:30:00 30.4 C 55 % 20.34 C
1035 21-07-2015 19:35:00 30.3 C 56 % 20.54 C
1036 21-07-2015 19:40:00 30.1 C 56 % 20.35 C
1037 21-07-2015 19:45:00 29.8 C 58 % 20.64 C
1038 21-07-2015 19:50:00 29.6 C 59 % 20.73 C
1039 21-07-2015 19:55:00 29.4 C 60 % 20.82 C
1040 21-07-2015 20:00:00 29.2 C 59 % 20.36 C
1041 21-07-2015 20:05:00 29.1 C 61 % 20.81 C
1042 21-07-2015 20:10:00 28.8 C 62 % 20.79 C
1043 21-07-2015 20:15:00 28.7 C 62 % 20.69 C
1044 21-07-2015 20:20:00 28.6 C 63 % 20.86 C
1045 21-07-2015 20:25:00 28.3 C 63 % 20.58 C
1046 21-07-2015 20:30:00 28.2 C 64 % 20.74 C
1047 21-07-2015 20:35:00 28.1 C 64 % 20.64 C
1048 21-07-2015 20:40:00 27.9 C 65 % 20.71 C
1049 21-07-2015 20:45:00 27.7 C 65 % 20.52 C
1050 21-07-2015 20:50:00 27.6 C 66 % 20.67 C
Sensor: Nr:Datum:Temp:Feuchte:Taupunkt:
Aussen-T/F 1051 21-07-2015 20:55:00 27.4 C 66 % 20.48 C
1052 21-07-2015 21:00:00 27.2 C 68 % 20.78 C
1053 21-07-2015 21:05:00 26.9 C 68 % 20.49 C
1054 21-07-2015 21:10:00 26.6 C 69 % 20.44 C
1055 21-07-2015 21:15:00 26.2 C 72 % 20.75 C
1056 21-07-2015 21:20:00 25.9 C 73 % 20.69 C
1057 21-07-2015 21:25:00 25.9 C 73 % 20.69 C
1058 21-07-2015 21:30:00 24.9 C 73 % 19.72 C
1059 21-07-2015 21:35:00 24.5 C 79 % 20.62 C
1060 21-07-2015 21:40:00 24.4 C 79 % 20.52 C
1061 21-07-2015 21:45:00 24.2 C 81 % 20.73 C
1062 21-07-2015 21:50:00 23.9 C 82 % 20.64 C
1063 21-07-2015 21:55:00 23.7 C 83 % 20.64 C
1064 21-07-2015 22:00:00 23.4 C 83 % 20.35 C
1065 21-07-2015 22:05:00 23.3 C 84 % 20.44 C
1066 21-07-2015 22:10:00 23.2 C 84 % 20.34 C
1067 21-07-2015 22:15:00 23.1 C 84 % 20.25 C
1068 21-07-2015 22:20:00 22.9 C 85 % 20.24 C
1069 21-07-2015 22:25:00 22.8 C 85 % 20.14 C
1070 21-07-2015 22:30:00 22.8 C 86 % 20.33 C
1071 21-07-2015 22:35:00 22.6 C 86 % 20.14 C
1072 21-07-2015 22:40:00 22.5 C 86 % 20.04 C
1073 21-07-2015 22:45:00 22.4 C 87 % 20.13 C
1074 21-07-2015 22:50:00 22.3 C 87 % 20.03 C
1075 21-07-2015 22:55:00 22.3 C 87 % 20.03 C
Sensor: Nr:Datum:Temp:Feuchte:Taupunkt:
Aussen-T/F 1076 21-07-2015 23:00:00 22.2 C 88 % 20.12 C
1077 21-07-2015 23:05:00 22.2 C 88 % 20.12 C
1078 21-07-2015 23:10:00 22.1 C 88 % 20.02 C
1079 21-07-2015 23:15:00 22 C 88 % 19.92 C
1080 21-07-2015 23:20:00 21.9 C 88 % 19.82 C
1081 21-07-2015 23:25:00 21.9 C 89 % 20 C
1082 21-07-2015 23:30:00 21.8 C 89 % 19.9 C
1083 21-07-2015 23:35:00 21.8 C 89 % 19.9 C
1084 21-07-2015 23:40:00 21.7 C 89 % 19.81 C
1085 21-07-2015 23:45:00 21.7 C 89 % 19.81 C
1086 21-07-2015 23:50:00 21.6 C 89 % 19.71 C
1087 21-07-2015 23:55:00 21.6 C 89 % 19.71 C
1088 22-07-2015 00:00:00 21.6 C 90 % 19.89 C
1089 22-07-2015 00:05:00 21.5 C 90 % 19.79 C
1090 22-07-2015 00:10:00 21.5 C 90 % 19.79 C
1091 22-07-2015 00:15:00 21.4 C 90 % 19.69 C
1092 22-07-2015 00:20:00 21.4 C 90 % 19.69 C
1093 22-07-2015 00:25:00 21.4 C 90 % 19.69 C
1094 22-07-2015 00:30:00 21.3 C 90 % 19.59 C
1095 22-07-2015 00:35:00 21.3 C 90 % 19.59 C
1096 22-07-2015 00:40:00 21.2 C 91 % 19.67 C
1097 22-07-2015 00:45:00 21.2 C 90 % 19.49 C
1098 22-07-2015 00:50:00 21.1 C 91 % 19.57 C
1099 22-07-2015 00:55:00 20.9 C 91 % 19.37 C
1100 22-07-2015 01:00:00 20.9 C 91 % 19.37 C
Sensor: Nr:Datum:Temp:Feuchte:Taupunkt:
Aussen-T/F 1101 22-07-2015 01:05:00 20.9 C 91 % 19.37 C
1102 22-07-2015 01:10:00 20.8 C 92 % 19.45 C
1103 22-07-2015 01:15:00 20.8 C 92 % 19.45 C
1104 22-07-2015 01:20:00 20.7 C 92 % 19.35 C
1105 22-07-2015 01:25:00 20.7 C 92 % 19.35 C
1106 22-07-2015 01:30:00 20.7 C 92 % 19.35 C
1107 22-07-2015 01:35:00 20.7 C 92 % 19.35 C
1108 22-07-2015 01:40:00 20.7 C 92 % 19.35 C
1109 22-07-2015 01:45:00 20.6 C 92 % 19.25 C
1110 22-07-2015 01:50:00 20.6 C 92 % 19.25 C
1111 22-07-2015 01:55:00 20.5 C 92 % 19.15 C
1112 22-07-2015 02:00:00 20.4 C 92 % 19.06 C
1113 22-07-2015 02:05:00 20.3 C 93 % 19.13 C
1114 22-07-2015 02:10:00 20.3 C 93 % 19.13 C
1115 22-07-2015 02:15:00 20.3 C 93 % 19.13 C
1116 22-07-2015 02:20:00 20.2 C 93 % 19.03 C
1117 22-07-2015 02:25:00 20.2 C 93 % 19.03 C
1118 22-07-2015 02:30:00 20.2 C 93 % 19.03 C
1119 22-07-2015 02:35:00 20.1 C 93 % 18.93 C
1120 22-07-2015 02:40:00 20.1 C 93 % 18.93 C
1121 22-07-2015 02:45:00 20 C 93 % 18.83 C
1122 22-07-2015 02:50:00 19.9 C 93 % 18.73 C
1123 22-07-2015 02:55:00 19.8 C 93 % 18.63 C
1124 22-07-2015 03:00:00 19.8 C 93 % 18.63 C
1125 22-07-2015 03:05:00 19.7 C 93 % 18.54 C
Sensor: Nr:Datum:Temp:Feuchte:Taupunkt:
Aussen-T/F 1126 22-07-2015 03:10:00 19.7 C 93 % 18.54 C
1127 22-07-2015 03:15:00 19.6 C 93 % 18.44 C
1128 22-07-2015 03:20:00 19.6 C 93 % 18.44 C
1129 22-07-2015 03:25:00 19.4 C 93 % 18.24 C
1130 22-07-2015 03:30:00 19.4 C 94 % 18.41 C
1131 22-07-2015 03:35:00 19.4 C 94 % 18.41 C
1132 22-07-2015 03:40:00 19.3 C 94 % 18.31 C
1133 22-07-2015 03:45:00 19.3 C 94 % 18.31 C
1134 22-07-2015 03:50:00 19.3 C 94 % 18.31 C
1135 22-07-2015 03:55:00 19.3 C 94 % 18.31 C
1136 22-07-2015 04:00:00 19.2 C 94 % 18.21 C
1137 22-07-2015 04:05:00 19.2 C 94 % 18.21 C
1138 22-07-2015 04:10:00 19.2 C 94 % 18.21 C
1139 22-07-2015 04:15:00 19.2 C 94 % 18.21 C
1140 22-07-2015 04:20:00 19.2 C 94 % 18.21 C
1141 22-07-2015 04:25:00 19.2 C 94 % 18.21 C
1142 22-07-2015 04:30:00 19.2 C 94 % 18.21 C
1143 22-07-2015 04:35:00 19.1 C 94 % 18.11 C
1144 22-07-2015 04:40:00 19 C 95 % 18.18 C
1145 22-07-2015 04:45:00 18.9 C 95 % 18.08 C
1146 22-07-2015 04:50:00 18.9 C 94 % 17.91 C
1147 22-07-2015 04:55:00 18.8 C 94 % 17.81 C
1148 22-07-2015 05:00:00 18.8 C 95 % 17.98 C
1149 22-07-2015 05:05:00 18.8 C 95 % 17.98 C
1150 22-07-2015 05:10:00 18.8 C 95 % 17.98 C
Sensor: Nr:Datum:Temp:Feuchte:Taupunkt:
Aussen-T/F 1151 22-07-2015 05:15:00 18.8 C 95 % 17.98 C
1152 22-07-2015 05:20:00 18.7 C 95 % 17.88 C
1153 22-07-2015 05:25:00 18.7 C 95 % 17.88 C
1154 22-07-2015 05:30:00 18.6 C 95 % 17.78 C
1155 22-07-2015 05:35:00 18.6 C 95 % 17.78 C
1156 22-07-2015 05:40:00 18.7 C 95 % 17.88 C
1157 22-07-2015 05:45:00 18.6 C 95 % 17.78 C
1158 22-07-2015 05:50:00 18.6 C 95 % 17.78 C
1159 22-07-2015 05:55:00 18.7 C 95 % 17.88 C
1160 22-07-2015 06:00:00 18.7 C 95 % 17.88 C
1161 22-07-2015 06:05:00 18.7 C 95 % 17.88 C
1162 22-07-2015 06:10:00 18.7 C 95 % 17.88 C
1163 22-07-2015 06:15:00 18.7 C 95 % 17.88 C
1164 22-07-2015 06:20:00 18.7 C 96 % 18.05 C
1165 22-07-2015 06:25:00 18.8 C 96 % 18.15 C
1166 22-07-2015 06:30:00 18.8 C 96 % 18.15 C
1167 22-07-2015 06:35:00 18.8 C 96 % 18.15 C
1168 22-07-2015 06:40:00 18.8 C 96 % 18.15 C
1169 22-07-2015 06:45:00 18.9 C 96 % 18.25 C
1170 22-07-2015 06:50:00 19 C 96 % 18.35 C
1171 22-07-2015 06:55:00 19.1 C 96 % 18.45 C
1172 22-07-2015 07:00:00 19.1 C 96 % 18.45 C
1173 22-07-2015 07:05:00 19.2 C 96 % 18.55 C
1174 22-07-2015 07:10:00 19.2 C 96 % 18.55 C
1175 22-07-2015 07:15:00 19.3 C 96 % 18.65 C
Sensor: Nr:Datum:Temp:Feuchte:Taupunkt:
Aussen-T/F 1176 22-07-2015 07:20:00 19.3 C 96 % 18.65 C
1177 22-07-2015 07:25:00 19.3 C 96 % 18.65 C
1178 22-07-2015 07:30:00 19.3 C 96 % 18.65 C
1179 22-07-2015 07:35:00 19.3 C 96 % 18.65 C
1180 22-07-2015 07:40:00 19.3 C 96 % 18.65 C
1181 22-07-2015 07:45:00 19.3 C 96 % 18.65 C
1182 22-07-2015 08:30:00 21.7 C 91 % 20.17 C
1183 22-07-2015 08:35:00 21.9 C 90 % 20.18 C
1184 22-07-2015 08:40:00 22 C 89 % 20.1 C
1185 22-07-2015 08:45:00 22.1 C 88 % 20.02 C
1186 22-07-2015 08:50:00 22.2 C 88 % 20.12 C
1187 22-07-2015 08:55:00 22.2 C 86 % 19.75 C
1188 22-07-2015 09:00:00 22.2 C 85 % 19.56 C
1189 22-07-2015 09:05:00 22.2 C 85 % 19.56 C
1190 22-07-2015 09:10:00 22.2 C 85 % 19.56 C
1191 22-07-2015 09:15:00 22.2 C 85 % 19.56 C
1192 22-07-2015 09:20:00 22.6 C 83 % 19.56 C
1193 22-07-2015 09:25:00 22.7 C 83 % 19.66 C
1194 22-07-2015 09:30:00 22.8 C 84 % 19.95 C
1195 22-07-2015 09:35:00 22.9 C 81 % 19.46 C
1196 22-07-2015 09:40:00 23.1 C 80 % 19.46 C
1197 22-07-2015 09:45:00 23.3 C 81 % 19.85 C
1198 22-07-2015 09:50:00 23.4 C 79 % 19.55 C
1199 22-07-2015 09:55:00 23.6 C 79 % 19.74 C
1200 22-07-2015 10:00:00 23.6 C 80 % 19.95 C
Sensor: Nr:Datum:Temp:Feuchte:Taupunkt:
Aussen-T/F 1201 22-07-2015 10:05:00 23.7 C 80 % 20.04 C
1202 22-07-2015 10:10:00 23.9 C 80 % 20.24 C
1203 22-07-2015 10:15:00 24.2 C 78 % 20.12 C
1204 22-07-2015 10:20:00 24.3 C 75 % 19.58 C
1205 22-07-2015 10:25:00 24.4 C 76 % 19.89 C
1206 22-07-2015 10:30:00 24.4 C 75 % 19.68 C
1207 22-07-2015 10:35:00 24.3 C 75 % 19.58 C
1208 22-07-2015 10:40:00 24.2 C 76 % 19.7 C
1209 22-07-2015 10:45:00 24.2 C 77 % 19.91 C
1210 22-07-2015 10:50:00 24.3 C 77 % 20.01 C
1211 22-07-2015 10:55:00 24.4 C 75 % 19.68 C
1212 22-07-2015 11:00:00 24.4 C 76 % 19.89 C
1213 22-07-2015 11:05:00 24.3 C 76 % 19.8 C
1214 22-07-2015 11:10:00 24.4 C 75 % 19.68 C
1215 22-07-2015 11:15:00 24.4 C 77 % 20.1 C
1216 22-07-2015 11:20:00 24.4 C 75 % 19.68 C
1217 22-07-2015 11:25:00 24.5 C 76 % 19.99 C
1218 22-07-2015 11:30:00 24.7 C 76 % 20.18 C
1219 22-07-2015 11:35:00 24.9 C 77 % 20.59 C
1220 22-07-2015 11:40:00 25.2 C 74 % 20.23 C
1221 22-07-2015 11:45:00 25.4 C 73 % 20.21 C
1222 22-07-2015 11:50:00 25.6 C 73 % 20.4 C
1223 22-07-2015 11:55:00 25.5 C 71 % 19.85 C
1224 22-07-2015 12:00:00 25.4 C 73 % 20.21 C
1225 22-07-2015 12:05:00 25.5 C 73 % 20.3 C
Sensor: Nr:Datum:Temp:Feuchte:Taupunkt:
Aussen-T/F 1226 22-07-2015 12:10:00 25.6 C 74 % 20.62 C
1227 22-07-2015 12:15:00 25.6 C 74 % 20.62 C
1228 22-07-2015 12:20:00 25.8 C 74 % 20.81 C
1229 22-07-2015 12:25:00 26.1 C 70 % 20.2 C
1230 22-07-2015 12:30:00 26.2 C 71 % 20.52 C
1231 22-07-2015 12:35:00 26.4 C 67 % 19.78 C
1232 22-07-2015 12:40:00 26.7 C 68 % 20.3 C
1233 22-07-2015 12:45:00 27 C 67 % 20.35 C
1234 22-07-2015 12:50:00 27.2 C 66 % 20.29 C
1235 22-07-2015 12:55:00 27 C 66 % 20.1 C
1236 22-07-2015 13:00:00 26.8 C 67 % 20.16 C
1237 22-07-2015 13:05:00 26.7 C 67 % 20.06 C
1238 22-07-2015 13:10:00 26.7 C 68 % 20.3 C
1239 22-07-2015 13:15:00 26.8 C 67 % 20.16 C
1240 22-07-2015 13:20:00 27 C 67 % 20.35 C
1241 22-07-2015 13:25:00 27.1 C 67 % 20.44 C
1242 22-07-2015 13:30:00 27.2 C 64 % 19.79 C
1243 22-07-2015 13:35:00 27.2 C 64 % 19.79 C
1244 22-07-2015 13:40:00 27.2 C 64 % 19.79 C
1245 22-07-2015 13:45:00 27.3 C 65 % 20.14 C
1246 22-07-2015 13:50:00 27.4 C 65 % 20.23 C
1247 22-07-2015 13:55:00 27.7 C 63 % 20.01 C
1248 22-07-2015 14:00:00 27.7 C 61 % 19.49 C
1249 22-07-2015 14:05:00 27.6 C 61 % 19.4 C
1250 22-07-2015 14:10:00 27.3 C 62 % 19.38 C
Sensor: Nr:Datum:Temp:Feuchte:Taupunkt:
Aussen-T/F 1251 22-07-2015 14:15:00 26.8 C 63 % 19.16 C
1252 22-07-2015 14:20:00 26.7 C 64 % 19.32 C
1253 22-07-2015 14:25:00 26.6 C 64 % 19.23 C
1254 22-07-2015 14:30:00 26.6 C 63 % 18.97 C
1255 22-07-2015 14:35:00 26.5 C 63 % 18.88 C
1256 22-07-2015 14:40:00 26.4 C 62 % 18.53 C
1257 22-07-2015 14:45:00 26.4 C 63 % 18.79 C
1258 22-07-2015 14:50:00 26.4 C 63 % 18.79 C
1259 22-07-2015 14:55:00 26.4 C 63 % 18.79 C
1260 22-07-2015 15:00:00 26.4 C 62 % 18.53 C
1261 22-07-2015 15:05:00 26.4 C 63 % 18.79 C
1262 22-07-2015 15:10:00 26.6 C 62 % 18.72 C
1263 22-07-2015 15:15:00 26.7 C 63 % 19.07 C
1264 22-07-2015 15:20:00 26.8 C 63 % 19.16 C
1265 22-07-2015 15:25:00 27 C 63 % 19.35 C
1266 22-07-2015 15:30:00 27.2 C 65 % 20.04 C
1267 22-07-2015 15:35:00 27.5 C 60 % 19.04 C
1268 22-07-2015 15:40:00 27.5 C 61 % 19.3 C
1269 22-07-2015 15:45:00 27.5 C 60 % 19.04 C
1270 22-07-2015 15:50:00 27.3 C 60 % 18.85 C
1271 22-07-2015 15:55:00 27.2 C 60 % 18.76 C
1272 22-07-2015 16:00:00 27.2 C 61 % 19.02 C
1273 22-07-2015 16:05:00 27.1 C 61 % 18.93 C
1274 22-07-2015 16:10:00 27.1 C 62 % 19.19 C
1275 22-07-2015 16:15:00 27.1 C 63 % 19.45 C
Sensor: Nr:Datum:Temp:Feuchte:Taupunkt:
Aussen-T/F 1276 22-07-2015 16:20:00 26.9 C 62 % 19 C
1277 22-07-2015 16:25:00 26.8 C 63 % 19.16 C
1278 22-07-2015 16:30:00 26.7 C 64 % 19.32 C
1279 22-07-2015 16:35:00 26.6 C 63 % 18.97 C
1280 22-07-2015 16:40:00 26.6 C 64 % 19.23 C
1281 22-07-2015 16:45:00 26.6 C 63 % 18.97 C
1282 22-07-2015 16:50:00 26.7 C 62 % 18.81 C
1283 22-07-2015 16:55:00 26.7 C 61 % 18.55 C
1284 22-07-2015 17:00:00 26.7 C 61 % 18.55 C
1285 22-07-2015 17:05:00 26.9 C 61 % 18.74 C
1286 22-07-2015 17:10:00 27.2 C 60 % 18.76 C
1287 22-07-2015 17:15:00 27.4 C 59 % 18.68 C
1288 22-07-2015 17:20:00 27.5 C 59 % 18.77 C
1289 22-07-2015 17:25:00 27.6 C 60 % 19.13 C
1290 22-07-2015 17:30:00 27.7 C 59 % 18.96 C
1291 22-07-2015 17:35:00 27.7 C 60 % 19.23 C
1292 22-07-2015 17:40:00 27.9 C 59 % 19.14 C
1293 22-07-2015 17:45:00 27.9 C 57 % 18.59 C
1294 22-07-2015 17:50:00 28.1 C 56 % 18.49 C
1295 22-07-2015 17:55:00 28.2 C 54 % 18.01 C
1296 22-07-2015 18:00:00 28.3 C 53 % 17.8 C
1297 22-07-2015 18:05:00 28.2 C 54 % 18.01 C
1298 22-07-2015 18:10:00 28.1 C 54 % 17.92 C
1299 22-07-2015 18:15:00 27.7 C 54 % 17.55 C
1300 22-07-2015 18:20:00 27.3 C 55 % 17.47 C
Sensor: Nr:Datum:Temp:Feuchte:Taupunkt:
Aussen-T/F 1301 22-07-2015 18:25:00 27.1 C 56 % 17.57 C
1302 22-07-2015 18:30:00 26.8 C 56 % 17.29 C
1303 22-07-2015 18:35:00 26.7 C 56 % 17.19 C
1304 22-07-2015 18:40:00 26.6 C 56 % 17.1 C
1305 22-07-2015 18:45:00 26.4 C 55 % 16.63 C
1306 22-07-2015 18:50:00 26.3 C 56 % 16.82 C
1307 22-07-2015 18:55:00 26.1 C 57 % 16.92 C
1308 22-07-2015 19:00:00 26.1 C 57 % 16.92 C
1309 22-07-2015 19:05:00 26 C 58 % 17.1 C
1310 22-07-2015 19:10:00 26.1 C 57 % 16.92 C
1311 22-07-2015 19:15:00 25.9 C 56 % 16.45 C
1312 22-07-2015 19:20:00 25.8 C 56 % 16.36 C
1313 22-07-2015 19:25:00 25.8 C 57 % 16.64 C
1314 22-07-2015 19:30:00 25.7 C 57 % 16.54 C
1315 22-07-2015 19:35:00 25.7 C 58 % 16.82 C
1316 22-07-2015 19:40:00 25.6 C 58 % 16.72 C
1317 22-07-2015 19:45:00 25.4 C 58 % 16.54 C
1318 22-07-2015 19:50:00 25.3 C 59 % 16.71 C
1319 22-07-2015 19:55:00 25.2 C 59 % 16.62 C
1320 22-07-2015 20:00:00 25.1 C 58 % 16.26 C
1321 22-07-2015 20:05:00 25 C 58 % 16.16 C
1322 22-07-2015 20:10:00 24.8 C 58 % 15.98 C
1323 22-07-2015 20:15:00 24.8 C 58 % 15.98 C
1324 22-07-2015 20:20:00 24.7 C 59 % 16.15 C
1325 22-07-2015 20:25:00 24.6 C 58 % 15.79 C
Sensor: Nr:Datum:Temp:Feuchte:Taupunkt:
Aussen-T/F 1326 22-07-2015 20:30:00 24.6 C 58 % 15.79 C
1327 22-07-2015 20:35:00 24.5 C 58 % 15.7 C
1328 22-07-2015 20:40:00 24.4 C 57 % 15.33 C
1329 22-07-2015 20:45:00 24.4 C 57 % 15.33 C
1330 22-07-2015 20:50:00 24.3 C 57 % 15.24 C
1331 22-07-2015 20:55:00 24.3 C 57 % 15.24 C
1332 22-07-2015 21:00:00 24.2 C 57 % 15.14 C
1333 22-07-2015 21:05:00 24.2 C 57 % 15.14 C
1334 22-07-2015 21:10:00 24.1 C 56 % 14.78 C
1335 22-07-2015 21:15:00 24 C 56 % 14.68 C
1336 22-07-2015 21:20:00 23.9 C 55 % 14.31 C
1337 22-07-2015 21:25:00 23.9 C 56 % 14.59 C
1338 22-07-2015 21:30:00 23.8 C 56 % 14.5 C
1339 22-07-2015 21:35:00 23.8 C 57 % 14.77 C
1340 22-07-2015 21:40:00 23.7 C 56 % 14.4 C
1341 22-07-2015 21:45:00 23.6 C 55 % 14.03 C
1342 22-07-2015 21:50:00 23.4 C 55 % 13.85 C
1343 22-07-2015 21:55:00 23.3 C 55 % 13.76 C
1344 22-07-2015 22:00:00 23.2 C 55 % 13.66 C
1345 22-07-2015 22:05:00 23.2 C 55 % 13.66 C
1346 22-07-2015 22:10:00 23.1 C 55 % 13.57 C
1347 22-07-2015 22:15:00 22.9 C 55 % 13.38 C
1348 22-07-2015 22:20:00 22.8 C 55 % 13.29 C
1349 22-07-2015 22:25:00 22.8 C 55 % 13.29 C
1350 22-07-2015 22:30:00 22.7 C 56 % 13.47 C
Sensor: Nr:Datum:Temp:Feuchte:Taupunkt:
Aussen-T/F 1351 22-07-2015 22:35:00 22.6 C 56 % 13.38 C
1352 22-07-2015 22:40:00 22.6 C 56 % 13.38 C
1353 22-07-2015 22:45:00 22.5 C 57 % 13.56 C
1354 22-07-2015 22:50:00 22.4 C 57 % 13.47 C
1355 22-07-2015 22:55:00 22.3 C 57 % 13.37 C
1356 22-07-2015 23:00:00 22.3 C 57 % 13.37 C
1357 22-07-2015 23:05:00 22.2 C 58 % 13.55 C
1358 22-07-2015 23:10:00 22.1 C 58 % 13.45 C
1359 22-07-2015 23:15:00 22.1 C 58 % 13.45 C
1360 22-07-2015 23:20:00 22 C 60 % 13.88 C
1361 22-07-2015 23:25:00 21.8 C 63 % 14.45 C
1362 22-07-2015 23:30:00 21.6 C 65 % 14.74 C
1363 22-07-2015 23:35:00 21.4 C 64 % 14.31 C
1364 22-07-2015 23:40:00 21.3 C 67 % 14.93 C
1365 22-07-2015 23:45:00 21.2 C 65 % 14.36 C
1366 22-07-2015 23:50:00 21.2 C 66 % 14.6 C
1367 22-07-2015 23:55:00 21.1 C 66 % 14.5 C
1368 23-07-2015 00:00:00 21 C 69 % 15.1 C
1369 23-07-2015 00:05:00 20.8 C 71 % 15.35 C
1370 23-07-2015 00:10:00 20.7 C 72 % 15.47 C
1371 23-07-2015 00:15:00 20.6 C 72 % 15.38 C
1372 23-07-2015 00:20:00 20.3 C 72 % 15.09 C
1373 23-07-2015 00:25:00 20.1 C 71 % 14.68 C
1374 23-07-2015 00:30:00 19.8 C 73 % 14.82 C
1375 23-07-2015 00:35:00 19.6 C 74 % 14.84 C
Sensor: Nr:Datum:Temp:Feuchte:Taupunkt:
Aussen-T/F 1376 23-07-2015 00:40:00 19.4 C 74 % 14.65 C
1377 23-07-2015 00:45:00 19.3 C 74 % 14.55 C
1378 23-07-2015 00:50:00 19.3 C 75 % 14.76 C
1379 23-07-2015 00:55:00 19.2 C 75 % 14.66 C
1380 23-07-2015 01:00:00 19.1 C 75 % 14.57 C
1381 23-07-2015 01:05:00 19 C 77 % 14.88 C
1382 23-07-2015 01:10:00 18.9 C 76 % 14.58 C
1383 23-07-2015 01:15:00 18.8 C 77 % 14.68 C
1384 23-07-2015 01:20:00 18.7 C 77 % 14.59 C
1385 23-07-2015 01:25:00 18.6 C 77 % 14.49 C
1386 23-07-2015 01:30:00 18.4 C 78 % 14.5 C
1387 23-07-2015 01:35:00 18.4 C 78 % 14.5 C
1388 23-07-2015 01:40:00 18.3 C 78 % 14.4 C
1389 23-07-2015 01:45:00 18.2 C 78 % 14.3 C
1390 23-07-2015 01:50:00 18.2 C 79 % 14.5 C
1391 23-07-2015 01:55:00 18.1 C 79 % 14.4 C
1392 23-07-2015 02:00:00 18.1 C 79 % 14.4 C
1393 23-07-2015 02:05:00 17.9 C 79 % 14.21 C
1394 23-07-2015 02:10:00 17.9 C 79 % 14.21 C
1395 23-07-2015 02:15:00 17.8 C 78 % 13.91 C
1396 23-07-2015 02:20:00 17.7 C 78 % 13.82 C
1397 23-07-2015 02:25:00 17.7 C 79 % 14.01 C
1398 23-07-2015 02:30:00 17.7 C 79 % 14.01 C
1399 23-07-2015 02:35:00 17.7 C 79 % 14.01 C
1400 23-07-2015 02:40:00 17.7 C 79 % 14.01 C
Sensor: Nr:Datum:Temp:Feuchte:Taupunkt:
Aussen-T/F 1401 23-07-2015 02:45:00 17.6 C 79 % 13.92 C
1402 23-07-2015 02:50:00 17.5 C 79 % 13.82 C
1403 23-07-2015 02:55:00 17.4 C 80 % 13.92 C
1404 23-07-2015 03:00:00 17.3 C 79 % 13.63 C
1405 23-07-2015 03:05:00 17.3 C 80 % 13.82 C
1406 23-07-2015 03:10:00 17.2 C 80 % 13.72 C
1407 23-07-2015 03:15:00 17.1 C 80 % 13.62 C
1408 23-07-2015 03:20:00 17 C 80 % 13.53 C
1409 23-07-2015 03:25:00 17 C 80 % 13.53 C
1410 23-07-2015 03:30:00 16.9 C 81 % 13.62 C
1411 23-07-2015 03:35:00 16.9 C 81 % 13.62 C
1412 23-07-2015 03:40:00 16.8 C 81 % 13.52 C
1413 23-07-2015 03:45:00 16.8 C 82 % 13.71 C
1414 23-07-2015 03:50:00 16.7 C 82 % 13.61 C
1415 23-07-2015 03:55:00 16.6 C 81 % 13.33 C
1416 23-07-2015 04:00:00 16.5 C 81 % 13.23 C
1417 23-07-2015 04:05:00 16.4 C 82 % 13.32 C
1418 23-07-2015 04:10:00 16.4 C 82 % 13.32 C
1419 23-07-2015 04:15:00 16.4 C 82 % 13.32 C
1420 23-07-2015 04:20:00 16.5 C 83 % 13.6 C
1421 23-07-2015 04:25:00 16.6 C 83 % 13.7 C
1422 23-07-2015 04:30:00 16.7 C 83 % 13.8 C
1423 23-07-2015 04:35:00 16.7 C 83 % 13.8 C
1424 23-07-2015 04:40:00 16.8 C 83 % 13.9 C
1425 23-07-2015 04:45:00 16.8 C 83 % 13.9 C
Sensor: Nr:Datum:Temp:Feuchte:Taupunkt:
Aussen-T/F 1426 23-07-2015 04:50:00 16.8 C 83 % 13.9 C
1427 23-07-2015 04:55:00 16.8 C 83 % 13.9 C
1428 23-07-2015 05:00:00 16.8 C 83 % 13.9 C
1429 23-07-2015 05:05:00 16.8 C 83 % 13.9 C
1430 23-07-2015 05:10:00 16.9 C 83 % 14 C
1431 23-07-2015 05:15:00 16.9 C 83 % 14 C
1432 23-07-2015 05:20:00 16.9 C 82 % 13.81 C
1433 23-07-2015 05:25:00 16.9 C 82 % 13.81 C
1434 23-07-2015 05:30:00 16.9 C 83 % 14 C
1435 23-07-2015 05:35:00 16.9 C 82 % 13.81 C
1436 23-07-2015 05:40:00 16.9 C 83 % 14 C
1437 23-07-2015 05:45:00 16.9 C 83 % 14 C
1438 23-07-2015 05:50:00 16.9 C 83 % 14 C
1439 23-07-2015 05:55:00 16.9 C 83 % 14 C
1440 23-07-2015 06:00:00 16.9 C 82 % 13.81 C
1441 23-07-2015 06:05:00 16.9 C 82 % 13.81 C
1442 23-07-2015 06:10:00 17 C 82 % 13.91 C
1443 23-07-2015 06:15:00 17 C 81 % 13.72 C
1444 23-07-2015 06:20:00 17.1 C 82 % 14 C
1445 23-07-2015 06:25:00 17.1 C 82 % 14 C
1446 23-07-2015 06:30:00 17.1 C 80 % 13.62 C
1447 23-07-2015 06:35:00 17.2 C 79 % 13.53 C
1448 23-07-2015 06:40:00 17.3 C 78 % 13.43 C
1449 23-07-2015 06:45:00 17.4 C 79 % 13.72 C
1450 23-07-2015 06:50:00 17.4 C 75 % 12.93 C
Sensor: Nr:Datum:Temp:Feuchte:Taupunkt:
Aussen-T/F 1451 23-07-2015 06:55:00 17.6 C 76 % 13.32 C
1452 23-07-2015 07:00:00 17.7 C 75 % 13.22 C
1453 23-07-2015 07:05:00 17.7 C 74 % 13.01 C
1454 23-07-2015 07:10:00 17.7 C 74 % 13.01 C
1455 23-07-2015 07:15:00 17.8 C 73 % 12.9 C
1456 23-07-2015 07:20:00 17.8 C 73 % 12.9 C
1457 23-07-2015 07:25:00 17.8 C 72 % 12.69 C
1458 23-07-2015 07:30:00 17.8 C 72 % 12.69 C
1459 23-07-2015 07:35:00 17.8 C 71 % 12.47 C
1460 23-07-2015 07:40:00 17.8 C 71 % 12.47 C
1461 23-07-2015 07:45:00 17.9 C 71 % 12.57 C
1462 23-07-2015 07:50:00 17.9 C 72 % 12.78 C
1463 23-07-2015 07:55:00 18 C 71 % 12.67 C
1464 23-07-2015 08:00:00 18.1 C 70 % 12.55 C
1465 23-07-2015 08:05:00 18.1 C 71 % 12.76 C
1466 23-07-2015 08:10:00 18.2 C 70 % 12.64 C
1467 23-07-2015 08:15:00 18.3 C 69 % 12.52 C
1468 23-07-2015 08:20:00 18.4 C 70 % 12.83 C
1469 23-07-2015 08:25:00 18.5 C 70 % 12.93 C
1470 23-07-2015 08:30:00 18.6 C 69 % 12.8 C
1471 23-07-2015 08:35:00 18.7 C 69 % 12.9 C
1472 23-07-2015 08:40:00 18.7 C 68 % 12.68 C
1473 23-07-2015 08:45:00 18.8 C 68 % 12.77 C
1474 23-07-2015 08:50:00 18.8 C 67 % 12.55 C
1475 23-07-2015 08:55:00 18.8 C 67 % 12.55 C
Sensor: Nr:Datum:Temp:Feuchte:Taupunkt:
Aussen-T/F 1476 23-07-2015 09:00:00 19 C 67 % 12.74 C
1477 23-07-2015 09:05:00 19.1 C 66 % 12.6 C
1478 23-07-2015 09:10:00 19.1 C 67 % 12.83 C
1479 23-07-2015 09:15:00 19.1 C 67 % 12.83 C
1480 23-07-2015 09:20:00 19.1 C 67 % 12.83 C
1481 23-07-2015 09:25:00 19.1 C 67 % 12.83 C
1482 23-07-2015 09:30:00 19.2 C 66 % 12.7 C
1483 23-07-2015 09:35:00 19.2 C 66 % 12.7 C
1484 23-07-2015 09:40:00 19.2 C 65 % 12.47 C
1485 23-07-2015 09:45:00 19.2 C 65 % 12.47 C
1486 23-07-2015 09:50:00 19.1 C 66 % 12.6 C
1487 23-07-2015 09:55:00 19.1 C 66 % 12.6 C
1488 23-07-2015 10:00:00 19.2 C 65 % 12.47 C
1489 23-07-2015 10:05:00 19.3 C 66 % 12.79 C
1490 23-07-2015 10:10:00 19.7 C 63 % 12.46 C
1491 23-07-2015 10:15:00 19.9 C 62 % 12.41 C
1492 23-07-2015 10:20:00 20.3 C 63 % 13.03 C
1493 23-07-2015 10:25:00 20.6 C 61 % 12.82 C
1494 23-07-2015 10:30:00 20.9 C 60 % 12.85 C
1495 23-07-2015 10:35:00 21.1 C 60 % 13.04 C
1496 23-07-2015 10:40:00 21 C 60 % 12.94 C
1497 23-07-2015 10:45:00 21.2 C 60 % 13.13 C
1498 23-07-2015 10:50:00 21.6 C 61 % 13.76 C
1499 23-07-2015 10:55:00 21.8 C 58 % 13.17 C
1500 23-07-2015 11:00:00 21.9 C 58 % 13.27 C
Sensor: Nr:Datum:Temp:Feuchte:Taupunkt:
Aussen-T/F 1501 23-07-2015 11:05:00 22.2 C 58 % 13.55 C
1502 23-07-2015 11:10:00 22.3 C 55 % 12.83 C
1503 23-07-2015 11:15:00 22.3 C 55 % 12.83 C
1504 23-07-2015 11:20:00 22.3 C 55 % 12.83 C
1505 23-07-2015 11:25:00 22.4 C 56 % 13.2 C
1506 23-07-2015 11:30:00 22.6 C 55 % 13.11 C
1507 23-07-2015 11:35:00 22.6 C 56 % 13.38 C
1508 23-07-2015 11:40:00 22.4 C 56 % 13.2 C
1509 23-07-2015 11:45:00 22.6 C 57 % 13.65 C
1510 23-07-2015 11:50:00 22.8 C 56 % 13.57 C
1511 23-07-2015 11:55:00 22.8 C 55 % 13.29 C
1512 23-07-2015 12:00:00 22.7 C 58 % 14.01 C
1513 23-07-2015 12:05:00 22.6 C 56 % 13.38 C
1514 23-07-2015 12:10:00 22.6 C 55 % 13.11 C
1515 23-07-2015 12:15:00 22.4 C 55 % 12.92 C
1516 23-07-2015 12:20:00 22.3 C 56 % 13.1 C
1517 23-07-2015 12:25:00 22.2 C 57 % 13.28 C
1518 23-07-2015 12:30:00 22.2 C 57 % 13.28 C
1519 23-07-2015 12:35:00 22.2 C 58 % 13.55 C
1520 23-07-2015 12:40:00 22.2 C 58 % 13.55 C
1521 23-07-2015 12:45:00 22.5 C 58 % 13.83 C
1522 23-07-2015 12:50:00 22.9 C 55 % 13.38 C
1523 23-07-2015 12:55:00 23.1 C 54 % 13.29 C
1524 23-07-2015 13:00:00 23 C 55 % 13.48 C
1525 23-07-2015 13:05:00 22.8 C 56 % 13.57 C
Sensor: Nr:Datum:Temp:Feuchte:Taupunkt:
Aussen-T/F 1526 23-07-2015 13:10:00 22.7 C 55 % 13.2 C
1527 23-07-2015 13:15:00 22.7 C 59 % 14.28 C
1528 23-07-2015 13:20:00 23.1 C 57 % 14.12 C
1529 23-07-2015 13:25:00 23.8 C 56 % 14.5 C
1530 23-07-2015 13:30:00 24.2 C 53 % 14.02 C
1531 23-07-2015 13:35:00 24.5 C 52 % 14 C
1532 23-07-2015 13:40:00 24.3 C 50 % 13.22 C
1533 23-07-2015 13:45:00 24.4 C 49 % 13 C
1534 23-07-2015 13:50:00 24.2 C 50 % 13.12 C
1535 23-07-2015 13:55:00 24.1 C 52 % 13.63 C
1536 23-07-2015 14:00:00 24 C 53 % 13.83 C
1537 23-07-2015 14:05:00 24.1 C 54 % 14.21 C
1538 23-07-2015 14:10:00 24.3 C 55 % 14.68 C
1539 23-07-2015 14:15:00 24.3 C 50 % 13.22 C
1540 23-07-2015 14:20:00 24.6 C 54 % 14.68 C
1541 23-07-2015 14:25:00 24.9 C 51 % 14.07 C
1542 23-07-2015 14:30:00 25.3 C 47 % 13.18 C
1543 23-07-2015 14:35:00 25.2 C 47 % 13.09 C
1544 23-07-2015 14:40:00 24.8 C 48 % 13.05 C
1545 23-07-2015 14:45:00 24.4 C 49 % 13 C
1546 23-07-2015 14:50:00 24.3 C 50 % 13.22 C
1547 23-07-2015 14:55:00 24.5 C 49 % 13.09 C
1548 23-07-2015 15:00:00 24.6 C 48 % 12.87 C
1549 23-07-2015 15:05:00 24.7 C 54 % 14.77 C
1550 23-07-2015 15:10:00 25 C 49 % 13.55 C
Sensor: Nr:Datum:Temp:Feuchte:Taupunkt:
Aussen-T/F 1551 23-07-2015 15:15:00 24.9 C 48 % 13.14 C
1552 23-07-2015 15:20:00 24.9 C 48 % 13.14 C
1553 23-07-2015 15:25:00 25.1 C 46 % 12.67 C
1554 23-07-2015 15:30:00 25.2 C 47 % 13.09 C
1555 23-07-2015 15:35:00 25.1 C 46 % 12.67 C
1556 23-07-2015 15:40:00 24.9 C 46 % 12.49 C
1557 23-07-2015 15:45:00 24.7 C 47 % 12.64 C
1558 23-07-2015 15:50:00 24.6 C 48 % 12.87 C
1559 23-07-2015 15:55:00 24.7 C 47 % 12.64 C
1560 23-07-2015 16:00:00 25.3 C 47 % 13.18 C
1561 23-07-2015 16:05:00 25.6 C 47 % 13.45 C
1562 23-07-2015 16:10:00 25.8 C 46 % 13.31 C
1563 23-07-2015 16:15:00 25.7 C 45 % 12.88 C
1564 23-07-2015 16:20:00 25.6 C 46 % 13.12 C
1565 23-07-2015 16:25:00 25.3 C 45 % 12.52 C
1566 23-07-2015 16:30:00 25.1 C 47 % 13 C
1567 23-07-2015 16:35:00 24.9 C 48 % 13.14 C
1568 23-07-2015 16:40:00 24.9 C 49 % 13.46 C
1569 23-07-2015 16:45:00 24.7 C 49 % 13.27 C
1570 23-07-2015 16:50:00 24.6 C 48 % 12.87 C
1571 23-07-2015 16:55:00 24.5 C 48 % 12.77 C
1572 23-07-2015 17:00:00 24.4 C 47 % 12.36 C
1573 23-07-2015 17:05:00 24.4 C 48 % 12.68 C
1574 23-07-2015 17:10:00 24.5 C 48 % 12.77 C
1575 23-07-2015 17:15:00 24.6 C 48 % 12.87 C
Sensor: Nr:Datum:Temp:Feuchte:Taupunkt:
Aussen-T/F 1576 23-07-2015 17:20:00 24.4 C 49 % 13 C
1577 23-07-2015 17:25:00 24.4 C 48 % 12.68 C
1578 23-07-2015 17:30:00 24.4 C 48 % 12.68 C
1579 23-07-2015 17:35:00 24.6 C 48 % 12.87 C
1580 23-07-2015 17:40:00 24.8 C 46 % 12.4 C
1581 23-07-2015 17:45:00 24.8 C 48 % 13.05 C
1582 23-07-2015 17:50:00 24.7 C 47 % 12.64 C
1583 23-07-2015 17:55:00 24.6 C 47 % 12.54 C
1584 23-07-2015 18:00:00 24.4 C 49 % 13 C
1585 23-07-2015 18:05:00 24.5 C 48 % 12.77 C
1586 23-07-2015 18:10:00 24.8 C 47 % 12.73 C
1587 23-07-2015 18:15:00 25.3 C 47 % 13.18 C
1588 23-07-2015 18:20:00 25.8 C 47 % 13.64 C
1589 23-07-2015 18:25:00 25.9 C 45 % 13.06 C
1590 23-07-2015 18:30:00 25.9 C 45 % 13.06 C
1591 23-07-2015 18:35:00 25.7 C 45 % 12.88 C
1592 23-07-2015 18:40:00 25.7 C 45 % 12.88 C
1593 23-07-2015 18:45:00 25.8 C 45 % 12.97 C
1594 23-07-2015 18:50:00 25.9 C 45 % 13.06 C
1595 23-07-2015 18:55:00 25.9 C 44 % 12.72 C
1596 23-07-2015 19:00:00 25.8 C 44 % 12.63 C
1597 23-07-2015 19:05:00 25.8 C 44 % 12.63 C
1598 23-07-2015 19:10:00 25.9 C 44 % 12.72 C
1599 23-07-2015 19:15:00 25.8 C 45 % 12.97 C
1600 23-07-2015 19:20:00 25.7 C 46 % 13.22 C
Sensor: Nr:Datum:Temp:Feuchte:Taupunkt:
Aussen-T/F 1601 23-07-2015 19:25:00 25.4 C 47 % 13.27 C
1602 23-07-2015 19:30:00 25.3 C 46 % 12.85 C
1603 23-07-2015 19:35:00 25.2 C 46 % 12.76 C
1604 23-07-2015 19:40:00 24.9 C 47 % 12.82 C
1605 23-07-2015 19:45:00 24.6 C 48 % 12.87 C
1606 23-07-2015 19:50:00 24.3 C 49 % 12.91 C
1607 23-07-2015 19:55:00 24.2 C 49 % 12.81 C
1608 23-07-2015 20:00:00 24.1 C 50 % 13.03 C
1609 23-07-2015 20:05:00 23.8 C 50 % 12.76 C
1610 23-07-2015 20:10:00 23.6 C 52 % 13.17 C
1611 23-07-2015 20:15:00 23.3 C 52 % 12.9 C
1612 23-07-2015 20:20:00 23.1 C 53 % 13 C
1613 23-07-2015 20:25:00 22.8 C 55 % 13.29 C
1614 23-07-2015 20:30:00 22.5 C 60 % 14.35 C
1615 23-07-2015 20:35:00 21.9 C 61 % 14.04 C
1616 23-07-2015 20:40:00 21.4 C 62 % 13.82 C
1617 23-07-2015 20:45:00 20.9 C 63 % 13.6 C
1618 23-07-2015 20:50:00 20.7 C 65 % 13.89 C
1619 23-07-2015 20:55:00 20.4 C 67 % 14.07 C
1620 23-07-2015 21:00:00 20.2 C 68 % 14.11 C
1621 23-07-2015 21:05:00 19.9 C 68 % 13.82 C
1622 23-07-2015 21:10:00 19.6 C 69 % 13.76 C
1623 23-07-2015 21:15:00 19.4 C 69 % 13.57 C
1624 23-07-2015 21:20:00 19.3 C 70 % 13.69 C
1625 23-07-2015 21:25:00 19.1 C 71 % 13.72 C
Sensor: Nr:Datum:Temp:Feuchte:Taupunkt:
Aussen-T/F 1626 23-07-2015 21:30:00 18.9 C 72 % 13.74 C
1627 23-07-2015 21:35:00 18.7 C 72 % 13.55 C
1628 23-07-2015 21:40:00 18.6 C 74 % 13.88 C
1629 23-07-2015 21:45:00 18.4 C 74 % 13.68 C
1630 23-07-2015 21:50:00 18.4 C 75 % 13.89 C
1631 23-07-2015 21:55:00 18.3 C 74 % 13.59 C
1632 23-07-2015 22:00:00 18.2 C 75 % 13.7 C
1633 23-07-2015 22:05:00 18.1 C 75 % 13.6 C
1634 23-07-2015 22:10:00 18 C 76 % 13.71 C
1635 23-07-2015 22:15:00 17.9 C 75 % 13.41 C
1636 23-07-2015 22:20:00 17.8 C 76 % 13.52 C
1637 23-07-2015 22:25:00 17.8 C 76 % 13.52 C
1638 23-07-2015 22:30:00 17.7 C 76 % 13.42 C
1639 23-07-2015 22:35:00 17.7 C 76 % 13.42 C
1640 23-07-2015 22:40:00 17.6 C 76 % 13.32 C
1641 23-07-2015 22:45:00 17.5 C 76 % 13.23 C
1642 23-07-2015 22:50:00 17.4 C 76 % 13.13 C
1643 23-07-2015 22:55:00 17.3 C 77 % 13.23 C
1644 23-07-2015 23:00:00 17.3 C 78 % 13.43 C
1645 23-07-2015 23:05:00 17.2 C 78 % 13.33 C
1646 23-07-2015 23:10:00 17.2 C 79 % 13.53 C
1647 23-07-2015 23:15:00 17.1 C 78 % 13.24 C
1648 23-07-2015 23:20:00 17.1 C 79 % 13.43 C
1649 23-07-2015 23:25:00 17 C 79 % 13.33 C
1650 23-07-2015 23:30:00 16.9 C 78 % 13.04 C
Sensor: Nr:Datum:Temp:Feuchte:Taupunkt:
Aussen-T/F 1651 23-07-2015 23:35:00 16.8 C 78 % 12.94 C
1652 23-07-2015 23:40:00 16.8 C 78 % 12.94 C
1653 23-07-2015 23:45:00 16.7 C 79 % 13.04 C
1654 23-07-2015 23:50:00 16.7 C 80 % 13.23 C
1655 23-07-2015 23:55:00 16.6 C 80 % 13.14 C
1656 24-07-2015 00:00:00 16.6 C 80 % 13.14 C
1657 24-07-2015 00:05:00 16.5 C 80 % 13.04 C
1658 24-07-2015 00:10:00 16.5 C 79 % 12.85 C
1659 24-07-2015 00:15:00 16.4 C 79 % 12.75 C
1660 24-07-2015 00:20:00 16.4 C 79 % 12.75 C
1661 24-07-2015 00:25:00 16.4 C 79 % 12.75 C
1662 24-07-2015 00:30:00 16.3 C 79 % 12.65 C
1663 24-07-2015 00:35:00 16.2 C 80 % 12.75 C
1664 24-07-2015 00:40:00 16.2 C 80 % 12.75 C
1665 24-07-2015 00:45:00 16.1 C 80 % 12.65 C
1666 24-07-2015 00:50:00 16.1 C 80 % 12.65 C
1667 24-07-2015 00:55:00 15.9 C 80 % 12.46 C
1668 24-07-2015 01:00:00 15.8 C 81 % 12.55 C
1669 24-07-2015 01:05:00 15.8 C 81 % 12.55 C
1670 24-07-2015 01:10:00 15.7 C 82 % 12.64 C
1671 24-07-2015 01:15:00 15.5 C 82 % 12.44 C
1672 24-07-2015 01:20:00 15.4 C 82 % 12.35 C
1673 24-07-2015 01:25:00 15.3 C 83 % 12.43 C
1674 24-07-2015 01:30:00 15.3 C 83 % 12.43 C
1675 24-07-2015 01:35:00 15.2 C 83 % 12.33 C
Sensor: Nr:Datum:Temp:Feuchte:Taupunkt:
Aussen-T/F 1676 24-07-2015 01:40:00 15.1 C 84 % 12.42 C
1677 24-07-2015 01:45:00 15.1 C 84 % 12.42 C
1678 24-07-2015 01:50:00 14.9 C 84 % 12.22 C
1679 24-07-2015 01:55:00 14.9 C 84 % 12.22 C
1680 24-07-2015 02:00:00 14.8 C 85 % 12.3 C
1681 24-07-2015 02:05:00 14.7 C 85 % 12.21 C
1682 24-07-2015 02:10:00 14.7 C 85 % 12.21 C
1683 24-07-2015 02:15:00 14.6 C 86 % 12.29 C
1684 24-07-2015 02:20:00 14.6 C 86 % 12.29 C
1685 24-07-2015 02:25:00 14.5 C 86 % 12.19 C
1686 24-07-2015 02:30:00 14.4 C 86 % 12.09 C
1687 24-07-2015 02:35:00 14.4 C 86 % 12.09 C
1688 24-07-2015 02:40:00 14.3 C 86 % 11.99 C
1689 24-07-2015 02:45:00 14.3 C 87 % 12.17 C
1690 24-07-2015 02:50:00 14.2 C 87 % 12.07 C
1691 24-07-2015 02:55:00 14.2 C 87 % 12.07 C
1692 24-07-2015 03:00:00 14.2 C 87 % 12.07 C
1693 24-07-2015 03:05:00 14.2 C 87 % 12.07 C
1694 24-07-2015 03:10:00 14.2 C 88 % 12.24 C
1695 24-07-2015 03:15:00 14.2 C 88 % 12.24 C
1696 24-07-2015 03:20:00 14.3 C 87 % 12.17 C
1697 24-07-2015 03:25:00 14.3 C 87 % 12.17 C
1698 24-07-2015 03:30:00 14.3 C 87 % 12.17 C
1699 24-07-2015 03:35:00 14.4 C 87 % 12.27 C
1700 24-07-2015 03:40:00 14.3 C 87 % 12.17 C
Sensor: Nr:Datum:Temp:Feuchte:Taupunkt:
Aussen-T/F 1701 24-07-2015 03:45:00 14.3 C 88 % 12.34 C
1702 24-07-2015 03:50:00 14.3 C 88 % 12.34 C
1703 24-07-2015 03:55:00 14.2 C 87 % 12.07 C
1704 24-07-2015 04:00:00 14.2 C 88 % 12.24 C
1705 24-07-2015 04:05:00 14.1 C 88 % 12.14 C
1706 24-07-2015 04:10:00 14 C 88 % 12.05 C
1707 24-07-2015 04:15:00 13.9 C 88 % 11.95 C
1708 24-07-2015 04:20:00 13.9 C 88 % 11.95 C
1709 24-07-2015 04:25:00 13.8 C 89 % 12.02 C
1710 24-07-2015 04:30:00 13.8 C 89 % 12.02 C
1711 24-07-2015 04:35:00 13.8 C 90 % 12.19 C
1712 24-07-2015 04:40:00 13.8 C 90 % 12.19 C
1713 24-07-2015 04:45:00 13.9 C 90 % 12.29 C
1714 24-07-2015 04:50:00 13.9 C 90 % 12.29 C
1715 24-07-2015 04:55:00 13.9 C 90 % 12.29 C
1716 24-07-2015 05:00:00 13.9 C 90 % 12.29 C
1717 24-07-2015 05:05:00 13.9 C 90 % 12.29 C
1718 24-07-2015 05:10:00 13.9 C 90 % 12.29 C
1719 24-07-2015 05:15:00 13.9 C 90 % 12.29 C
1720 24-07-2015 05:20:00 13.9 C 90 % 12.29 C
1721 24-07-2015 05:25:00 13.9 C 90 % 12.29 C
1722 24-07-2015 05:30:00 13.8 C 90 % 12.19 C
1723 24-07-2015 05:35:00 13.8 C 90 % 12.19 C
1724 24-07-2015 05:40:00 13.7 C 90 % 12.09 C
1725 24-07-2015 05:45:00 13.7 C 90 % 12.09 C
Sensor: Nr:Datum:Temp:Feuchte:Taupunkt:
Aussen-T/F 1726 24-07-2015 05:50:00 13.7 C 90 % 12.09 C
1727 24-07-2015 05:55:00 13.6 C 90 % 11.99 C
1728 24-07-2015 06:00:00 13.6 C 91 % 12.16 C
1729 24-07-2015 06:05:00 13.7 C 91 % 12.26 C
1730 24-07-2015 06:10:00 13.7 C 91 % 12.26 C
1731 24-07-2015 06:15:00 13.7 C 91 % 12.26 C
1732 24-07-2015 06:20:00 13.7 C 91 % 12.26 C
1733 24-07-2015 06:25:00 13.7 C 91 % 12.26 C
1734 24-07-2015 06:30:00 13.7 C 91 % 12.26 C
1735 24-07-2015 06:35:00 13.7 C 91 % 12.26 C
1736 24-07-2015 06:40:00 13.8 C 91 % 12.36 C
1737 24-07-2015 06:45:00 13.8 C 91 % 12.36 C
1738 24-07-2015 06:50:00 13.8 C 91 % 12.36 C
1739 24-07-2015 06:55:00 13.9 C 91 % 12.46 C
1740 24-07-2015 07:00:00 14.1 C 91 % 12.65 C
1741 24-07-2015 07:05:00 14.2 C 91 % 12.75 C
1742 24-07-2015 07:10:00 14.3 C 91 % 12.85 C
1743 24-07-2015 07:15:00 14.4 C 91 % 12.95 C
1744 24-07-2015 07:20:00 14.5 C 90 % 12.88 C
1745 24-07-2015 07:25:00 14.6 C 90 % 12.98 C
1746 24-07-2015 07:30:00 14.7 C 90 % 13.08 C
1747 24-07-2015 07:35:00 14.8 C 90 % 13.18 C
1748 24-07-2015 07:40:00 14.8 C 90 % 13.18 C
1749 24-07-2015 07:45:00 14.8 C 90 % 13.18 C
1750 24-07-2015 09:35:00 18.6 C 76 % 14.29 C
Sensor: Nr:Datum:Temp:Feuchte:Taupunkt:
Aussen-T/F 1751 24-07-2015 09:40:00 18.7 C 77 % 14.59 C
1752 24-07-2015 09:45:00 18.8 C 79 % 15.08 C
1753 24-07-2015 09:50:00 19 C 76 % 14.68 C
1754 24-07-2015 09:55:00 19.3 C 77 % 15.17 C
1755 24-07-2015 10:00:00 19.6 C 74 % 14.84 C
1756 24-07-2015 10:05:00 19.9 C 73 % 14.92 C
1757 24-07-2015 10:10:00 20.2 C 74 % 15.42 C
1758 24-07-2015 10:15:00 20.4 C 73 % 15.4 C
1759 24-07-2015 10:20:00 20.7 C 71 % 15.25 C
1760 24-07-2015 10:25:00 20.9 C 70 % 15.23 C
1761 24-07-2015 10:30:00 21.1 C 69 % 15.19 C
1762 24-07-2015 10:35:00 21.2 C 71 % 15.73 C
1763 24-07-2015 10:40:00 21.2 C 71 % 15.73 C
1764 24-07-2015 10:45:00 21.2 C 71 % 15.73 C
1765 24-07-2015 10:50:00 21.4 C 67 % 15.02 C
1766 24-07-2015 10:55:00 21.7 C 68 % 15.54 C
1767 24-07-2015 11:00:00 22.1 C 67 % 15.69 C
1768 24-07-2015 11:05:00 22.6 C 67 % 16.16 C
1769 24-07-2015 11:10:00 23 C 65 % 16.07 C
1770 24-07-2015 11:15:00 23.4 C 63 % 15.96 C
1771 24-07-2015 11:20:00 23.6 C 61 % 15.64 C
1772 24-07-2015 11:25:00 23.7 C 59 % 15.21 C
1773 24-07-2015 11:30:00 23.9 C 61 % 15.92 C
1774 24-07-2015 11:35:00 24 C 61 % 16.02 C
1775 24-07-2015 11:40:00 24.2 C 61 % 16.2 C
Sensor: Nr:Datum:Temp:Feuchte:Taupunkt:
Aussen-T/F 1776 24-07-2015 11:45:00 24.4 C 59 % 15.87 C
1777 24-07-2015 11:50:00 24.8 C 57 % 15.7 C
1778 24-07-2015 11:55:00 24.9 C 56 % 15.52 C
1779 24-07-2015 12:00:00 25.1 C 58 % 16.26 C
1780 24-07-2015 12:05:00 25.2 C 57 % 16.08 C
1781 24-07-2015 12:10:00 25.4 C 55 % 15.7 C
1782 24-07-2015 12:15:00 25.8 C 56 % 16.36 C
1783 24-07-2015 12:20:00 26 C 55 % 16.26 C
1784 24-07-2015 12:25:00 26.1 C 51 % 15.17 C
1785 24-07-2015 12:30:00 26.3 C 52 % 15.66 C
1786 24-07-2015 12:35:00 26.3 C 50 % 15.05 C
1787 24-07-2015 12:40:00 26.2 C 52 % 15.57 C
1788 24-07-2015 12:45:00 26.2 C 52 % 15.57 C
1789 24-07-2015 12:50:00 26.2 C 50 % 14.96 C
1790 24-07-2015 12:55:00 26.1 C 51 % 15.17 C
1791 24-07-2015 13:00:00 26.3 C 51 % 15.36 C
1792 24-07-2015 13:05:00 26.4 C 49 % 14.83 C
1793 24-07-2015 13:10:00 26.6 C 48 % 14.69 C
1794 24-07-2015 13:15:00 26.6 C 48 % 14.69 C
1795 24-07-2015 13:20:00 26.6 C 49 % 15.01 C
1796 24-07-2015 13:25:00 26.6 C 52 % 15.94 C
1797 24-07-2015 13:30:00 26.6 C 49 % 15.01 C
1798 24-07-2015 13:35:00 26.5 C 53 % 16.14 C
1799 24-07-2015 13:40:00 26.7 C 49 % 15.1 C
1800 24-07-2015 13:45:00 26.8 C 48 % 14.87 C
Sensor: Nr:Datum:Temp:Feuchte:Taupunkt:
Aussen-T/F 1801 24-07-2015 13:50:00 26.8 C 49 % 15.19 C
1802 24-07-2015 13:55:00 26.8 C 48 % 14.87 C
1803 24-07-2015 14:00:00 26.9 C 47 % 14.64 C
1804 24-07-2015 14:05:00 26.9 C 47 % 14.64 C
1805 24-07-2015 14:10:00 27.1 C 46 % 14.49 C
1806 24-07-2015 14:15:00 26.8 C 47 % 14.55 C
1807 24-07-2015 14:20:00 26.8 C 48 % 14.87 C
1808 24-07-2015 14:25:00 26.9 C 49 % 15.28 C
1809 24-07-2015 14:30:00 27.1 C 46 % 14.49 C
1810 24-07-2015 14:35:00 27.2 C 48 % 15.24 C
1811 24-07-2015 14:40:00 27.1 C 50 % 15.78 C
1812 24-07-2015 14:45:00 27.2 C 49 % 15.56 C
1813 24-07-2015 14:50:00 27.4 C 49 % 15.74 C
1814 24-07-2015 14:55:00 27.8 C 46 % 15.12 C
1815 24-07-2015 15:00:00 28.3 C 46 % 15.57 C
1816 24-07-2015 15:05:00 28.7 C 44 % 15.24 C
1817 24-07-2015 15:10:00 28.7 C 44 % 15.24 C
1818 24-07-2015 15:15:00 28.7 C 44 % 15.24 C
1819 24-07-2015 15:20:00 28.9 C 44 % 15.42 C
1820 24-07-2015 15:25:00 29.1 C 46 % 16.3 C
1821 24-07-2015 15:30:00 29.1 C 44 % 15.6 C
1822 24-07-2015 15:35:00 29.1 C 45 % 15.95 C
1823 24-07-2015 15:40:00 28.9 C 45 % 15.77 C
1824 24-07-2015 15:45:00 28.8 C 45 % 15.68 C
1825 24-07-2015 15:50:00 28.9 C 46 % 16.12 C
Sensor: Nr:Datum:Temp:Feuchte:Taupunkt:
Aussen-T/F 1826 24-07-2015 15:55:00 28.9 C 47 % 16.45 C
1827 24-07-2015 16:00:00 29.3 C 44 % 15.78 C
1828 24-07-2015 16:05:00 29.5 C 45 % 16.32 C
1829 24-07-2015 16:10:00 29.6 C 44 % 16.05 C
1830 24-07-2015 16:15:00 29.7 C 44 % 16.14 C
1831 24-07-2015 16:20:00 29.8 C 43 % 15.87 C
1832 24-07-2015 16:25:00 30.1 C 41 % 15.4 C
1833 24-07-2015 16:30:00 30.3 C 40 % 15.19 C
1834 24-07-2015 16:35:00 30.2 C 43 % 16.23 C
1835 24-07-2015 16:40:00 30 C 45 % 16.77 C
1836 24-07-2015 16:45:00 29.8 C 43 % 15.87 C
1837 24-07-2015 16:50:00 29.7 C 42 % 15.42 C
1838 24-07-2015 16:55:00 29.6 C 43 % 15.69 C
1839 24-07-2015 17:00:00 29.6 C 42 % 15.33 C
1840 24-07-2015 17:05:00 29.8 C 42 % 15.51 C
1841 24-07-2015 17:10:00 29.7 C 43 % 15.78 C
1842 24-07-2015 17:15:00 29.5 C 43 % 15.6 C
1843 24-07-2015 17:20:00 29.7 C 43 % 15.78 C
1844 24-07-2015 17:25:00 30.2 C 41 % 15.49 C
1845 24-07-2015 17:30:00 30.3 C 46 % 17.39 C
1846 24-07-2015 17:35:00 30.1 C 42 % 15.77 C
1847 24-07-2015 17:40:00 29.8 C 43 % 15.87 C
1848 24-07-2015 17:45:00 29.7 C 49 % 17.84 C
1849 24-07-2015 17:50:00 29.2 C 52 % 18.33 C
1850 24-07-2015 17:55:00 28.8 C 56 % 19.14 C
Sensor: Nr:Datum:Temp:Feuchte:Taupunkt:
Aussen-T/F 1851 24-07-2015 18:00:00 28.2 C 56 % 18.59 C
1852 24-07-2015 18:05:00 27.6 C 59 % 18.86 C
1853 24-07-2015 18:10:00 27.3 C 59 % 18.58 C
1854 24-07-2015 18:15:00 27.1 C 62 % 19.19 C
1855 24-07-2015 18:20:00 26.9 C 61 % 18.74 C
1856 24-07-2015 18:25:00 26.7 C 62 % 18.81 C
1857 24-07-2015 18:30:00 26.4 C 64 % 19.04 C
1858 24-07-2015 18:35:00 26.3 C 64 % 18.94 C
1859 24-07-2015 18:40:00 26.2 C 64 % 18.85 C
1860 24-07-2015 18:45:00 26.4 C 65 % 19.29 C
1861 24-07-2015 18:50:00 26.8 C 62 % 18.91 C
1862 24-07-2015 18:55:00 27.1 C 62 % 19.19 C
1863 24-07-2015 19:00:00 26.9 C 63 % 19.26 C
1864 24-07-2015 19:05:00 26.7 C 63 % 19.07 C
1865 24-07-2015 19:10:00 26.5 C 63 % 18.88 C
1866 24-07-2015 19:15:00 26.3 C 62 % 18.44 C
1867 24-07-2015 19:20:00 26.1 C 64 % 18.76 C
1868 24-07-2015 19:25:00 25.9 C 65 % 18.81 C
1869 24-07-2015 19:30:00 25.7 C 65 % 18.62 C
1870 24-07-2015 19:35:00 25.4 C 66 % 18.58 C
1871 24-07-2015 19:40:00 25.1 C 65 % 18.06 C
1872 24-07-2015 19:45:00 24.9 C 66 % 18.11 C
1873 24-07-2015 19:50:00 24.8 C 67 % 18.25 C
1874 24-07-2015 19:55:00 24.9 C 68 % 18.59 C
1875 24-07-2015 20:00:00 25 C 67 % 18.44 C
Sensor: Nr:Datum:Temp:Feuchte:Taupunkt:
Aussen-T/F 1876 24-07-2015 20:05:00 25.1 C 67 % 18.54 C
1877 24-07-2015 20:10:00 25.2 C 67 % 18.63 C
1878 24-07-2015 20:15:00 25.2 C 66 % 18.39 C
1879 24-07-2015 20:20:00 25 C 67 % 18.44 C
1880 24-07-2015 20:25:00 24.8 C 67 % 18.25 C
1881 24-07-2015 20:30:00 24.6 C 67 % 18.06 C
1882 24-07-2015 20:35:00 24.3 C 68 % 18.01 C
1883 24-07-2015 20:40:00 24.1 C 68 % 17.82 C
1884 24-07-2015 20:45:00 23.9 C 68 % 17.63 C
1885 24-07-2015 20:50:00 23.8 C 69 % 17.77 C
1886 24-07-2015 20:55:00 23.6 C 69 % 17.58 C
1887 24-07-2015 21:00:00 23.6 C 68 % 17.35 C
1888 24-07-2015 21:05:00 23.5 C 70 % 17.71 C
1889 24-07-2015 21:10:00 23.4 C 70 % 17.62 C
1890 24-07-2015 21:15:00 23.3 C 69 % 17.29 C
1891 24-07-2015 21:20:00 23.2 C 70 % 17.42 C
1892 24-07-2015 21:25:00 23 C 69 % 17.01 C
1893 24-07-2015 21:30:00 22.8 C 69 % 16.82 C
1894 24-07-2015 21:35:00 22.8 C 69 % 16.82 C
1895 24-07-2015 21:40:00 22.7 C 70 % 16.95 C
1896 24-07-2015 21:45:00 22.7 C 71 % 17.17 C
1897 24-07-2015 21:50:00 22.7 C 72 % 17.39 C
1898 24-07-2015 21:55:00 22.7 C 72 % 17.39 C
1899 24-07-2015 22:00:00 22.7 C 72 % 17.39 C
1900 24-07-2015 22:05:00 22.7 C 72 % 17.39 C
Sensor: Nr:Datum:Temp:Feuchte:Taupunkt:
Aussen-T/F 1901 24-07-2015 22:10:00 22.7 C 71 % 17.17 C
1902 24-07-2015 22:15:00 22.7 C 71 % 17.17 C
1903 24-07-2015 22:20:00 22.7 C 73 % 17.61 C
1904 24-07-2015 22:25:00 22.7 C 73 % 17.61 C
1905 24-07-2015 22:30:00 22.6 C 73 % 17.51 C
1906 24-07-2015 22:35:00 22.6 C 72 % 17.3 C
1907 24-07-2015 22:40:00 22.8 C 68 % 16.59 C
1908 24-07-2015 22:45:00 23.6 C 67 % 17.11 C
1909 24-07-2015 22:50:00 23.6 C 67 % 17.11 C
1910 24-07-2015 22:55:00 23.1 C 70 % 17.33 C
1911 24-07-2015 23:00:00 22.5 C 74 % 17.63 C
1912 24-07-2015 23:05:00 21.8 C 78 % 17.79 C
1913 24-07-2015 23:10:00 21.1 C 81 % 17.71 C
1914 24-07-2015 23:15:00 20.4 C 84 % 17.61 C
1915 24-07-2015 23:20:00 19.9 C 86 % 17.49 C
1916 24-07-2015 23:25:00 19.6 C 87 % 17.38 C
1917 24-07-2015 23:30:00 19.3 C 88 % 17.26 C
1918 24-07-2015 23:35:00 19.1 C 89 % 17.24 C
1919 24-07-2015 23:40:00 19.1 C 89 % 17.24 C
1920 24-07-2015 23:45:00 19.1 C 89 % 17.24 C
1921 24-07-2015 23:50:00 18.9 C 89 % 17.05 C
1922 24-07-2015 23:55:00 18.9 C 90 % 17.22 C
1923 25-07-2015 00:00:00 18.8 C 91 % 17.3 C
1924 25-07-2015 00:05:00 18.7 C 91 % 17.2 C
1925 25-07-2015 00:10:00 18.6 C 91 % 17.1 C
Sensor: Nr:Datum:Temp:Feuchte:Taupunkt:
Aussen-T/F 1926 25-07-2015 00:15:00 18.5 C 91 % 17 C
1927 25-07-2015 00:20:00 18.4 C 91 % 16.9 C
1928 25-07-2015 00:25:00 18.4 C 92 % 17.08 C
1929 25-07-2015 00:30:00 18.3 C 92 % 16.98 C
1930 25-07-2015 00:35:00 18.3 C 93 % 17.15 C
1931 25-07-2015 00:40:00 18.2 C 93 % 17.05 C
1932 25-07-2015 00:45:00 18.2 C 93 % 17.05 C
1933 25-07-2015 00:50:00 18.1 C 93 % 16.95 C
1934 25-07-2015 00:55:00 18 C 94 % 17.02 C
1935 25-07-2015 01:00:00 17.9 C 94 % 16.92 C
1936 25-07-2015 01:05:00 17.9 C 94 % 16.92 C
1937 25-07-2015 01:10:00 17.8 C 94 % 16.82 C
1938 25-07-2015 01:15:00 17.8 C 94 % 16.82 C
1939 25-07-2015 01:20:00 17.8 C 94 % 16.82 C
1940 25-07-2015 01:25:00 17.8 C 95 % 16.99 C
1941 25-07-2015 01:30:00 17.8 C 95 % 16.99 C
1942 25-07-2015 01:35:00 17.8 C 95 % 16.99 C
1943 25-07-2015 01:40:00 17.8 C 95 % 16.99 C
1944 25-07-2015 01:45:00 17.7 C 95 % 16.89 C
1945 25-07-2015 01:50:00 17.7 C 95 % 16.89 C
1946 25-07-2015 01:55:00 17.6 C 95 % 16.79 C
1947 25-07-2015 02:00:00 17.6 C 95 % 16.79 C
1948 25-07-2015 02:05:00 17.6 C 95 % 16.79 C
1949 25-07-2015 02:10:00 17.6 C 95 % 16.79 C
1950 25-07-2015 02:15:00 17.6 C 95 % 16.79 C
Sensor: Nr:Datum:Temp:Feuchte:Taupunkt:
Aussen-T/F 1951 25-07-2015 02:20:00 17.6 C 95 % 16.79 C
1952 25-07-2015 02:25:00 17.5 C 95 % 16.69 C
1953 25-07-2015 02:30:00 17.4 C 95 % 16.59 C
1954 25-07-2015 02:35:00 17.4 C 95 % 16.59 C
1955 25-07-2015 02:40:00 17.4 C 95 % 16.59 C
1956 25-07-2015 02:45:00 17.3 C 95 % 16.49 C
1957 25-07-2015 02:50:00 17.3 C 95 % 16.49 C
1958 25-07-2015 02:55:00 17.3 C 95 % 16.49 C
1959 25-07-2015 03:00:00 17.2 C 95 % 16.39 C
1960 25-07-2015 03:05:00 17.2 C 96 % 16.56 C
1961 25-07-2015 03:10:00 17.2 C 95 % 16.39 C
1962 25-07-2015 03:15:00 17.1 C 95 % 16.29 C
1963 25-07-2015 03:20:00 17.1 C 95 % 16.29 C
1964 25-07-2015 03:25:00 17 C 96 % 16.36 C
1965 25-07-2015 03:30:00 16.9 C 96 % 16.26 C
1966 25-07-2015 03:35:00 16.8 C 96 % 16.16 C
1967 25-07-2015 03:40:00 16.8 C 95 % 15.99 C
1968 25-07-2015 03:45:00 16.8 C 96 % 16.16 C
1969 25-07-2015 03:50:00 16.7 C 96 % 16.06 C
1970 25-07-2015 03:55:00 16.7 C 96 % 16.06 C
1971 25-07-2015 04:00:00 16.6 C 96 % 15.96 C
1972 25-07-2015 04:05:00 16.6 C 96 % 15.96 C
1973 25-07-2015 04:10:00 16.6 C 96 % 15.96 C
1974 25-07-2015 04:15:00 16.6 C 96 % 15.96 C
1975 25-07-2015 04:20:00 16.6 C 96 % 15.96 C
Sensor: Nr:Datum:Temp:Feuchte:Taupunkt:
Aussen-T/F 1976 25-07-2015 04:25:00 16.6 C 96 % 15.96 C
1977 25-07-2015 06:40:00 16.8 C 96 % 16.16 C
1978 25-07-2015 06:45:00 16.8 C 96 % 16.16 C
1979 25-07-2015 06:50:00 16.8 C 96 % 16.16 C
1980 25-07-2015 07:45:00 17.2 C 93 % 16.06 C
1981 25-07-2015 07:50:00 17.4 C 93 % 16.26 C
1982 25-07-2015 07:55:00 17.4 C 93 % 16.26 C
1983 25-07-2015 08:00:00 17.4 C 92 % 16.09 C
1984 25-07-2015 08:05:00 17.7 C 91 % 16.21 C
1985 25-07-2015 08:10:00 18 C 88 % 15.98 C
1986 25-07-2015 08:15:00 18.6 C 87 % 16.39 C
1987 25-07-2015 08:20:00 19.1 C 84 % 16.33 C
1988 25-07-2015 08:25:00 19.4 C 80 % 15.86 C
1989 25-07-2015 08:30:00 19.4 C 80 % 15.86 C
1990 25-07-2015 08:35:00 19.4 C 79 % 15.66 C
1991 25-07-2015 08:40:00 19.3 C 79 % 15.57 C
1992 25-07-2015 08:45:00 19.4 C 79 % 15.66 C
1993 25-07-2015 08:50:00 19.4 C 77 % 15.27 C
1994 25-07-2015 08:55:00 19.6 C 76 % 15.26 C
1995 25-07-2015 09:00:00 19.7 C 75 % 15.15 C
1996 25-07-2015 09:05:00 19.8 C 74 % 15.03 C
1997 25-07-2015 09:10:00 19.9 C 74 % 15.13 C
1998 25-07-2015 09:15:00 19.9 C 73 % 14.92 C
1999 25-07-2015 09:20:00 20.1 C 73 % 15.11 C
2000 25-07-2015 09:25:00 20.2 C 71 % 14.78 C
Sensor: Nr:Datum:Temp:Feuchte:Taupunkt:
Aussen-T/F 2001 25-07-2015 09:30:00 20.3 C 72 % 15.09 C
2002 25-07-2015 09:35:00 20.3 C 71 % 14.87 C
2003 25-07-2015 09:40:00 20.2 C 72 % 14.99 C
2004 25-07-2015 09:45:00 20.1 C 72 % 14.9 C
2005 25-07-2015 09:50:00 19.8 C 73 % 14.82 C
2006 25-07-2015 09:55:00 19.7 C 74 % 14.94 C
2007 25-07-2015 10:00:00 19.8 C 73 % 14.82 C
2008 25-07-2015 10:05:00 20 C 73 % 15.01 C
2009 25-07-2015 10:10:00 20.3 C 73 % 15.3 C
2010 25-07-2015 10:15:00 20.1 C 74 % 15.32 C
2011 25-07-2015 10:20:00 19.6 C 78 % 15.66 C
2012 25-07-2015 10:25:00 19.1 C 81 % 15.76 C
2013 25-07-2015 10:30:00 18.8 C 83 % 15.85 C
2014 25-07-2015 10:35:00 18.7 C 82 % 15.57 C
2015 25-07-2015 10:40:00 18.7 C 83 % 15.75 C
2016 25-07-2015 10:45:00 18.8 C 83 % 15.85 C
2017 25-07-2015 10:50:00 19.2 C 81 % 15.86 C
2018 25-07-2015 10:55:00 19.2 C 80 % 15.67 C
2019 25-07-2015 11:00:00 19.1 C 79 % 15.37 C
2020 25-07-2015 11:05:00 18.7 C 80 % 15.18 C
2021 25-07-2015 11:10:00 18.4 C 83 % 15.46 C
2022 25-07-2015 11:15:00 18 C 83 % 15.07 C
2023 25-07-2015 11:20:00 18 C 83 % 15.07 C
2024 25-07-2015 11:25:00 18 C 84 % 15.26 C
2025 25-07-2015 11:30:00 17.9 C 83 % 14.97 C
Sensor: Nr:Datum:Temp:Feuchte:Taupunkt:
Aussen-T/F 2026 25-07-2015 11:35:00 17.9 C 83 % 14.97 C
2027 25-07-2015 11:40:00 18 C 84 % 15.26 C
2028 25-07-2015 11:45:00 18.1 C 84 % 15.35 C
2029 25-07-2015 11:50:00 18.2 C 84 % 15.45 C
2030 25-07-2015 11:55:00 18.2 C 83 % 15.27 C
2031 25-07-2015 12:00:00 18.2 C 84 % 15.45 C
2032 25-07-2015 12:05:00 18.2 C 84 % 15.45 C
2033 25-07-2015 12:10:00 18.6 C 85 % 16.03 C
2034 25-07-2015 12:15:00 18.9 C 83 % 15.95 C
2035 25-07-2015 12:20:00 18.7 C 80 % 15.18 C
2036 25-07-2015 12:25:00 18.5 C 79 % 14.79 C
2037 25-07-2015 12:30:00 18.5 C 81 % 15.18 C
2038 25-07-2015 12:35:00 18.5 C 79 % 14.79 C
2039 25-07-2015 12:40:00 18.3 C 80 % 14.79 C
2040 25-07-2015 12:45:00 17.7 C 82 % 14.59 C
2041 25-07-2015 12:50:00 17.1 C 84 % 14.38 C
2042 25-07-2015 12:55:00 16.7 C 84 % 13.98 C
2043 25-07-2015 13:00:00 16.7 C 86 % 14.35 C
2044 25-07-2015 13:05:00 16.8 C 85 % 14.26 C
2045 25-07-2015 13:10:00 17 C 85 % 14.46 C
2046 25-07-2015 13:15:00 17.3 C 83 % 14.39 C
2047 25-07-2015 13:20:00 17.7 C 80 % 14.21 C
2048 25-07-2015 13:25:00 17.9 C 77 % 13.81 C
2049 25-07-2015 13:30:00 17.9 C 75 % 13.41 C
2050 25-07-2015 13:35:00 18 C 76 % 13.71 C
Sensor: Nr:Datum:Temp:Feuchte:Taupunkt:
Aussen-T/F 2051 25-07-2015 13:40:00 18.3 C 74 % 13.59 C
2052 25-07-2015 13:45:00 18.3 C 74 % 13.59 C
2053 25-07-2015 13:50:00 18.3 C 72 % 13.17 C
2054 25-07-2015 13:55:00 18.1 C 70 % 12.55 C
2055 25-07-2015 14:00:00 18.2 C 71 % 12.86 C
2056 25-07-2015 14:05:00 18.4 C 70 % 12.83 C
2057 25-07-2015 14:10:00 18.7 C 68 % 12.68 C
2058 25-07-2015 14:15:00 18.8 C 68 % 12.77 C
2059 25-07-2015 14:20:00 19.1 C 68 % 13.06 C
2060 25-07-2015 14:25:00 19.2 C 67 % 12.93 C
2061 25-07-2015 14:30:00 18.9 C 65 % 12.18 C
2062 25-07-2015 14:35:00 18.7 C 66 % 12.22 C
2063 25-07-2015 14:40:00 18.8 C 67 % 12.55 C
2064 25-07-2015 14:45:00 18.9 C 65 % 12.18 C
2065 25-07-2015 14:50:00 19.1 C 65 % 12.37 C
2066 25-07-2015 14:55:00 19.2 C 63 % 11.99 C
2067 25-07-2015 15:00:00 19 C 64 % 12.04 C
2068 25-07-2015 15:05:00 18.8 C 65 % 12.09 C
2069 25-07-2015 15:10:00 18.7 C 66 % 12.22 C
2070 25-07-2015 15:15:00 18.7 C 66 % 12.22 C
2071 25-07-2015 15:20:00 18.9 C 65 % 12.18 C
2072 25-07-2015 15:25:00 19.2 C 63 % 11.99 C
2073 25-07-2015 15:30:00 19.1 C 62 % 11.65 C
2074 25-07-2015 15:35:00 18.8 C 63 % 11.61 C
2075 25-07-2015 15:40:00 18.6 C 62 % 11.18 C
Sensor: Nr:Datum:Temp:Feuchte:Taupunkt:
Aussen-T/F 2076 25-07-2015 15:45:00 18.5 C 63 % 11.33 C
2077 25-07-2015 15:50:00 18.6 C 64 % 11.66 C
2078 25-07-2015 15:55:00 18.6 C 63 % 11.42 C
2079 25-07-2015 16:00:00 18.3 C 63 % 11.14 C
2080 25-07-2015 16:05:00 18.2 C 65 % 11.52 C
2081 25-07-2015 16:10:00 18.1 C 66 % 11.65 C
2082 25-07-2015 16:15:00 18.1 C 67 % 11.88 C
2083 25-07-2015 16:20:00 18.2 C 63 % 11.05 C
2084 25-07-2015 16:25:00 18.1 C 65 % 11.42 C
2085 25-07-2015 16:30:00 17.9 C 67 % 11.69 C
2086 25-07-2015 16:35:00 18.1 C 67 % 11.88 C
2087 25-07-2015 16:40:00 18.3 C 67 % 12.07 C
2088 25-07-2015 16:45:00 18.4 C 66 % 11.94 C
2089 25-07-2015 16:50:00 18.3 C 66 % 11.84 C
2090 25-07-2015 16:55:00 18.1 C 65 % 11.42 C
2091 25-07-2015 17:00:00 17.9 C 66 % 11.46 C
2092 25-07-2015 17:05:00 17.7 C 66 % 11.27 C
2093 25-07-2015 17:10:00 17.7 C 68 % 11.72 C
2094 25-07-2015 17:15:00 17.6 C 67 % 11.4 C
2095 25-07-2015 17:20:00 17.5 C 67 % 11.31 C
2096 25-07-2015 17:25:00 17.3 C 68 % 11.34 C
2097 25-07-2015 17:30:00 17.1 C 70 % 11.59 C
2098 25-07-2015 17:35:00 17.2 C 70 % 11.68 C
2099 25-07-2015 17:40:00 17.1 C 70 % 11.59 C
2100 25-07-2015 17:45:00 17.1 C 70 % 11.59 C
Sensor: Nr:Datum:Temp:Feuchte:Taupunkt:
Aussen-T/F 2101 25-07-2015 17:50:00 16.9 C 70 % 11.4 C
2102 25-07-2015 17:55:00 16.8 C 71 % 11.52 C
2103 25-07-2015 18:00:00 16.8 C 70 % 11.3 C
2104 25-07-2015 18:05:00 16.8 C 69 % 11.09 C
2105 25-07-2015 18:10:00 16.8 C 69 % 11.09 C
2106 25-07-2015 18:15:00 16.8 C 68 % 10.87 C
2107 25-07-2015 18:20:00 16.8 C 68 % 10.87 C
2108 25-07-2015 18:25:00 16.8 C 67 % 10.64 C
2109 25-07-2015 18:30:00 16.8 C 67 % 10.64 C
2110 25-07-2015 18:35:00 16.8 C 68 % 10.87 C
2111 25-07-2015 18:40:00 16.9 C 67 % 10.74 C
2112 25-07-2015 18:45:00 16.9 C 68 % 10.96 C
2113 25-07-2015 18:50:00 16.8 C 68 % 10.87 C
2114 25-07-2015 18:55:00 16.8 C 67 % 10.64 C
2115 25-07-2015 19:00:00 16.8 C 67 % 10.64 C
2116 25-07-2015 19:05:00 16.8 C 66 % 10.42 C
2117 25-07-2015 19:10:00 16.8 C 67 % 10.64 C
2118 25-07-2015 19:15:00 16.8 C 67 % 10.64 C
2119 25-07-2015 19:20:00 16.7 C 67 % 10.55 C
2120 25-07-2015 19:25:00 16.6 C 67 % 10.45 C
2121 25-07-2015 19:30:00 16.6 C 68 % 10.67 C
2122 25-07-2015 19:35:00 16.5 C 68 % 10.58 C
2123 25-07-2015 19:40:00 16.4 C 69 % 10.7 C
2124 25-07-2015 19:45:00 16.4 C 68 % 10.48 C
2125 25-07-2015 19:50:00 16.4 C 68 % 10.48 C
Sensor: Nr:Datum:Temp:Feuchte:Taupunkt:
Aussen-T/F 2126 25-07-2015 19:55:00 16.4 C 68 % 10.48 C
2127 25-07-2015 20:00:00 16.4 C 68 % 10.48 C
2128 25-07-2015 20:05:00 16.4 C 68 % 10.48 C
2129 25-07-2015 20:10:00 16.3 C 68 % 10.39 C
2130 25-07-2015 20:15:00 16.2 C 68 % 10.29 C
2131 25-07-2015 20:20:00 16.2 C 68 % 10.29 C
2132 25-07-2015 20:25:00 16.1 C 67 % 9.98 C
2133 25-07-2015 20:30:00 16 C 66 % 9.66 C
2134 25-07-2015 20:35:00 16 C 67 % 9.88 C
2135 25-07-2015 20:40:00 16 C 67 % 9.88 C
2136 25-07-2015 20:45:00 16.1 C 66 % 9.75 C
2137 25-07-2015 20:50:00 16 C 65 % 9.43 C
2138 25-07-2015 20:55:00 15.9 C 65 % 9.34 C
2139 25-07-2015 21:00:00 15.8 C 66 % 9.47 C
2140 25-07-2015 21:05:00 15.7 C 66 % 9.37 C
2141 25-07-2015 21:10:00 15.6 C 66 % 9.28 C
2142 25-07-2015 21:15:00 15.4 C 67 % 9.31 C
2143 25-07-2015 21:20:00 15.3 C 67 % 9.21 C
2144 25-07-2015 21:25:00 15.2 C 69 % 9.56 C
2145 25-07-2015 21:30:00 15.1 C 69 % 9.46 C
2146 25-07-2015 21:35:00 14.9 C 70 % 9.48 C
2147 25-07-2015 21:40:00 14.8 C 71 % 9.6 C
2148 25-07-2015 21:45:00 14.8 C 71 % 9.6 C
2149 25-07-2015 21:50:00 14.7 C 71 % 9.5 C
2150 25-07-2015 21:55:00 14.6 C 71 % 9.41 C
Sensor: Nr:Datum:Temp:Feuchte:Taupunkt:
Aussen-T/F 2151 25-07-2015 22:00:00 14.5 C 72 % 9.52 C
2152 25-07-2015 22:05:00 14.4 C 72 % 9.42 C
2153 25-07-2015 22:10:00 14.3 C 72 % 9.33 C
2154 25-07-2015 22:15:00 14.3 C 72 % 9.33 C
2155 25-07-2015 22:20:00 14.3 C 72 % 9.33 C
2156 25-07-2015 22:25:00 14.2 C 73 % 9.43 C
2157 25-07-2015 22:30:00 14.2 C 73 % 9.43 C
2158 25-07-2015 22:35:00 14.1 C 73 % 9.34 C
2159 25-07-2015 22:40:00 14 C 74 % 9.44 C
2160 25-07-2015 22:45:00 13.9 C 74 % 9.35 C
2161 25-07-2015 22:50:00 13.9 C 74 % 9.35 C
2162 25-07-2015 22:55:00 13.9 C 74 % 9.35 C
2163 25-07-2015 23:00:00 13.8 C 75 % 9.45 C
2164 25-07-2015 23:05:00 13.8 C 76 % 9.65 C
2165 25-07-2015 23:10:00 13.7 C 76 % 9.55 C
2166 25-07-2015 23:15:00 13.7 C 76 % 9.55 C
2167 25-07-2015 23:20:00 13.6 C 77 % 9.65 C
2168 25-07-2015 23:25:00 13.5 C 77 % 9.55 C
2169 25-07-2015 23:30:00 13.4 C 78 % 9.65 C
2170 25-07-2015 23:35:00 13.3 C 78 % 9.55 C
2171 25-07-2015 23:40:00 13.2 C 79 % 9.64 C
2172 25-07-2015 23:45:00 13.1 C 79 % 9.54 C
2173 25-07-2015 23:50:00 13.1 C 79 % 9.54 C
2174 25-07-2015 23:55:00 13 C 80 % 9.63 C
2175 26-07-2015 00:00:00 13 C 80 % 9.63 C
Sensor: Nr:Datum:Temp:Feuchte:Taupunkt:
Aussen-T/F 2176 26-07-2015 00:05:00 13 C 80 % 9.63 C
2177 26-07-2015 00:10:00 12.9 C 80 % 9.54 C
2178 26-07-2015 00:15:00 12.9 C 80 % 9.54 C
2179 26-07-2015 00:20:00 12.9 C 81 % 9.72 C
2180 26-07-2015 00:25:00 12.9 C 81 % 9.72 C
2181 26-07-2015 00:30:00 12.9 C 81 % 9.72 C
2182 26-07-2015 00:35:00 12.9 C 81 % 9.72 C
2183 26-07-2015 00:40:00 12.8 C 81 % 9.62 C
2184 26-07-2015 00:45:00 12.7 C 81 % 9.53 C
2185 26-07-2015 00:50:00 12.7 C 82 % 9.71 C
2186 26-07-2015 00:55:00 12.7 C 82 % 9.71 C
2187 26-07-2015 01:00:00 12.6 C 82 % 9.61 C
2188 26-07-2015 01:05:00 12.6 C 82 % 9.61 C
2189 26-07-2015 01:10:00 12.5 C 82 % 9.51 C
2190 26-07-2015 01:15:00 12.5 C 82 % 9.51 C
2191 26-07-2015 01:20:00 12.4 C 83 % 9.6 C
2192 26-07-2015 01:25:00 12.4 C 83 % 9.6 C
2193 26-07-2015 01:30:00 12.3 C 83 % 9.5 C
2194 26-07-2015 01:35:00 12.2 C 84 % 9.58 C
2195 26-07-2015 01:40:00 12.2 C 84 % 9.58 C
2196 26-07-2015 01:45:00 12.1 C 84 % 9.48 C
2197 26-07-2015 01:50:00 12.1 C 84 % 9.48 C
2198 26-07-2015 01:55:00 12 C 85 % 9.56 C
2199 26-07-2015 02:00:00 11.9 C 85 % 9.46 C
2200 26-07-2015 02:05:00 11.9 C 85 % 9.46 C
Sensor: Nr:Datum:Temp:Feuchte:Taupunkt:
Aussen-T/F 2201 26-07-2015 02:10:00 11.9 C 85 % 9.46 C
2202 26-07-2015 02:15:00 11.9 C 85 % 9.46 C
2203 26-07-2015 02:20:00 12 C 85 % 9.56 C
2204 26-07-2015 02:25:00 12.1 C 85 % 9.66 C
2205 26-07-2015 02:30:00 12.1 C 84 % 9.48 C
2206 26-07-2015 02:35:00 12.2 C 84 % 9.58 C
2207 26-07-2015 02:40:00 12.2 C 84 % 9.58 C
2208 26-07-2015 02:45:00 12.1 C 84 % 9.48 C
2209 26-07-2015 02:50:00 12 C 84 % 9.38 C
2210 26-07-2015 02:55:00 12 C 85 % 9.56 C
2211 26-07-2015 03:00:00 11.9 C 85 % 9.46 C
2212 26-07-2015 03:05:00 11.9 C 85 % 9.46 C
2213 26-07-2015 03:10:00 11.9 C 85 % 9.46 C
2214 26-07-2015 03:15:00 11.9 C 85 % 9.46 C
2215 26-07-2015 03:20:00 11.9 C 85 % 9.46 C
2216 26-07-2015 03:25:00 11.9 C 85 % 9.46 C
2217 26-07-2015 03:30:00 11.9 C 85 % 9.46 C
2218 26-07-2015 03:35:00 11.8 C 85 % 9.36 C
2219 26-07-2015 03:40:00 11.8 C 85 % 9.36 C
2220 26-07-2015 03:45:00 11.8 C 85 % 9.36 C
2221 26-07-2015 03:50:00 11.8 C 85 % 9.36 C
2222 26-07-2015 04:15:00 11.1 C 87 % 9.02 C
2223 26-07-2015 04:20:00 11 C 88 % 9.09 C
2224 26-07-2015 04:25:00 11 C 88 % 9.09 C
2225 26-07-2015 04:30:00 10.7 C 89 % 8.96 C
Sensor: Nr:Datum:Temp:Feuchte:Taupunkt:
Aussen-T/F 2226 26-07-2015 04:35:00 10.7 C 89 % 8.96 C
2227 26-07-2015 04:40:00 10.6 C 89 % 8.86 C
2228 26-07-2015 04:45:00 10.5 C 90 % 8.93 C
2229 26-07-2015 04:50:00 10.4 C 90 % 8.83 C
2230 26-07-2015 04:55:00 10.4 C 90 % 8.83 C
2231 26-07-2015 05:00:00 10.4 C 90 % 8.83 C
2232 26-07-2015 05:05:00 10.3 C 91 % 8.9 C
2233 26-07-2015 05:10:00 10.3 C 91 % 8.9 C
2234 26-07-2015 05:15:00 10.3 C 91 % 8.9 C
2235 26-07-2015 05:20:00 10.3 C 91 % 8.9 C
2236 26-07-2015 05:25:00 10.3 C 91 % 8.9 C
2237 26-07-2015 05:30:00 10.3 C 91 % 8.9 C
2238 26-07-2015 05:35:00 10.2 C 91 % 8.8 C
2239 26-07-2015 05:40:00 10.2 C 91 % 8.8 C
2240 26-07-2015 05:45:00 10.1 C 91 % 8.7 C
2241 26-07-2015 05:50:00 10.1 C 91 % 8.7 C
2242 26-07-2015 05:55:00 9.9 C 91 % 8.5 C
2243 26-07-2015 06:00:00 9.8 C 91 % 8.4 C
2244 26-07-2015 06:05:00 9.8 C 92 % 8.56 C
2245 26-07-2015 06:10:00 9.8 C 92 % 8.56 C
2246 26-07-2015 06:15:00 9.8 C 92 % 8.56 C
2247 26-07-2015 06:20:00 9.9 C 92 % 8.66 C
2248 26-07-2015 06:25:00 9.9 C 92 % 8.66 C
2249 26-07-2015 06:30:00 9.9 C 92 % 8.66 C
2250 26-07-2015 06:35:00 9.9 C 92 % 8.66 C
Sensor: Nr:Datum:Temp:Feuchte:Taupunkt:
Aussen-T/F 2251 26-07-2015 06:40:00 9.9 C 92 % 8.66 C
2252 26-07-2015 06:45:00 9.9 C 92 % 8.66 C
2253 26-07-2015 06:50:00 10 C 92 % 8.76 C
2254 26-07-2015 06:55:00 10 C 92 % 8.76 C
2255 26-07-2015 07:00:00 10 C 92 % 8.76 C
2256 26-07-2015 07:05:00 10.1 C 92 % 8.86 C
2257 26-07-2015 07:10:00 10.1 C 92 % 8.86 C
2258 26-07-2015 07:15:00 10.1 C 92 % 8.86 C
2259 26-07-2015 07:20:00 10.1 C 92 % 8.86 C
2260 26-07-2015 07:25:00 10 C 92 % 8.76 C
2261 26-07-2015 07:30:00 10.1 C 92 % 8.86 C
2262 26-07-2015 07:35:00 10.2 C 93 % 9.12 C
2263 26-07-2015 07:40:00 10.2 C 93 % 9.12 C
2264 26-07-2015 07:45:00 10.3 C 93 % 9.22 C
2265 26-07-2015 07:50:00 10.3 C 93 % 9.22 C
2266 26-07-2015 07:55:00 10.3 C 93 % 9.22 C
2267 26-07-2015 08:00:00 10.4 C 92 % 9.16 C
2268 26-07-2015 08:05:00 10.4 C 92 % 9.16 C
2269 26-07-2015 08:10:00 10.4 C 93 % 9.32 C
2270 26-07-2015 08:15:00 10.4 C 93 % 9.32 C
2271 26-07-2015 08:20:00 11 C 93 % 9.91 C
2272 26-07-2015 08:25:00 11.3 C 92 % 10.05 C
2273 26-07-2015 08:30:00 11.6 C 91 % 10.18 C
2274 26-07-2015 08:35:00 11.9 C 91 % 10.48 C
2275 26-07-2015 08:40:00 12.4 C 89 % 10.64 C
Sensor: Nr:Datum:Temp:Feuchte:Taupunkt:
Aussen-T/F 2276 26-07-2015 08:45:00 12.8 C 88 % 10.86 C
2277 26-07-2015 08:50:00 13.3 C 85 % 10.83 C
2278 26-07-2015 08:55:00 13.7 C 83 % 10.87 C
2279 26-07-2015 09:00:00 13.9 C 81 % 10.7 C
2280 26-07-2015 09:05:00 14.1 C 81 % 10.89 C
2281 26-07-2015 09:10:00 14.2 C 81 % 10.99 C
2282 26-07-2015 09:15:00 14.2 C 79 % 10.61 C
2283 26-07-2015 09:20:00 14.3 C 80 % 10.9 C
2284 26-07-2015 09:25:00 14.4 C 79 % 10.81 C
2285 26-07-2015 09:30:00 14.7 C 77 % 10.71 C
2286 26-07-2015 09:35:00 14.9 C 77 % 10.91 C
2287 26-07-2015 09:40:00 15.2 C 75 % 10.8 C
2288 26-07-2015 09:45:00 15.3 C 76 % 11.1 C
2289 26-07-2015 09:50:00 15.3 C 75 % 10.9 C
2290 26-07-2015 09:55:00 15.5 C 73 % 10.69 C
2291 26-07-2015 10:00:00 15.7 C 72 % 10.67 C
2292 26-07-2015 10:05:00 15.8 C 72 % 10.77 C
2293 26-07-2015 10:10:00 16.1 C 71 % 10.84 C
2294 26-07-2015 10:15:00 16.4 C 67 % 10.26 C
2295 26-07-2015 10:20:00 16.8 C 65 % 10.19 C
2296 26-07-2015 10:25:00 17.1 C 65 % 10.47 C
2297 26-07-2015 10:30:00 17.4 C 64 % 10.53 C
2298 26-07-2015 10:35:00 17.5 C 63 % 10.38 C
2299 26-07-2015 10:40:00 17.8 C 60 % 9.94 C
2300 26-07-2015 10:45:00 17.8 C 64 % 10.9 C
Sensor: Nr:Datum:Temp:Feuchte:Taupunkt:
Aussen-T/F 2301 26-07-2015 10:50:00 17.6 C 67 % 11.4 C
2302 26-07-2015 10:55:00 17.5 C 65 % 10.85 C
2303 26-07-2015 11:00:00 17.9 C 58 % 9.53 C
2304 26-07-2015 11:05:00 18.4 C 61 % 10.75 C
2305 26-07-2015 11:10:00 18.8 C 57 % 10.11 C
2306 26-07-2015 11:15:00 19.1 C 56 % 10.12 C
2307 26-07-2015 11:20:00 19.3 C 53 % 9.49 C
2308 26-07-2015 11:25:00 19.6 C 52 % 9.48 C
2309 26-07-2015 11:30:00 19.1 C 52 % 9.02 C
2310 26-07-2015 11:35:00 18.8 C 55 % 9.58 C
2311 26-07-2015 11:40:00 18.9 C 56 % 9.94 C
2312 26-07-2015 11:45:00 19.3 C 51 % 8.92 C
2313 26-07-2015 11:50:00 19.3 C 51 % 8.92 C
2314 26-07-2015 11:55:00 19.3 C 54 % 9.77 C
2315 26-07-2015 12:00:00 19.5 C 51 % 9.1 C
2316 26-07-2015 12:05:00 19.8 C 58 % 11.3 C
2317 26-07-2015 12:10:00 20.4 C 53 % 10.51 C
2318 26-07-2015 12:15:00 20.9 C 48 % 9.49 C
2319 26-07-2015 12:20:00 20.9 C 47 % 9.17 C
2320 26-07-2015 12:25:00 20.9 C 48 % 9.49 C
2321 26-07-2015 12:30:00 21.1 C 46 % 9.04 C
2322 26-07-2015 12:35:00 21.4 C 46 % 9.31 C
2323 26-07-2015 12:40:00 21.6 C 46 % 9.49 C
2324 26-07-2015 12:45:00 21.6 C 48 % 10.13 C
2325 26-07-2015 12:50:00 21.3 C 47 % 9.54 C
Sensor: Nr:Datum:Temp:Feuchte:Taupunkt:
Aussen-T/F 2326 26-07-2015 12:55:00 20.8 C 48 % 9.4 C
2327 26-07-2015 13:00:00 20.6 C 48 % 9.21 C
2328 26-07-2015 13:05:00 20.4 C 48 % 9.03 C
2329 26-07-2015 13:10:00 20.5 C 52 % 10.31 C
2330 26-07-2015 13:15:00 21 C 47 % 9.27 C
2331 26-07-2015 13:20:00 21 C 46 % 8.95 C
2332 26-07-2015 13:25:00 21.1 C 46 % 9.04 C
2333 26-07-2015 13:30:00 21.5 C 46 % 9.4 C
2334 26-07-2015 13:35:00 21.8 C 45 % 9.35 C
2335 26-07-2015 13:40:00 21.6 C 44 % 8.83 C
2336 26-07-2015 13:45:00 21.6 C 49 % 10.44 C
2337 26-07-2015 13:50:00 22.1 C 42 % 8.6 C
2338 26-07-2015 13:55:00 21.9 C 42 % 8.42 C
2339 26-07-2015 14:00:00 21.7 C 44 % 8.92 C
2340 26-07-2015 14:05:00 21.7 C 45 % 9.26 C
2341 26-07-2015 14:10:00 22.1 C 42 % 8.6 C
2342 26-07-2015 14:15:00 22.1 C 42 % 8.6 C
2343 26-07-2015 14:20:00 21.8 C 41 % 7.97 C
2344 26-07-2015 14:25:00 21.7 C 45 % 9.26 C
2345 26-07-2015 14:30:00 21.8 C 43 % 8.67 C
2346 26-07-2015 14:35:00 21.8 C 45 % 9.35 C
2347 26-07-2015 14:40:00 21.9 C 46 % 9.77 C
2348 26-07-2015 14:45:00 22.3 C 43 % 9.13 C
2349 26-07-2015 14:50:00 22.7 C 42 % 9.14 C
2350 26-07-2015 14:55:00 23.1 C 41 % 9.14 C
Sensor: Nr:Datum:Temp:Feuchte:Taupunkt:
Aussen-T/F 2351 26-07-2015 15:00:00 23.2 C 41 % 9.23 C
2352 26-07-2015 15:05:00 23.1 C 42 % 9.5 C
2353 26-07-2015 15:10:00 23.1 C 40 % 8.77 C
2354 26-07-2015 15:15:00 23 C 41 % 9.05 C
2355 26-07-2015 15:20:00 22.9 C 43 % 9.67 C
2356 26-07-2015 15:25:00 23.4 C 40 % 9.04 C
2357 26-07-2015 15:30:00 23.7 C 38 % 8.55 C
2358 26-07-2015 15:35:00 23.7 C 38 % 8.55 C
2359 26-07-2015 15:40:00 23.6 C 37 % 8.07 C
2360 26-07-2015 15:45:00 23.3 C 37 % 7.8 C
2361 26-07-2015 15:50:00 23.2 C 38 % 8.11 C
2362 26-07-2015 15:55:00 23.6 C 38 % 8.46 C
2363 26-07-2015 16:00:00 23.8 C 37 % 8.25 C
2364 26-07-2015 16:05:00 23.7 C 37 % 8.16 C
2365 26-07-2015 16:10:00 23.4 C 37 % 7.89 C
2366 26-07-2015 16:15:00 23.3 C 40 % 8.95 C
2367 26-07-2015 16:20:00 23.3 C 39 % 8.58 C
2368 26-07-2015 16:25:00 23.3 C 41 % 9.32 C
2369 26-07-2015 16:30:00 23.3 C 39 % 8.58 C
2370 26-07-2015 16:35:00 23.4 C 36 % 7.49 C
2371 26-07-2015 16:40:00 23.3 C 38 % 8.19 C
2372 26-07-2015 16:45:00 23.1 C 39 % 8.4 C
2373 26-07-2015 16:50:00 22.8 C 39 % 8.13 C
2374 26-07-2015 16:55:00 22.5 C 41 % 8.6 C
2375 26-07-2015 17:00:00 22.4 C 40 % 8.15 C
Sensor: Nr:Datum:Temp:Feuchte:Taupunkt:
Aussen-T/F 2376 26-07-2015 17:05:00 22.4 C 40 % 8.15 C
2377 26-07-2015 17:10:00 22.3 C 42 % 8.78 C
2378 26-07-2015 17:15:00 22.3 C 42 % 8.78 C
2379 26-07-2015 17:20:00 22.2 C 39 % 7.6 C
2380 26-07-2015 17:25:00 22.1 C 40 % 7.88 C
2381 26-07-2015 17:30:00 21.9 C 40 % 7.7 C
2382 26-07-2015 17:35:00 21.8 C 42 % 8.33 C
2383 26-07-2015 17:40:00 21.6 C 50 % 10.74 C
2384 26-07-2015 17:45:00 21.4 C 54 % 11.71 C
2385 26-07-2015 17:50:00 21.1 C 49 % 9.98 C
2386 26-07-2015 17:55:00 20.7 C 61 % 12.91 C
2387 26-07-2015 18:00:00 20.2 C 62 % 12.69 C
2388 26-07-2015 18:05:00 19.7 C 67 % 13.4 C
2389 26-07-2015 18:10:00 19.2 C 69 % 13.38 C
2390 26-07-2015 18:15:00 18.7 C 72 % 13.55 C
2391 26-07-2015 18:20:00 18.3 C 73 % 13.38 C
2392 26-07-2015 18:25:00 17.8 C 75 % 13.31 C
2393 26-07-2015 18:30:00 17.5 C 76 % 13.23 C
2394 26-07-2015 18:35:00 17.2 C 77 % 13.14 C
2395 26-07-2015 18:40:00 16.8 C 80 % 13.33 C
2396 26-07-2015 18:45:00 16.6 C 82 % 13.52 C
2397 26-07-2015 18:50:00 16.3 C 84 % 13.59 C
2398 26-07-2015 18:55:00 16.2 C 84 % 13.5 C
2399 26-07-2015 19:00:00 16.1 C 84 % 13.4 C
2400 26-07-2015 19:05:00 15.8 C 85 % 13.28 C
Sensor: Nr:Datum:Temp:Feuchte:Taupunkt:
Aussen-T/F 2401 26-07-2015 19:10:00 15.7 C 85 % 13.19 C
2402 26-07-2015 19:15:00 15.5 C 87 % 13.35 C
2403 26-07-2015 19:20:00 15.3 C 88 % 13.33 C
2404 26-07-2015 19:25:00 15.2 C 89 % 13.4 C
2405 26-07-2015 19:30:00 15.1 C 90 % 13.47 C
2406 26-07-2015 19:35:00 15 C 90 % 13.37 C
2407 26-07-2015 19:40:00 14.9 C 91 % 13.44 C
2408 26-07-2015 19:45:00 14.8 C 92 % 13.51 C
2409 26-07-2015 19:50:00 14.7 C 91 % 13.25 C
2410 26-07-2015 19:55:00 14.6 C 92 % 13.32 C
2411 26-07-2015 20:00:00 14.5 C 92 % 13.22 C
2412 26-07-2015 20:05:00 14.3 C 92 % 13.02 C
2413 26-07-2015 20:10:00 14.2 C 92 % 12.92 C
2414 26-07-2015 20:15:00 14.2 C 93 % 13.08 C
2415 26-07-2015 20:20:00 14.2 C 93 % 13.08 C
2416 26-07-2015 20:25:00 14.1 C 93 % 12.99 C
2417 26-07-2015 20:30:00 14.1 C 93 % 12.99 C
2418 26-07-2015 22:45:00 13.6 C 95 % 12.81 C
2419 26-07-2015 22:50:00 13.5 C 95 % 12.72 C
2420 26-07-2015 22:55:00 13.5 C 95 % 12.72 C
2421 26-07-2015 23:00:00 13.5 C 95 % 12.72 C
2422 26-07-2015 23:05:00 13.4 C 95 % 12.62 C
2423 26-07-2015 23:10:00 13.4 C 96 % 12.78 C
2424 26-07-2015 23:15:00 13.4 C 96 % 12.78 C
2425 26-07-2015 23:20:00 13.3 C 96 % 12.68 C
Sensor: Nr:Datum:Temp:Feuchte:Taupunkt:
Aussen-T/F 2426 26-07-2015 23:25:00 13.3 C 96 % 12.68 C
2427 26-07-2015 23:30:00 13.3 C 96 % 12.68 C
2428 26-07-2015 23:35:00 13.3 C 96 % 12.68 C
2429 27-07-2015 00:05:00 13.3 C 100 % 13.3 C
2430 27-07-2015 00:10:00 13.3 C 96 % 12.68 C
2431 27-07-2015 00:15:00 13.3 C 96 % 12.68 C
2432 27-07-2015 00:20:00 13.3 C 96 % 12.68 C
2433 27-07-2015 00:25:00 13.3 C 96 % 12.68 C
2434 27-07-2015 00:30:00 13.3 C 96 % 12.68 C
2435 27-07-2015 00:35:00 13.3 C 96 % 12.68 C
2436 27-07-2015 00:40:00 13.3 C 96 % 12.68 C
2437 27-07-2015 00:45:00 13.2 C 96 % 12.58 C
2438 27-07-2015 00:50:00 13.2 C 96 % 12.58 C
2439 27-07-2015 00:55:00 13.2 C 96 % 12.58 C
2440 27-07-2015 01:50:00 12.8 C 100 % 12.8 C
2441 27-07-2015 01:55:00 12.8 C 96 % 12.18 C
2442 27-07-2015 02:00:00 12.8 C 96 % 12.18 C
2443 27-07-2015 02:05:00 12.8 C 96 % 12.18 C
2444 27-07-2015 02:10:00 12.8 C 96 % 12.18 C
2445 27-07-2015 02:15:00 12.8 C 96 % 12.18 C
2446 27-07-2015 02:20:00 12.7 C 96 % 12.08 C
2447 27-07-2015 02:25:00 12.7 C 96 % 12.08 C
2448 27-07-2015 02:30:00 12.7 C 96 % 12.08 C
2449 27-07-2015 02:35:00 12.8 C 96 % 12.18 C
2450 27-07-2015 02:40:00 12.8 C 96 % 12.18 C
Sensor: Nr:Datum:Temp:Feuchte:Taupunkt:
Aussen-T/F 2451 27-07-2015 02:45:00 12.8 C 96 % 12.18 C
2452 27-07-2015 02:50:00 12.8 C 96 % 12.18 C
2453 27-07-2015 02:55:00 12.7 C 96 % 12.08 C
2454 27-07-2015 03:00:00 12.7 C 96 % 12.08 C
2455 27-07-2015 04:05:00 13.7 C 96 % 13.07 C
2456 27-07-2015 04:10:00 13.8 C 96 % 13.17 C
2457 27-07-2015 04:15:00 13.8 C 96 % 13.17 C
2458 27-07-2015 04:20:00 13.8 C 96 % 13.17 C
2459 27-07-2015 04:25:00 13.9 C 96 % 13.27 C
2460 27-07-2015 04:30:00 13.9 C 96 % 13.27 C
2461 27-07-2015 04:35:00 13.9 C 96 % 13.27 C
2462 27-07-2015 04:40:00 14 C 96 % 13.37 C
2463 27-07-2015 04:45:00 14.1 C 96 % 13.47 C
2464 27-07-2015 04:50:00 14.1 C 96 % 13.47 C
2465 27-07-2015 04:55:00 14.2 C 96 % 13.57 C
2466 27-07-2015 05:00:00 14.2 C 96 % 13.57 C
2467 27-07-2015 05:05:00 14.2 C 96 % 13.57 C
2468 27-07-2015 05:10:00 14.2 C 96 % 13.57 C
2469 27-07-2015 05:15:00 14.2 C 96 % 13.57 C
2470 27-07-2015 05:20:00 14.3 C 96 % 13.67 C
2471 27-07-2015 05:25:00 14.2 C 96 % 13.57 C
2472 27-07-2015 05:30:00 14.2 C 96 % 13.57 C
2473 27-07-2015 05:35:00 14.2 C 96 % 13.57 C
2474 27-07-2015 05:40:00 14.2 C 96 % 13.57 C
2475 27-07-2015 05:45:00 14.2 C 96 % 13.57 C
Sensor: Nr:Datum:Temp:Feuchte:Taupunkt:
Aussen-T/F 2476 27-07-2015 05:50:00 14.3 C 96 % 13.67 C
2477 27-07-2015 05:55:00 14.3 C 96 % 13.67 C
2478 27-07-2015 06:00:00 14.3 C 96 % 13.67 C
2479 27-07-2015 06:05:00 14.4 C 96 % 13.77 C
2480 27-07-2015 06:10:00 14.5 C 97 % 14.03 C
2481 27-07-2015 06:15:00 14.6 C 97 % 14.13 C
2482 27-07-2015 06:20:00 14.8 C 97 % 14.33 C
2483 27-07-2015 06:25:00 14.8 C 97 % 14.33 C
2484 27-07-2015 06:30:00 14.9 C 97 % 14.43 C
2485 27-07-2015 06:35:00 14.9 C 96 % 14.27 C
2486 27-07-2015 06:40:00 15 C 96 % 14.37 C
2487 27-07-2015 06:45:00 15.1 C 96 % 14.47 C
2488 27-07-2015 06:50:00 15.1 C 96 % 14.47 C
2489 27-07-2015 06:55:00 15.2 C 96 % 14.57 C
2490 27-07-2015 07:00:00 15.2 C 96 % 14.57 C
2491 27-07-2015 07:05:00 15.2 C 96 % 14.57 C
2492 27-07-2015 07:10:00 15.3 C 96 % 14.67 C
2493 27-07-2015 07:15:00 15.3 C 96 % 14.67 C
2494 27-07-2015 07:20:00 15.4 C 96 % 14.77 C
2495 27-07-2015 07:25:00 15.4 C 96 % 14.77 C
2496 27-07-2015 07:30:00 15.6 C 95 % 14.8 C
2497 27-07-2015 07:35:00 15.7 C 95 % 14.9 C
2498 27-07-2015 07:40:00 15.8 C 95 % 15 C
2499 27-07-2015 07:45:00 15.9 C 95 % 15.1 C
2500 27-07-2015 07:50:00 15.9 C 95 % 15.1 C
Sensor: Nr:Datum:Temp:Feuchte:Taupunkt:
Aussen-T/F 2501 27-07-2015 07:55:00 15.9 C 95 % 15.1 C
2502 27-07-2015 08:00:00 15.9 C 95 % 15.1 C
2503 27-07-2015 08:05:00 15.9 C 95 % 15.1 C
2504 27-07-2015 08:10:00 15.8 C 95 % 15 C
2505 27-07-2015 08:15:00 15.8 C 95 % 15 C
2506 27-07-2015 08:20:00 15.8 C 95 % 15 C
2507 27-07-2015 08:25:00 15.8 C 95 % 15 C
2508 27-07-2015 08:30:00 15.9 C 95 % 15.1 C
2509 27-07-2015 08:35:00 15.9 C 95 % 15.1 C
2510 27-07-2015 08:40:00 15.9 C 95 % 15.1 C
2511 27-07-2015 08:45:00 16.1 C 95 % 15.3 C
2512 27-07-2015 08:50:00 16.1 C 95 % 15.3 C
2513 27-07-2015 08:55:00 16.2 C 95 % 15.4 C
2514 27-07-2015 09:00:00 16.2 C 95 % 15.4 C
2515 27-07-2015 09:05:00 16.2 C 94 % 15.23 C
2516 27-07-2015 09:10:00 16.2 C 94 % 15.23 C
2517 27-07-2015 09:15:00 16.1 C 93 % 14.97 C
2518 27-07-2015 09:20:00 16.1 C 93 % 14.97 C
2519 27-07-2015 09:25:00 16.1 C 94 % 15.13 C
2520 27-07-2015 09:30:00 16.1 C 94 % 15.13 C
2521 27-07-2015 09:35:00 16 C 93 % 14.87 C
2522 27-07-2015 09:40:00 16.1 C 93 % 14.97 C
2523 27-07-2015 09:45:00 16.3 C 94 % 15.33 C
2524 27-07-2015 09:50:00 16.4 C 92 % 15.1 C
2525 27-07-2015 09:55:00 16.3 C 90 % 14.66 C
Sensor: Nr:Datum:Temp:Feuchte:Taupunkt:
Aussen-T/F 2526 27-07-2015 10:00:00 16.5 C 91 % 15.03 C
2527 27-07-2015 10:05:00 16.7 C 90 % 15.05 C
2528 27-07-2015 10:10:00 16.8 C 90 % 15.15 C
2529 27-07-2015 10:15:00 16.9 C 88 % 14.9 C
2530 27-07-2015 10:20:00 17.1 C 88 % 15.1 C
2531 27-07-2015 10:25:00 17.3 C 86 % 14.94 C
2532 27-07-2015 10:30:00 17.3 C 86 % 14.94 C
2533 27-07-2015 10:35:00 17.3 C 86 % 14.94 C
2534 27-07-2015 10:40:00 17.3 C 85 % 14.76 C
2535 27-07-2015 10:45:00 17.3 C 85 % 14.76 C
2536 27-07-2015 10:50:00 17.4 C 86 % 15.03 C
2537 27-07-2015 10:55:00 17.5 C 84 % 14.77 C
2538 27-07-2015 11:00:00 17.7 C 84 % 14.96 C
2539 27-07-2015 11:05:00 17.9 C 83 % 14.97 C
2540 27-07-2015 11:10:00 18 C 81 % 14.69 C
2541 27-07-2015 11:15:00 18.2 C 81 % 14.89 C
2542 27-07-2015 11:20:00 18.3 C 79 % 14.6 C
2543 27-07-2015 11:25:00 18.4 C 81 % 15.08 C
2544 27-07-2015 11:30:00 18.6 C 79 % 14.89 C
2545 27-07-2015 11:35:00 18.8 C 79 % 15.08 C
2546 27-07-2015 11:40:00 18.9 C 78 % 14.98 C
2547 27-07-2015 11:45:00 18.9 C 76 % 14.58 C
2548 27-07-2015 11:50:00 18.8 C 77 % 14.68 C
2549 27-07-2015 11:55:00 18.4 C 79 % 14.69 C
2550 27-07-2015 12:00:00 18.2 C 80 % 14.69 C
Sensor: Nr:Datum:Temp:Feuchte:Taupunkt:
Aussen-T/F 2551 27-07-2015 12:05:00 18.2 C 79 % 14.5 C
2552 27-07-2015 12:10:00 17.9 C 79 % 14.21 C
2553 27-07-2015 12:15:00 17.7 C 83 % 14.78 C
2554 27-07-2015 12:20:00 17.4 C 83 % 14.48 C
2555 27-07-2015 12:25:00 17.6 C 84 % 14.87 C
2556 27-07-2015 12:30:00 17.9 C 83 % 14.97 C
2557 27-07-2015 12:35:00 18.2 C 81 % 14.89 C
2558 27-07-2015 12:40:00 18.3 C 79 % 14.6 C
2559 27-07-2015 12:45:00 18.3 C 79 % 14.6 C
2560 27-07-2015 12:50:00 18.4 C 79 % 14.69 C
2561 27-07-2015 12:55:00 18.4 C 80 % 14.89 C
2562 27-07-2015 13:00:00 18.7 C 79 % 14.99 C
2563 27-07-2015 13:05:00 18.9 C 78 % 14.98 C
2564 27-07-2015 13:10:00 19.1 C 78 % 15.18 C
2565 27-07-2015 13:15:00 19.2 C 77 % 15.07 C
2566 27-07-2015 13:20:00 19.3 C 77 % 15.17 C
2567 27-07-2015 13:25:00 19.1 C 76 % 14.77 C
2568 27-07-2015 13:30:00 19.2 C 75 % 14.66 C
2569 27-07-2015 13:35:00 19.2 C 75 % 14.66 C
2570 27-07-2015 13:40:00 19.2 C 74 % 14.46 C
2571 27-07-2015 13:45:00 19.3 C 75 % 14.76 C
2572 27-07-2015 13:50:00 19.3 C 75 % 14.76 C
2573 27-07-2015 13:55:00 19.3 C 75 % 14.76 C
2574 27-07-2015 14:00:00 19.1 C 75 % 14.57 C
2575 27-07-2015 14:05:00 18.8 C 78 % 14.88 C
Sensor: Nr:Datum:Temp:Feuchte:Taupunkt:
Aussen-T/F 2576 27-07-2015 14:10:00 18.3 C 81 % 14.98 C
2577 27-07-2015 14:15:00 17.9 C 81 % 14.59 C
2578 27-07-2015 14:20:00 18 C 82 % 14.88 C
2579 27-07-2015 14:25:00 18.2 C 81 % 14.89 C
2580 27-07-2015 14:30:00 18.3 C 80 % 14.79 C
2581 27-07-2015 14:35:00 18.7 C 78 % 14.79 C
2582 27-07-2015 14:40:00 18.8 C 78 % 14.88 C
2583 27-07-2015 14:45:00 19.1 C 76 % 14.77 C
2584 27-07-2015 14:50:00 19.3 C 77 % 15.17 C
2585 27-07-2015 14:55:00 19.7 C 74 % 14.94 C
2586 27-07-2015 15:00:00 20.1 C 71 % 14.68 C
2587 27-07-2015 15:05:00 20.3 C 72 % 15.09 C
2588 27-07-2015 15:10:00 20.4 C 70 % 14.75 C
2589 27-07-2015 15:15:00 20.4 C 70 % 14.75 C
2590 27-07-2015 15:20:00 20.4 C 68 % 14.3 C
2591 27-07-2015 15:25:00 20.3 C 68 % 14.2 C
2592 27-07-2015 15:30:00 20.2 C 68 % 14.11 C
2593 27-07-2015 15:35:00 19.9 C 72 % 14.7 C
2594 27-07-2015 15:40:00 20 C 72 % 14.8 C
2595 27-07-2015 15:45:00 20.2 C 71 % 14.78 C
2596 27-07-2015 15:50:00 20.1 C 71 % 14.68 C
2597 27-07-2015 15:55:00 19.9 C 70 % 14.27 C
2598 27-07-2015 16:00:00 19.9 C 71 % 14.49 C
2599 27-07-2015 16:05:00 19.9 C 71 % 14.49 C
2600 27-07-2015 16:10:00 20.1 C 71 % 14.68 C
Sensor: Nr:Datum:Temp:Feuchte:Taupunkt:
Aussen-T/F 2601 27-07-2015 16:15:00 20.7 C 70 % 15.03 C
2602 27-07-2015 16:20:00 21.1 C 68 % 14.97 C
2603 27-07-2015 16:25:00 20.9 C 69 % 15 C
2604 27-07-2015 16:30:00 20.8 C 68 % 14.68 C
2605 27-07-2015 16:35:00 20.6 C 69 % 14.71 C
2606 27-07-2015 16:40:00 20.7 C 69 % 14.81 C
2607 27-07-2015 16:45:00 21 C 68 % 14.87 C
2608 27-07-2015 16:50:00 21 C 69 % 15.1 C
2609 27-07-2015 16:55:00 20.9 C 68 % 14.77 C
2610 27-07-2015 17:00:00 20.5 C 69 % 14.62 C
2611 27-07-2015 17:05:00 20.1 C 71 % 14.68 C
2612 27-07-2015 17:10:00 19.9 C 72 % 14.7 C
2613 27-07-2015 17:15:00 20.2 C 72 % 14.99 C
2614 27-07-2015 17:20:00 20.8 C 72 % 15.57 C
2615 27-07-2015 17:25:00 21.3 C 69 % 15.38 C
2616 27-07-2015 17:30:00 21.2 C 69 % 15.29 C
2617 27-07-2015 17:35:00 20.8 C 69 % 14.91 C
2618 27-07-2015 17:40:00 20.4 C 69 % 14.52 C
2619 27-07-2015 17:45:00 20.4 C 69 % 14.52 C
2620 27-07-2015 17:50:00 20.3 C 70 % 14.65 C
2621 27-07-2015 17:55:00 20.2 C 72 % 14.99 C
2622 27-07-2015 18:00:00 20 C 75 % 15.43 C
2623 27-07-2015 18:05:00 19.8 C 76 % 15.45 C
2624 27-07-2015 18:10:00 19.7 C 78 % 15.76 C
2625 27-07-2015 18:15:00 20 C 75 % 15.43 C
Sensor: Nr:Datum:Temp:Feuchte:Taupunkt:
Aussen-T/F 2626 27-07-2015 18:20:00 20.2 C 74 % 15.42 C
2627 27-07-2015 18:25:00 20.3 C 74 % 15.51 C
2628 27-07-2015 18:30:00 20.4 C 74 % 15.61 C
2629 27-07-2015 18:35:00 20.7 C 70 % 15.03 C
2630 27-07-2015 18:40:00 21.4 C 67 % 15.02 C
2631 27-07-2015 18:45:00 22.1 C 65 % 15.21 C
2632 27-07-2015 18:50:00 22.3 C 61 % 14.42 C
2633 27-07-2015 18:55:00 22.2 C 61 % 14.32 C
2634 27-07-2015 19:00:00 22.1 C 62 % 14.48 C
2635 27-07-2015 19:05:00 22.2 C 62 % 14.58 C
2636 27-07-2015 19:10:00 21.6 C 62 % 14.01 C
2637 27-07-2015 19:15:00 21 C 64 % 13.93 C
2638 27-07-2015 19:20:00 20.6 C 65 % 13.79 C
2639 27-07-2015 19:25:00 20.4 C 67 % 14.07 C
2640 27-07-2015 19:30:00 20.4 C 67 % 14.07 C
2641 27-07-2015 19:35:00 20.4 C 66 % 13.84 C
2642 27-07-2015 19:40:00 20.5 C 66 % 13.93 C
2643 27-07-2015 19:45:00 20.5 C 66 % 13.93 C
2644 27-07-2015 19:50:00 20.6 C 66 % 14.03 C
2645 27-07-2015 19:55:00 20.5 C 66 % 13.93 C
2646 27-07-2015 20:00:00 20.4 C 66 % 13.84 C
2647 27-07-2015 20:05:00 20.4 C 66 % 13.84 C
2648 27-07-2015 20:10:00 20.4 C 65 % 13.6 C
2649 27-07-2015 20:15:00 20.4 C 66 % 13.84 C
2650 27-07-2015 20:20:00 20.4 C 67 % 14.07 C
Sensor: Nr:Datum:Temp:Feuchte:Taupunkt:
Aussen-T/F 2651 27-07-2015 20:25:00 20.2 C 68 % 14.11 C
2652 27-07-2015 20:30:00 20.1 C 68 % 14.01 C
2653 27-07-2015 20:35:00 19.9 C 68 % 13.82 C
2654 27-07-2015 20:40:00 19.9 C 67 % 13.59 C
2655 27-07-2015 20:45:00 19.9 C 67 % 13.59 C
2656 27-07-2015 20:50:00 19.9 C 67 % 13.59 C
2657 27-07-2015 20:55:00 19.9 C 67 % 13.59 C
2658 27-07-2015 21:00:00 19.9 C 67 % 13.59 C
2659 27-07-2015 21:05:00 19.9 C 67 % 13.59 C
2660 27-07-2015 21:10:00 19.8 C 68 % 13.73 C
2661 27-07-2015 21:15:00 19.7 C 67 % 13.4 C
2662 27-07-2015 21:20:00 19.6 C 68 % 13.54 C
2663 27-07-2015 21:25:00 19.6 C 68 % 13.54 C
2664 27-07-2015 21:30:00 19.7 C 67 % 13.4 C
2665 27-07-2015 21:35:00 19.7 C 67 % 13.4 C
2666 27-07-2015 21:40:00 19.7 C 67 % 13.4 C
2667 27-07-2015 21:45:00 19.7 C 67 % 13.4 C
2668 27-07-2015 21:50:00 19.6 C 68 % 13.54 C
2669 27-07-2015 21:55:00 19.5 C 67 % 13.21 C
2670 27-07-2015 22:00:00 19.6 C 67 % 13.31 C
2671 27-07-2015 22:05:00 19.6 C 67 % 13.31 C
2672 27-07-2015 22:10:00 19.4 C 67 % 13.12 C
2673 27-07-2015 22:15:00 19.3 C 69 % 13.47 C
2674 27-07-2015 22:20:00 19.1 C 68 % 13.06 C
2675 27-07-2015 22:25:00 18.9 C 70 % 13.31 C
Sensor: Nr:Datum:Temp:Feuchte:Taupunkt:
Aussen-T/F 2676 27-07-2015 22:30:00 18.6 C 72 % 13.46 C
2677 27-07-2015 22:35:00 18.3 C 72 % 13.17 C
2678 27-07-2015 22:40:00 18.3 C 70 % 12.74 C
2679 27-07-2015 22:45:00 18.6 C 69 % 12.8 C
2680 27-07-2015 22:50:00 18.7 C 69 % 12.9 C
2681 27-07-2015 22:55:00 18.9 C 68 % 12.87 C
2682 27-07-2015 23:00:00 19.1 C 68 % 13.06 C
2683 27-07-2015 23:05:00 19.2 C 68 % 13.15 C
2684 27-07-2015 23:10:00 19.1 C 68 % 13.06 C
2685 27-07-2015 23:15:00 19.1 C 69 % 13.28 C
2686 27-07-2015 23:20:00 18.9 C 69 % 13.09 C
2687 27-07-2015 23:25:00 19 C 68 % 12.96 C
2688 27-07-2015 23:30:00 19.1 C 71 % 13.72 C
2689 27-07-2015 23:35:00 18.8 C 73 % 13.86 C
2690 27-07-2015 23:40:00 18.4 C 73 % 13.48 C
2691 27-07-2015 23:45:00 18.3 C 73 % 13.38 C
2692 27-07-2015 23:50:00 17.9 C 74 % 13.2 C
2693 27-07-2015 23:55:00 17.4 C 76 % 13.13 C
2694 28-07-2015 00:00:00 17.2 C 77 % 13.14 C
2695 28-07-2015 00:05:00 16.9 C 78 % 13.04 C
2696 28-07-2015 00:10:00 16.8 C 78 % 12.94 C
2697 28-07-2015 00:15:00 16.8 C 80 % 13.33 C
2698 28-07-2015 00:20:00 16.7 C 80 % 13.23 C
2699 28-07-2015 00:25:00 16.7 C 80 % 13.23 C
2700 28-07-2015 00:30:00 16.7 C 80 % 13.23 C
Sensor: Nr:Datum:Temp:Feuchte:Taupunkt:
Aussen-T/F 2701 28-07-2015 00:35:00 16.7 C 80 % 13.23 C
2702 28-07-2015 00:40:00 16.7 C 81 % 13.43 C
2703 28-07-2015 00:45:00 16.7 C 81 % 13.43 C
2704 28-07-2015 00:50:00 16.7 C 81 % 13.43 C
2705 28-07-2015 00:55:00 16.6 C 81 % 13.33 C
2706 28-07-2015 01:00:00 16.4 C 82 % 13.32 C
2707 28-07-2015 01:05:00 16.3 C 82 % 13.22 C
2708 28-07-2015 01:10:00 16.2 C 83 % 13.31 C
2709 28-07-2015 01:15:00 16.1 C 83 % 13.21 C
2710 28-07-2015 01:20:00 16.1 C 84 % 13.4 C
2711 28-07-2015 01:25:00 15.9 C 84 % 13.2 C
2712 28-07-2015 01:30:00 16 C 83 % 13.12 C
2713 28-07-2015 01:35:00 16 C 85 % 13.48 C
2714 28-07-2015 01:40:00 16 C 85 % 13.48 C
2715 28-07-2015 01:45:00 15.9 C 86 % 13.56 C
2716 28-07-2015 01:50:00 15.9 C 86 % 13.56 C
2717 28-07-2015 01:55:00 15.8 C 87 % 13.64 C
2718 28-07-2015 02:00:00 15.8 C 87 % 13.64 C
2719 28-07-2015 02:05:00 15.7 C 87 % 13.54 C
2720 28-07-2015 02:10:00 15.7 C 87 % 13.54 C
2721 28-07-2015 02:15:00 15.7 C 87 % 13.54 C
2722 28-07-2015 02:20:00 15.7 C 87 % 13.54 C
2723 28-07-2015 02:25:00 15.7 C 88 % 13.72 C
2724 28-07-2015 02:30:00 15.6 C 88 % 13.62 C
2725 28-07-2015 02:35:00 15.6 C 88 % 13.62 C
Sensor: Nr:Datum:Temp:Feuchte:Taupunkt:
Aussen-T/F 2726 28-07-2015 02:40:00 15.6 C 87 % 13.45 C
2727 28-07-2015 02:45:00 15.6 C 87 % 13.45 C
2728 28-07-2015 02:50:00 15.6 C 82 % 12.54 C
2729 28-07-2015 02:55:00 15.7 C 78 % 11.88 C
2730 28-07-2015 03:00:00 15.9 C 74 % 11.28 C
2731 28-07-2015 03:05:00 16.1 C 73 % 11.26 C
2732 28-07-2015 03:10:00 16.1 C 72 % 11.06 C
2733 28-07-2015 03:15:00 16.1 C 72 % 11.06 C
2734 28-07-2015 03:20:00 16.1 C 73 % 11.26 C
2735 28-07-2015 03:25:00 15.9 C 74 % 11.28 C
2736 28-07-2015 03:30:00 15.7 C 75 % 11.28 C
2737 28-07-2015 03:35:00 15.4 C 76 % 11.19 C
2738 28-07-2015 03:40:00 15.3 C 77 % 11.3 C
2739 28-07-2015 03:45:00 15.1 C 78 % 11.3 C
2740 28-07-2015 03:50:00 14.9 C 78 % 11.1 C
2741 28-07-2015 03:55:00 14.8 C 78 % 11 C
2742 28-07-2015 04:00:00 14.7 C 79 % 11.1 C
2743 28-07-2015 04:05:00 14.6 C 78 % 10.81 C
2744 28-07-2015 04:10:00 14.6 C 79 % 11 C
2745 28-07-2015 04:15:00 14.6 C 79 % 11 C
2746 28-07-2015 04:20:00 14.6 C 80 % 11.19 C
2747 28-07-2015 04:25:00 14.4 C 79 % 10.81 C
2748 28-07-2015 04:30:00 14.4 C 79 % 10.81 C
2749 28-07-2015 04:35:00 14.3 C 80 % 10.9 C
2750 28-07-2015 04:40:00 14.2 C 80 % 10.8 C
Sensor: Nr:Datum:Temp:Feuchte:Taupunkt:
Aussen-T/F 2751 28-07-2015 04:45:00 14.2 C 81 % 10.99 C
2752 28-07-2015 04:50:00 14.2 C 79 % 10.61 C
2753 28-07-2015 04:55:00 14.2 C 79 % 10.61 C
2754 28-07-2015 05:00:00 14.3 C 79 % 10.71 C
2755 28-07-2015 05:05:00 14.2 C 79 % 10.61 C
2756 28-07-2015 05:10:00 14 C 80 % 10.61 C
2757 28-07-2015 05:15:00 13.9 C 80 % 10.51 C
2758 28-07-2015 05:20:00 13.8 C 80 % 10.41 C
2759 28-07-2015 05:25:00 13.9 C 79 % 10.32 C
2760 28-07-2015 05:30:00 13.9 C 79 % 10.32 C
2761 28-07-2015 05:35:00 13.9 C 79 % 10.32 C
2762 28-07-2015 05:40:00 13.7 C 79 % 10.13 C
2763 28-07-2015 05:45:00 13.7 C 81 % 10.5 C
2764 28-07-2015 05:50:00 13.6 C 79 % 10.03 C
2765 28-07-2015 05:55:00 13.6 C 77 % 9.65 C
2766 28-07-2015 06:00:00 13.7 C 78 % 9.94 C
2767 28-07-2015 06:05:00 13.7 C 77 % 9.75 C
2768 28-07-2015 06:10:00 13.6 C 78 % 9.84 C
2769 28-07-2015 06:15:00 13.5 C 78 % 9.74 C
2770 28-07-2015 06:20:00 13.7 C 78 % 9.94 C
2771 28-07-2015 06:25:00 13.8 C 78 % 10.03 C
2772 28-07-2015 06:30:00 13.8 C 78 % 10.03 C
2773 28-07-2015 06:35:00 13.8 C 78 % 10.03 C
2774 28-07-2015 06:40:00 13.8 C 79 % 10.22 C
2775 28-07-2015 06:45:00 13.8 C 79 % 10.22 C
Sensor: Nr:Datum:Temp:Feuchte:Taupunkt:
Aussen-T/F 2776 28-07-2015 06:50:00 13.7 C 79 % 10.13 C
2777 28-07-2015 06:55:00 13.7 C 80 % 10.32 C
2778 28-07-2015 07:00:00 13.7 C 80 % 10.32 C
2779 28-07-2015 07:05:00 13.7 C 80 % 10.32 C
2780 28-07-2015 07:10:00 13.8 C 79 % 10.22 C
2781 28-07-2015 07:15:00 13.9 C 79 % 10.32 C
2782 28-07-2015 07:20:00 14.1 C 78 % 10.33 C
2783 28-07-2015 07:25:00 14.2 C 78 % 10.42 C
2784 28-07-2015 07:30:00 14.3 C 77 % 10.33 C
2785 28-07-2015 07:35:00 14.3 C 77 % 10.33 C
2786 28-07-2015 07:40:00 14.4 C 77 % 10.42 C
2787 28-07-2015 07:45:00 14.5 C 76 % 10.32 C
2788 28-07-2015 07:50:00 14.6 C 76 % 10.42 C
2789 28-07-2015 07:55:00 14.7 C 76 % 10.52 C
2790 28-07-2015 08:00:00 14.7 C 75 % 10.32 C
2791 28-07-2015 08:05:00 14.8 C 75 % 10.42 C
2792 28-07-2015 08:10:00 14.8 C 75 % 10.42 C
2793 28-07-2015 08:15:00 14.9 C 75 % 10.51 C
2794 28-07-2015 08:20:00 15 C 74 % 10.41 C
2795 28-07-2015 08:25:00 15.1 C 73 % 10.3 C
2796 28-07-2015 08:30:00 15.3 C 73 % 10.49 C
2797 28-07-2015 08:35:00 15.4 C 72 % 10.38 C
2798 28-07-2015 08:40:00 15.5 C 71 % 10.27 C
2799 28-07-2015 08:45:00 15.6 C 70 % 10.15 C
2800 28-07-2015 08:50:00 15.7 C 69 % 10.03 C
Sensor: Nr:Datum:Temp:Feuchte:Taupunkt:
Aussen-T/F 2801 28-07-2015 08:55:00 15.7 C 70 % 10.25 C
2802 28-07-2015 09:00:00 15.8 C 69 % 10.13 C
2803 28-07-2015 09:05:00 15.8 C 69 % 10.13 C
2804 28-07-2015 09:10:00 15.8 C 69 % 10.13 C
2805 28-07-2015 09:15:00 15.9 C 68 % 10.01 C
2806 28-07-2015 09:20:00 16 C 68 % 10.1 C
2807 28-07-2015 09:25:00 16.1 C 68 % 10.2 C
2808 28-07-2015 09:30:00 16.2 C 66 % 9.85 C
2809 28-07-2015 09:35:00 16.4 C 66 % 10.04 C
2810 28-07-2015 09:40:00 16.6 C 64 % 9.77 C
2811 28-07-2015 09:45:00 16.7 C 64 % 9.86 C
2812 28-07-2015 09:50:00 16.7 C 63 % 9.63 C
2813 28-07-2015 09:55:00 16.7 C 63 % 9.63 C
2814 28-07-2015 10:00:00 16.8 C 63 % 9.72 C
2815 28-07-2015 10:05:00 16.9 C 62 % 9.58 C
2816 28-07-2015 10:10:00 17.1 C 62 % 9.77 C
2817 28-07-2015 10:15:00 17.2 C 62 % 9.86 C
2818 28-07-2015 10:20:00 17.4 C 61 % 9.81 C
2819 28-07-2015 10:25:00 17.6 C 62 % 10.24 C
2820 28-07-2015 10:30:00 17.8 C 60 % 9.94 C
2821 28-07-2015 10:35:00 17.8 C 60 % 9.94 C
2822 28-07-2015 10:40:00 17.9 C 61 % 10.28 C
2823 28-07-2015 10:45:00 17.9 C 60 % 10.03 C
2824 28-07-2015 10:50:00 17.8 C 61 % 10.18 C
2825 28-07-2015 10:55:00 17.8 C 60 % 9.94 C
Sensor: Nr:Datum:Temp:Feuchte:Taupunkt:
Aussen-T/F 2826 28-07-2015 11:00:00 17.7 C 61 % 10.09 C
2827 28-07-2015 11:05:00 17.8 C 60 % 9.94 C
2828 28-07-2015 11:10:00 18 C 61 % 10.37 C
2829 28-07-2015 11:15:00 18.1 C 59 % 9.97 C
2830 28-07-2015 11:20:00 18.1 C 60 % 10.22 C
2831 28-07-2015 11:25:00 18.1 C 58 % 9.71 C
2832 28-07-2015 11:30:00 17.9 C 59 % 9.78 C
2833 28-07-2015 11:35:00 17.8 C 59 % 9.69 C
2834 28-07-2015 11:40:00 18 C 59 % 9.88 C
2835 28-07-2015 11:45:00 18.2 C 58 % 9.81 C
2836 28-07-2015 11:50:00 18.3 C 58 % 9.9 C
2837 28-07-2015 11:55:00 18.3 C 57 % 9.64 C
2838 28-07-2015 12:00:00 18.2 C 57 % 9.55 C
2839 28-07-2015 12:05:00 18.3 C 57 % 9.64 C
2840 28-07-2015 12:10:00 18.4 C 57 % 9.74 C
2841 28-07-2015 12:15:00 18.5 C 56 % 9.57 C
2842 28-07-2015 12:20:00 18.6 C 55 % 9.39 C
2843 28-07-2015 12:25:00 18.8 C 55 % 9.58 C
2844 28-07-2015 12:30:00 18.8 C 55 % 9.58 C
2845 28-07-2015 12:35:00 18.7 C 55 % 9.48 C
2846 28-07-2015 12:40:00 18.9 C 55 % 9.67 C
2847 28-07-2015 12:45:00 19.1 C 52 % 9.02 C
2848 28-07-2015 12:50:00 19.1 C 53 % 9.3 C
2849 28-07-2015 12:55:00 18.8 C 54 % 9.3 C
2850 28-07-2015 13:00:00 19.2 C 55 % 9.95 C
Sensor: Nr:Datum:Temp:Feuchte:Taupunkt:
Aussen-T/F 2851 28-07-2015 13:05:00 19.3 C 54 % 9.77 C
2852 28-07-2015 13:10:00 19.6 C 53 % 9.77 C
2853 28-07-2015 13:15:00 19.4 C 50 % 8.72 C
2854 28-07-2015 13:20:00 19.3 C 51 % 8.92 C
2855 28-07-2015 13:25:00 19.8 C 50 % 9.09 C
2856 28-07-2015 13:30:00 19.7 C 48 % 8.39 C
2857 28-07-2015 13:35:00 19.5 C 49 % 8.51 C
2858 28-07-2015 13:40:00 19.6 C 49 % 8.6 C
2859 28-07-2015 13:45:00 19.8 C 48 % 8.48 C
2860 28-07-2015 13:50:00 19.8 C 49 % 8.79 C
2861 28-07-2015 13:55:00 20.1 C 47 % 8.45 C
2862 28-07-2015 14:00:00 19.9 C 47 % 8.26 C
2863 28-07-2015 14:05:00 19.7 C 49 % 8.7 C
2864 28-07-2015 14:10:00 19.6 C 49 % 8.6 C
2865 28-07-2015 14:15:00 19.7 C 49 % 8.7 C
2866 28-07-2015 14:20:00 19.8 C 49 % 8.79 C
2867 28-07-2015 14:25:00 19.8 C 48 % 8.48 C
2868 28-07-2015 14:30:00 19.8 C 47 % 8.17 C
2869 28-07-2015 14:35:00 19.8 C 48 % 8.48 C
2870 28-07-2015 14:40:00 19.7 C 48 % 8.39 C
2871 28-07-2015 14:45:00 19.7 C 48 % 8.39 C
2872 28-07-2015 14:50:00 19.7 C 47 % 8.08 C
2873 28-07-2015 14:55:00 19.8 C 46 % 7.86 C
2874 28-07-2015 15:00:00 20.3 C 47 % 8.63 C
2875 28-07-2015 15:05:00 20.6 C 47 % 8.9 C
Sensor: Nr:Datum:Temp:Feuchte:Taupunkt:
Aussen-T/F 2876 28-07-2015 15:10:00 21.1 C 43 % 8.04 C
2877 28-07-2015 15:15:00 21.5 C 43 % 8.4 C
2878 28-07-2015 15:20:00 21.7 C 43 % 8.58 C
2879 28-07-2015 15:25:00 21.7 C 43 % 8.58 C
2880 28-07-2015 15:30:00 21.8 C 43 % 8.67 C
2881 28-07-2015 15:35:00 21.4 C 43 % 8.31 C
2882 28-07-2015 15:40:00 20.9 C 44 % 8.2 C
2883 28-07-2015 15:45:00 20.6 C 46 % 8.58 C
2884 28-07-2015 15:50:00 20.3 C 45 % 7.99 C
2885 28-07-2015 15:55:00 20.3 C 47 % 8.63 C
2886 28-07-2015 16:00:00 20.4 C 46 % 8.4 C
2887 28-07-2015 16:05:00 20.4 C 45 % 8.08 C
2888 28-07-2015 16:10:00 20.3 C 46 % 8.31 C
2889 28-07-2015 16:15:00 20.2 C 46 % 8.22 C
2890 28-07-2015 16:20:00 20.1 C 47 % 8.45 C
2891 28-07-2015 16:25:00 20.1 C 47 % 8.45 C
2892 28-07-2015 16:30:00 20.1 C 47 % 8.45 C
2893 28-07-2015 16:35:00 19.9 C 47 % 8.26 C
2894 28-07-2015 16:40:00 19.8 C 46 % 7.86 C
2895 28-07-2015 16:45:00 19.7 C 48 % 8.39 C
2896 28-07-2015 16:50:00 19.7 C 48 % 8.39 C
2897 28-07-2015 16:55:00 19.7 C 48 % 8.39 C
2898 28-07-2015 17:00:00 19.7 C 48 % 8.39 C
2899 28-07-2015 17:05:00 19.7 C 48 % 8.39 C
2900 28-07-2015 17:10:00 19.7 C 48 % 8.39 C
Sensor: Nr:Datum:Temp:Feuchte:Taupunkt:
Aussen-T/F 2901 28-07-2015 17:15:00 19.7 C 48 % 8.39 C
2902 28-07-2015 17:20:00 19.6 C 49 % 8.6 C
2903 28-07-2015 17:25:00 19.6 C 49 % 8.6 C
2904 28-07-2015 17:30:00 19.5 C 49 % 8.51 C
2905 28-07-2015 17:35:00 19.4 C 50 % 8.72 C
2906 28-07-2015 17:40:00 19.3 C 49 % 8.33 C
2907 28-07-2015 17:45:00 19.3 C 50 % 8.63 C
2908 28-07-2015 17:50:00 19.2 C 51 % 8.83 C
2909 28-07-2015 17:55:00 19.2 C 51 % 8.83 C
2910 28-07-2015 18:00:00 19.3 C 52 % 9.21 C
2911 28-07-2015 18:05:00 19.3 C 50 % 8.63 C
2912 28-07-2015 18:10:00 19.2 C 51 % 8.83 C
2913 28-07-2015 18:15:00 19.2 C 51 % 8.83 C
2914 28-07-2015 18:20:00 19.1 C 50 % 8.44 C
2915 28-07-2015 18:25:00 19 C 50 % 8.35 C
2916 28-07-2015 18:30:00 18.9 C 51 % 8.55 C
2917 28-07-2015 18:35:00 18.9 C 50 % 8.26 C
2918 28-07-2015 18:40:00 18.9 C 51 % 8.55 C
2919 28-07-2015 18:45:00 18.9 C 50 % 8.26 C
2920 28-07-2015 18:50:00 18.9 C 50 % 8.26 C
2921 28-07-2015 18:55:00 18.9 C 50 % 8.26 C
2922 28-07-2015 19:00:00 18.8 C 50 % 8.17 C
2923 28-07-2015 19:05:00 18.8 C 51 % 8.46 C
2924 28-07-2015 19:10:00 18.8 C 51 % 8.46 C
2925 28-07-2015 19:15:00 18.8 C 52 % 8.75 C
Sensor: Nr:Datum:Temp:Feuchte:Taupunkt:
Aussen-T/F 2926 28-07-2015 19:20:00 18.8 C 51 % 8.46 C
2927 28-07-2015 19:25:00 18.8 C 51 % 8.46 C
2928 28-07-2015 19:30:00 18.8 C 51 % 8.46 C
2929 28-07-2015 19:35:00 18.7 C 52 % 8.65 C
2930 28-07-2015 19:40:00 18.6 C 50 % 7.98 C
2931 28-07-2015 19:45:00 18.6 C 51 % 8.27 C
2932 28-07-2015 19:50:00 18.6 C 51 % 8.27 C
2933 28-07-2015 19:55:00 18.5 C 53 % 8.75 C
2934 28-07-2015 20:00:00 18.4 C 53 % 8.66 C
2935 28-07-2015 20:05:00 18.3 C 52 % 8.28 C
2936 28-07-2015 20:10:00 18.3 C 52 % 8.28 C
2937 28-07-2015 20:15:00 18.2 C 53 % 8.47 C
2938 28-07-2015 20:20:00 18.2 C 53 % 8.47 C
2939 28-07-2015 20:25:00 18.1 C 53 % 8.38 C
2940 28-07-2015 20:30:00 18.1 C 52 % 8.1 C
2941 28-07-2015 20:35:00 18 C 52 % 8.01 C
2942 28-07-2015 20:40:00 18 C 53 % 8.29 C
2943 28-07-2015 20:45:00 18 C 53 % 8.29 C
2944 28-07-2015 20:50:00 18 C 53 % 8.29 C
2945 28-07-2015 20:55:00 18 C 53 % 8.29 C
2946 28-07-2015 21:00:00 18 C 54 % 8.56 C
2947 28-07-2015 21:05:00 17.9 C 54 % 8.47 C
2948 28-07-2015 21:10:00 17.9 C 54 % 8.47 C
2949 28-07-2015 21:15:00 17.9 C 54 % 8.47 C
2950 28-07-2015 21:20:00 17.8 C 55 % 8.65 C
Sensor: Nr:Datum:Temp:Feuchte:Taupunkt:
Aussen-T/F 2951 28-07-2015 21:25:00 17.8 C 55 % 8.65 C
2952 28-07-2015 21:30:00 17.7 C 56 % 8.82 C
2953 28-07-2015 21:35:00 17.7 C 58 % 9.34 C
2954 28-07-2015 21:40:00 17.6 C 57 % 8.99 C
2955 28-07-2015 21:45:00 17.5 C 57 % 8.9 C
2956 28-07-2015 21:50:00 17.4 C 57 % 8.8 C
2957 28-07-2015 21:55:00 17.4 C 57 % 8.8 C
2958 28-07-2015 22:00:00 17.3 C 57 % 8.71 C
2959 28-07-2015 22:05:00 17.3 C 57 % 8.71 C
2960 28-07-2015 22:10:00 17.3 C 58 % 8.97 C
2961 28-07-2015 22:15:00 17.3 C 59 % 9.22 C
2962 28-07-2015 22:20:00 17.2 C 61 % 9.62 C
2963 28-07-2015 22:25:00 16.9 C 62 % 9.58 C
2964 28-07-2015 22:30:00 16.8 C 63 % 9.72 C
2965 28-07-2015 22:35:00 16.7 C 64 % 9.86 C
2966 28-07-2015 22:40:00 16.6 C 64 % 9.77 C
2967 28-07-2015 22:45:00 16.4 C 66 % 10.04 C
2968 28-07-2015 22:50:00 16.3 C 66 % 9.94 C
2969 28-07-2015 22:55:00 16.2 C 68 % 10.29 C
2970 28-07-2015 23:00:00 16.1 C 69 % 10.42 C
2971 28-07-2015 23:05:00 15.9 C 69 % 10.23 C
2972 28-07-2015 23:10:00 15.7 C 70 % 10.25 C
2973 28-07-2015 23:15:00 15.6 C 72 % 10.57 C
2974 28-07-2015 23:20:00 15.3 C 72 % 10.29 C
2975 28-07-2015 23:25:00 15.2 C 73 % 10.4 C
Sensor: Nr:Datum:Temp:Feuchte:Taupunkt:
Aussen-T/F 2976 28-07-2015 23:30:00 15.1 C 73 % 10.3 C
2977 28-07-2015 23:35:00 14.9 C 74 % 10.31 C
2978 28-07-2015 23:40:00 14.7 C 75 % 10.32 C
2979 28-07-2015 23:45:00 14.7 C 75 % 10.32 C
2980 29-07-2015 03:20:00 14.3 C 74 % 9.73 C
2981 29-07-2015 03:25:00 14.3 C 74 % 9.73 C
2982 29-07-2015 03:30:00 14.2 C 75 % 9.84 C
2983 29-07-2015 03:35:00 14.2 C 75 % 9.84 C
2984 29-07-2015 03:40:00 14.2 C 75 % 9.84 C
2985 29-07-2015 05:10:00 12.3 C 83 % 9.5 C
2986 29-07-2015 05:15:00 12.3 C 83 % 9.5 C
2987 29-07-2015 05:20:00 12.3 C 83 % 9.5 C
2988 29-07-2015 05:25:00 12.3 C 83 % 9.5 C
2989 29-07-2015 05:30:00 12.3 C 83 % 9.5 C
2990 29-07-2015 05:35:00 12.3 C 83 % 9.5 C
2991 29-07-2015 05:40:00 12.7 C 83 % 9.89 C
2992 29-07-2015 05:45:00 12.7 C 83 % 9.89 C
2993 29-07-2015 05:50:00 12.7 C 83 % 9.89 C
2994 29-07-2015 07:50:00 13.6 C 100 % 13.6 C
2995 29-07-2015 07:55:00 13.6 C 100 % 13.6 C
2996 29-07-2015 08:00:00 13.6 C 79 % 10.03 C
2997 29-07-2015 08:05:00 13.6 C 79 % 10.03 C
2998 29-07-2015 08:10:00 13.8 C 78 % 10.03 C
2999 29-07-2015 08:15:00 13.9 C 78 % 10.13 C
3000 29-07-2015 08:20:00 14.2 C 77 % 10.23 C
Sensor: Nr:Datum:Temp:Feuchte:Taupunkt:
Aussen-T/F 3001 29-07-2015 08:25:00 14.4 C 75 % 10.03 C
3002 29-07-2015 08:30:00 14.6 C 75 % 10.22 C
3003 29-07-2015 08:35:00 14.7 C 75 % 10.32 C
3004 29-07-2015 08:40:00 14.8 C 74 % 10.22 C
3005 29-07-2015 08:45:00 15 C 74 % 10.41 C
3006 29-07-2015 08:50:00 15.1 C 72 % 10.09 C
3007 29-07-2015 08:55:00 15.1 C 72 % 10.09 C
3008 29-07-2015 09:00:00 15.2 C 71 % 9.98 C
3009 29-07-2015 09:05:00 15.2 C 71 % 9.98 C
3010 29-07-2015 09:10:00 15.2 C 70 % 9.77 C
3011 29-07-2015 09:15:00 15.3 C 70 % 9.87 C
3012 29-07-2015 09:20:00 15.4 C 70 % 9.96 C
3013 29-07-2015 09:25:00 15.4 C 69 % 9.75 C
3014 29-07-2015 09:30:00 15.6 C 68 % 9.72 C
3015 29-07-2015 09:35:00 15.6 C 67 % 9.5 C
3016 29-07-2015 09:40:00 15.7 C 68 % 9.82 C
3017 29-07-2015 09:45:00 15.7 C 67 % 9.6 C
3018 29-07-2015 09:50:00 15.9 C 67 % 9.79 C
3019 29-07-2015 09:55:00 16 C 66 % 9.66 C
3020 29-07-2015 10:00:00 16.2 C 64 % 9.39 C
3021 29-07-2015 10:05:00 16.3 C 65 % 9.71 C
3022 29-07-2015 10:10:00 16.4 C 65 % 9.81 C
3023 29-07-2015 10:15:00 16.7 C 63 % 9.63 C
3024 29-07-2015 10:20:00 16.8 C 61 % 9.24 C
3025 29-07-2015 10:25:00 16.8 C 61 % 9.24 C
Sensor: Nr:Datum:Temp:Feuchte:Taupunkt:
Aussen-T/F 3026 29-07-2015 10:30:00 16.9 C 62 % 9.58 C
3027 29-07-2015 10:35:00 17.2 C 60 % 9.37 C
3028 29-07-2015 10:40:00 17.4 C 58 % 9.06 C
3029 29-07-2015 10:45:00 17.4 C 57 % 8.8 C
3030 29-07-2015 10:50:00 17.6 C 54 % 8.19 C
3031 29-07-2015 10:55:00 17.7 C 54 % 8.28 C
3032 29-07-2015 11:00:00 17.9 C 55 % 8.74 C
3033 29-07-2015 11:05:00 18.3 C 55 % 9.11 C
3034 29-07-2015 11:10:00 18.4 C 55 % 9.2 C
3035 29-07-2015 11:15:00 18.6 C 51 % 8.27 C
3036 29-07-2015 11:20:00 18.6 C 52 % 8.56 C
3037 29-07-2015 11:25:00 18.7 C 50 % 8.08 C
3038 29-07-2015 11:30:00 18.9 C 49 % 7.96 C
3039 29-07-2015 11:35:00 18.8 C 48 % 7.57 C
3040 29-07-2015 11:40:00 18.4 C 47 % 6.9 C
3041 29-07-2015 11:45:00 18.2 C 48 % 7.02 C
3042 29-07-2015 11:50:00 18.3 C 47 % 6.8 C
3043 29-07-2015 11:55:00 18.6 C 47 % 7.08 C
3044 29-07-2015 12:00:00 18.9 C 44 % 6.39 C
3045 29-07-2015 12:05:00 19.1 C 43 % 6.24 C
3046 29-07-2015 12:10:00 19.1 C 44 % 6.57 C
3047 29-07-2015 12:15:00 19.3 C 44 % 6.75 C
3048 29-07-2015 12:20:00 19.4 C 44 % 6.84 C
3049 29-07-2015 12:25:00 19.6 C 44 % 7.03 C
3050 29-07-2015 12:30:00 19.7 C 43 % 6.78 C
Sensor: Nr:Datum:Temp:Feuchte:Taupunkt:
Aussen-T/F 3051 29-07-2015 12:35:00 20 C 44 % 7.39 C
3052 29-07-2015 12:40:00 20.3 C 43 % 7.32 C
3053 29-07-2015 12:45:00 20.4 C 41 % 6.72 C
3054 29-07-2015 12:50:00 20.3 C 40 % 6.27 C
3055 29-07-2015 12:55:00 20 C 41 % 6.36 C
3056 29-07-2015 13:00:00 19.8 C 42 % 6.53 C
3057 29-07-2015 13:05:00 19.7 C 42 % 6.44 C
3058 29-07-2015 13:10:00 19.7 C 43 % 6.78 C
3059 29-07-2015 13:15:00 20.1 C 43 % 7.14 C
3060 29-07-2015 13:20:00 20.1 C 42 % 6.8 C
3061 29-07-2015 13:25:00 19.8 C 44 % 7.21 C
3062 29-07-2015 13:30:00 20.4 C 44 % 7.75 C
3063 29-07-2015 13:35:00 20.7 C 41 % 6.99 C
3064 29-07-2015 13:40:00 20.3 C 42 % 6.98 C
3065 29-07-2015 13:45:00 20.2 C 42 % 6.89 C
3066 29-07-2015 13:50:00 20.4 C 43 % 7.41 C
3067 29-07-2015 13:55:00 20.2 C 42 % 6.89 C
3068 29-07-2015 14:00:00 19.8 C 43 % 6.87 C
3069 29-07-2015 14:05:00 19.7 C 44 % 7.12 C
3070 29-07-2015 14:10:00 20.3 C 45 % 7.99 C
3071 29-07-2015 14:15:00 20.9 C 41 % 7.17 C
3072 29-07-2015 14:20:00 21.1 C 39 % 6.62 C
3073 29-07-2015 14:25:00 21 C 40 % 6.9 C
3074 29-07-2015 14:30:00 21.3 C 40 % 7.16 C
3075 29-07-2015 14:35:00 21.3 C 39 % 6.8 C
Sensor: Nr:Datum:Temp:Feuchte:Taupunkt:
Aussen-T/F 3076 29-07-2015 14:40:00 20.9 C 39 % 6.44 C
3077 29-07-2015 14:45:00 20.4 C 40 % 6.36 C
3078 29-07-2015 14:50:00 20.6 C 39 % 6.17 C
3079 29-07-2015 14:55:00 21 C 40 % 6.9 C
3080 29-07-2015 15:00:00 21.5 C 38 % 6.6 C
3081 29-07-2015 15:05:00 21.7 C 36 % 5.99 C
3082 29-07-2015 15:10:00 21.9 C 36 % 6.17 C
3083 29-07-2015 15:15:00 21.6 C 35 % 5.5 C
3084 29-07-2015 15:20:00 20.8 C 38 % 5.97 C
3085 29-07-2015 15:25:00 20.6 C 40 % 6.54 C
3086 29-07-2015 15:30:00 20.8 C 41 % 7.08 C
3087 29-07-2015 15:35:00 21.3 C 40 % 7.16 C
3088 29-07-2015 15:40:00 21.8 C 37 % 6.48 C
3089 29-07-2015 15:45:00 21.6 C 37 % 6.3 C
3090 29-07-2015 15:50:00 21 C 40 % 6.9 C
3091 29-07-2015 15:55:00 21.2 C 40 % 7.08 C
3092 29-07-2015 16:00:00 21.4 C 39 % 6.89 C
3093 29-07-2015 16:05:00 21.6 C 38 % 6.69 C
3094 29-07-2015 16:10:00 21.8 C 37 % 6.48 C
3095 29-07-2015 16:15:00 21.8 C 38 % 6.86 C
3096 29-07-2015 16:20:00 22.1 C 39 % 7.51 C
3097 29-07-2015 16:25:00 21.8 C 38 % 6.86 C
3098 29-07-2015 16:30:00 21.6 C 37 % 6.3 C
3099 29-07-2015 16:35:00 21.4 C 37 % 6.12 C
3100 29-07-2015 16:40:00 21 C 38 % 6.15 C
Sensor: Nr:Datum:Temp:Feuchte:Taupunkt:
Aussen-T/F 3101 29-07-2015 16:45:00 20.7 C 38 % 5.89 C
3102 29-07-2015 16:50:00 20.3 C 40 % 6.27 C
3103 29-07-2015 16:55:00 20.1 C 41 % 6.45 C
3104 29-07-2015 17:00:00 19.8 C 42 % 6.53 C
3105 29-07-2015 17:05:00 19.9 C 43 % 6.96 C
3106 29-07-2015 17:10:00 19.9 C 44 % 7.3 C
3107 29-07-2015 17:15:00 19.8 C 45 % 7.53 C
3108 29-07-2015 17:20:00 19.7 C 46 % 7.77 C
3109 29-07-2015 17:25:00 20.2 C 46 % 8.22 C
3110 29-07-2015 17:30:00 20.9 C 42 % 7.52 C
3111 29-07-2015 17:35:00 21.2 C 41 % 7.44 C
3112 29-07-2015 17:40:00 21.2 C 40 % 7.08 C
3113 29-07-2015 17:45:00 21.4 C 41 % 7.62 C
3114 29-07-2015 17:50:00 21.3 C 42 % 7.88 C
3115 29-07-2015 17:55:00 21.4 C 42 % 7.97 C
3116 29-07-2015 18:00:00 20.9 C 44 % 8.2 C
3117 29-07-2015 18:05:00 20.3 C 44 % 7.66 C
3118 29-07-2015 18:10:00 19.2 C 55 % 9.95 C
3119 29-07-2015 18:15:00 17.8 C 62 % 10.43 C
3120 29-07-2015 18:20:00 17.1 C 69 % 11.37 C
3121 29-07-2015 18:25:00 16.7 C 71 % 11.42 C
3122 29-07-2015 18:30:00 16.8 C 77 % 12.75 C
3123 29-07-2015 18:35:00 17.3 C 68 % 11.34 C
3124 29-07-2015 18:40:00 18.1 C 68 % 12.11 C
3125 29-07-2015 18:45:00 18.8 C 61 % 11.13 C
Sensor: Nr:Datum:Temp:Feuchte:Taupunkt:
Aussen-T/F 3126 29-07-2015 18:50:00 19.3 C 56 % 10.31 C
3127 29-07-2015 18:55:00 19.7 C 50 % 8.99 C
3128 29-07-2015 19:00:00 19.9 C 49 % 8.88 C
3129 29-07-2015 19:05:00 19.8 C 47 % 8.17 C
3130 29-07-2015 19:10:00 19.3 C 49 % 8.33 C
3131 29-07-2015 19:15:00 18.9 C 50 % 8.26 C
3132 29-07-2015 19:20:00 18.8 C 51 % 8.46 C
3133 29-07-2015 19:25:00 18.8 C 56 % 9.84 C
3134 29-07-2015 19:30:00 18.8 C 56 % 9.84 C
3135 29-07-2015 19:35:00 18.8 C 54 % 9.3 C
3136 29-07-2015 19:40:00 18.9 C 56 % 9.94 C
3137 29-07-2015 19:45:00 18.9 C 56 % 9.94 C
3138 29-07-2015 19:50:00 19.1 C 55 % 9.86 C
3139 29-07-2015 19:55:00 18.9 C 53 % 9.12 C
3140 29-07-2015 20:00:00 18.8 C 52 % 8.75 C
3141 29-07-2015 20:05:00 18.8 C 54 % 9.3 C
3142 29-07-2015 20:10:00 18.8 C 52 % 8.75 C
3143 29-07-2015 20:15:00 18.8 C 52 % 8.75 C
3144 29-07-2015 20:20:00 18.8 C 53 % 9.03 C
3145 29-07-2015 20:25:00 18.7 C 52 % 8.65 C
3146 29-07-2015 20:30:00 18.7 C 52 % 8.65 C
3147 29-07-2015 20:35:00 18.6 C 53 % 8.84 C
3148 29-07-2015 20:40:00 18.4 C 53 % 8.66 C
3149 29-07-2015 20:45:00 18.4 C 54 % 8.93 C
3150 29-07-2015 20:50:00 18.3 C 54 % 8.84 C
Sensor: Nr:Datum:Temp:Feuchte:Taupunkt:
Aussen-T/F 3151 29-07-2015 20:55:00 18.2 C 54 % 8.75 C
3152 29-07-2015 21:00:00 18 C 54 % 8.56 C
3153 29-07-2015 21:05:00 17.8 C 54 % 8.38 C
3154 29-07-2015 21:10:00 17.6 C 57 % 8.99 C
3155 29-07-2015 21:15:00 17.4 C 56 % 8.54 C
3156 29-07-2015 21:20:00 17.3 C 58 % 8.97 C
3157 29-07-2015 21:25:00 17.1 C 56 % 8.26 C
3158 29-07-2015 21:30:00 16.8 C 62 % 9.49 C
3159 29-07-2015 21:35:00 16.3 C 63 % 9.25 C
3160 29-07-2015 21:40:00 15.9 C 64 % 9.11 C
3161 29-07-2015 21:45:00 15.7 C 65 % 9.15 C
3162 29-07-2015 21:50:00 15.4 C 63 % 8.4 C
3163 29-07-2015 21:55:00 15.3 C 64 % 8.54 C
3164 29-07-2015 22:00:00 15.4 C 61 % 7.93 C
3165 29-07-2015 22:05:00 15.6 C 62 % 8.35 C
3166 29-07-2015 22:10:00 15.7 C 60 % 7.97 C
3167 29-07-2015 22:15:00 15.8 C 60 % 8.06 C
3168 29-07-2015 22:20:00 15.8 C 59 % 7.81 C
3169 29-07-2015 22:25:00 15.8 C 60 % 8.06 C
3170 29-07-2015 22:30:00 15.6 C 62 % 8.35 C
3171 29-07-2015 22:35:00 15.2 C 65 % 8.67 C
3172 29-07-2015 22:40:00 14.8 C 67 % 8.74 C
3173 29-07-2015 22:45:00 14.6 C 68 % 8.77 C
3174 29-07-2015 22:50:00 14.4 C 67 % 8.36 C
3175 29-07-2015 22:55:00 14.4 C 68 % 8.58 C
Sensor: Nr:Datum:Temp:Feuchte:Taupunkt:
Aussen-T/F 3176 29-07-2015 23:00:00 14.3 C 68 % 8.48 C
3177 29-07-2015 23:05:00 14.3 C 69 % 8.7 C
3178 29-07-2015 23:10:00 14.2 C 69 % 8.6 C
3179 29-07-2015 23:15:00 14 C 69 % 8.41 C
3180 29-07-2015 23:20:00 13.9 C 70 % 8.53 C
3181 29-07-2015 23:25:00 13.7 C 71 % 8.54 C
3182 29-07-2015 23:30:00 13.6 C 71 % 8.45 C
3183 29-07-2015 23:35:00 13.3 C 73 % 8.57 C
3184 29-07-2015 23:40:00 13.2 C 73 % 8.47 C
3185 29-07-2015 23:45:00 13.1 C 73 % 8.38 C
3186 29-07-2015 23:50:00 13.1 C 73 % 8.38 C
3187 29-07-2015 23:55:00 13.1 C 72 % 8.17 C
3188 30-07-2015 00:00:00 13.1 C 73 % 8.38 C
3189 30-07-2015 00:05:00 12.9 C 73 % 8.18 C
3190 30-07-2015 00:10:00 12.8 C 75 % 8.48 C
3191 30-07-2015 00:15:00 12.6 C 76 % 8.49 C
3192 30-07-2015 00:20:00 12.3 C 77 % 8.39 C
3193 30-07-2015 00:25:00 12 C 78 % 8.29 C
3194 30-07-2015 00:30:00 11.9 C 78 % 8.19 C
3195 30-07-2015 00:35:00 11.8 C 78 % 8.09 C
3196 30-07-2015 00:40:00 11.8 C 78 % 8.09 C
3197 30-07-2015 00:45:00 11.9 C 77 % 8 C
3198 30-07-2015 00:50:00 11.9 C 77 % 8 C
3199 30-07-2015 00:55:00 11.9 C 77 % 8 C
3200 30-07-2015 01:00:00 11.9 C 78 % 8.19 C
Sensor: Nr:Datum:Temp:Feuchte:Taupunkt:
Aussen-T/F 3201 30-07-2015 01:05:00 11.8 C 78 % 8.09 C
3202 30-07-2015 01:10:00 11.8 C 78 % 8.09 C
3203 30-07-2015 01:15:00 11.7 C 79 % 8.18 C
3204 30-07-2015 01:20:00 11.4 C 79 % 7.89 C
3205 30-07-2015 01:25:00 11.3 C 80 % 7.98 C
3206 30-07-2015 01:30:00 11.2 C 80 % 7.88 C
3207 30-07-2015 01:35:00 11.2 C 80 % 7.88 C
3208 30-07-2015 01:40:00 11.2 C 80 % 7.88 C
3209 30-07-2015 01:45:00 11.2 C 80 % 7.88 C
3210 30-07-2015 01:50:00 11.2 C 80 % 7.88 C
3211 30-07-2015 01:55:00 11.2 C 81 % 8.06 C
3212 30-07-2015 02:00:00 11.1 C 81 % 7.97 C
3213 30-07-2015 02:05:00 11.2 C 81 % 8.06 C
3214 30-07-2015 02:10:00 11.2 C 81 % 8.06 C
3215 30-07-2015 02:15:00 11.2 C 81 % 8.06 C
3216 30-07-2015 02:20:00 11.1 C 81 % 7.97 C
3217 30-07-2015 02:25:00 11.1 C 81 % 7.97 C
3218 30-07-2015 02:30:00 10.9 C 82 % 7.95 C
3219 30-07-2015 02:35:00 10.9 C 82 % 7.95 C
3220 30-07-2015 02:40:00 10.9 C 82 % 7.95 C
3221 30-07-2015 02:45:00 10.8 C 83 % 8.03 C
3222 30-07-2015 02:50:00 10.7 C 83 % 7.93 C
3223 30-07-2015 02:55:00 10.6 C 83 % 7.84 C
3224 30-07-2015 03:00:00 10.5 C 84 % 7.91 C
3225 30-07-2015 03:05:00 10.5 C 84 % 7.91 C
Sensor: Nr:Datum:Temp:Feuchte:Taupunkt:
Aussen-T/F 3226 30-07-2015 03:10:00 10.6 C 84 % 8.01 C
3227 30-07-2015 03:15:00 10.5 C 84 % 7.91 C
3228 30-07-2015 03:20:00 10.4 C 84 % 7.82 C
3229 30-07-2015 03:25:00 10.4 C 84 % 7.82 C
3230 30-07-2015 03:30:00 10.4 C 84 % 7.82 C
3231 30-07-2015 03:35:00 10.4 C 84 % 7.82 C
3232 30-07-2015 03:40:00 10.4 C 84 % 7.82 C
3233 30-07-2015 03:45:00 10.4 C 84 % 7.82 C
3234 30-07-2015 03:50:00 10.4 C 84 % 7.82 C
3235 30-07-2015 03:55:00 10.4 C 84 % 7.82 C
3236 30-07-2015 04:00:00 10.3 C 85 % 7.89 C
3237 30-07-2015 04:05:00 10.3 C 85 % 7.89 C
3238 30-07-2015 04:10:00 10.3 C 85 % 7.89 C
3239 30-07-2015 04:15:00 10.2 C 85 % 7.79 C
3240 30-07-2015 04:20:00 10.2 C 85 % 7.79 C
3241 30-07-2015 04:25:00 10.2 C 85 % 7.79 C
3242 30-07-2015 04:30:00 10.2 C 85 % 7.79 C
3243 30-07-2015 04:35:00 10.2 C 85 % 7.79 C
3244 30-07-2015 04:40:00 10.2 C 85 % 7.79 C
3245 30-07-2015 04:45:00 10.1 C 86 % 7.87 C
3246 30-07-2015 04:50:00 10.1 C 86 % 7.87 C
3247 30-07-2015 04:55:00 10.1 C 86 % 7.87 C
3248 30-07-2015 05:00:00 10.1 C 86 % 7.87 C
3249 30-07-2015 05:05:00 10 C 86 % 7.77 C
3250 30-07-2015 05:10:00 10 C 86 % 7.77 C
Sensor: Nr:Datum:Temp:Feuchte:Taupunkt:
Aussen-T/F 3251 30-07-2015 05:15:00 10.1 C 86 % 7.87 C
3252 30-07-2015 05:20:00 10.1 C 86 % 7.87 C
3253 30-07-2015 05:25:00 10.1 C 86 % 7.87 C
3254 30-07-2015 05:30:00 10.2 C 86 % 7.97 C
3255 30-07-2015 05:35:00 10.2 C 86 % 7.97 C
3256 30-07-2015 05:40:00 10.2 C 86 % 7.97 C
3257 30-07-2015 05:45:00 10.2 C 86 % 7.97 C
3258 30-07-2015 05:50:00 10.2 C 86 % 7.97 C
3259 30-07-2015 05:55:00 10.2 C 86 % 7.97 C
3260 30-07-2015 06:00:00 10.1 C 86 % 7.87 C
3261 30-07-2015 06:05:00 10 C 86 % 7.77 C
3262 30-07-2015 06:10:00 9.8 C 87 % 7.74 C
3263 30-07-2015 06:15:00 9.8 C 87 % 7.74 C
3264 30-07-2015 06:20:00 9.8 C 87 % 7.74 C
3265 30-07-2015 06:25:00 9.8 C 87 % 7.74 C
3266 30-07-2015 06:30:00 9.8 C 87 % 7.74 C
3267 30-07-2015 06:35:00 9.9 C 87 % 7.84 C
3268 30-07-2015 06:40:00 9.9 C 87 % 7.84 C
3269 30-07-2015 06:45:00 9.9 C 87 % 7.84 C
3270 30-07-2015 06:50:00 9.9 C 87 % 7.84 C
3271 30-07-2015 06:55:00 10 C 87 % 7.94 C
3272 30-07-2015 07:00:00 10.1 C 87 % 8.04 C
3273 30-07-2015 07:05:00 10.3 C 87 % 8.23 C
3274 30-07-2015 07:10:00 10.4 C 86 % 8.16 C
3275 30-07-2015 07:15:00 10.6 C 85 % 8.19 C
Sensor: Nr:Datum:Temp:Feuchte:Taupunkt:
Aussen-T/F 3276 30-07-2015 07:20:00 10.7 C 85 % 8.28 C
3277 30-07-2015 07:25:00 10.8 C 85 % 8.38 C
3278 30-07-2015 07:30:00 10.9 C 85 % 8.48 C
3279 30-07-2015 07:35:00 10.9 C 85 % 8.48 C
3280 30-07-2015 07:40:00 11 C 85 % 8.58 C
3281 30-07-2015 07:45:00 11.1 C 84 % 8.5 C
3282 30-07-2015 07:50:00 11.2 C 83 % 8.42 C
3283 30-07-2015 07:55:00 11.3 C 83 % 8.52 C
3284 30-07-2015 08:00:00 11.6 C 83 % 8.81 C
3285 30-07-2015 08:05:00 11.7 C 82 % 8.73 C
3286 30-07-2015 08:10:00 11.9 C 81 % 8.75 C
3287 30-07-2015 08:15:00 12 C 81 % 8.84 C
3288 30-07-2015 08:20:00 12.1 C 82 % 9.12 C
3289 30-07-2015 08:25:00 12.2 C 81 % 9.04 C
3290 30-07-2015 08:30:00 12.4 C 81 % 9.23 C
3291 30-07-2015 08:35:00 12.5 C 80 % 9.15 C
3292 30-07-2015 08:40:00 12.6 C 80 % 9.25 C
3293 30-07-2015 08:45:00 12.7 C 79 % 9.16 C
3294 30-07-2015 08:50:00 12.7 C 79 % 9.16 C
3295 30-07-2015 08:55:00 12.8 C 78 % 9.06 C
3296 30-07-2015 09:00:00 12.9 C 78 % 9.16 C
3297 30-07-2015 09:05:00 13.1 C 77 % 9.16 C
3298 30-07-2015 09:10:00 13.2 C 77 % 9.26 C
3299 30-07-2015 09:15:00 13.3 C 77 % 9.36 C
3300 30-07-2015 09:20:00 13.3 C 76 % 9.16 C
Sensor: Nr:Datum:Temp:Feuchte:Taupunkt:
Aussen-T/F 3301 30-07-2015 09:25:00 13.3 C 76 % 9.16 C
3302 30-07-2015 09:30:00 13.3 C 77 % 9.36 C
3303 30-07-2015 09:35:00 13.4 C 78 % 9.65 C
3304 30-07-2015 09:40:00 13.6 C 77 % 9.65 C
3305 30-07-2015 09:45:00 13.7 C 76 % 9.55 C
3306 30-07-2015 09:50:00 13.8 C 77 % 9.84 C
3307 30-07-2015 09:55:00 14.1 C 76 % 9.94 C
3308 30-07-2015 10:00:00 14.3 C 75 % 9.93 C
3309 30-07-2015 10:05:00 14.6 C 74 % 10.02 C
3310 30-07-2015 10:10:00 14.8 C 72 % 9.81 C
3311 30-07-2015 10:15:00 14.9 C 73 % 10.11 C
3312 30-07-2015 10:20:00 15.4 C 71 % 10.17 C
3313 30-07-2015 10:25:00 15.8 C 69 % 10.13 C
3314 30-07-2015 10:30:00 16 C 68 % 10.1 C
3315 30-07-2015 10:35:00 16.1 C 67 % 9.98 C
3316 30-07-2015 10:40:00 16.2 C 68 % 10.29 C
3317 30-07-2015 10:45:00 16.3 C 67 % 10.17 C
3318 30-07-2015 10:50:00 16.4 C 66 % 10.04 C
3319 30-07-2015 10:55:00 16.8 C 66 % 10.42 C
3320 30-07-2015 11:00:00 17.2 C 64 % 10.34 C
3321 30-07-2015 11:05:00 17.4 C 63 % 10.29 C
3322 30-07-2015 11:10:00 17.8 C 62 % 10.43 C
3323 30-07-2015 11:15:00 18.2 C 60 % 10.31 C
3324 30-07-2015 11:20:00 18.5 C 60 % 10.6 C
3325 30-07-2015 11:25:00 18.8 C 58 % 10.37 C
Sensor: Nr:Datum:Temp:Feuchte:Taupunkt:
Aussen-T/F 3326 30-07-2015 11:30:00 18.9 C 55 % 9.67 C
3327 30-07-2015 11:35:00 18.6 C 56 % 9.66 C
3328 30-07-2015 11:40:00 18.4 C 58 % 9.99 C
3329 30-07-2015 11:45:00 18.3 C 57 % 9.64 C
3330 30-07-2015 11:50:00 18.3 C 59 % 10.16 C
3331 30-07-2015 11:55:00 18.7 C 58 % 10.28 C
3332 30-07-2015 12:00:00 19.1 C 55 % 9.86 C
3333 30-07-2015 12:05:00 19.1 C 55 % 9.86 C
3334 30-07-2015 12:10:00 19.2 C 53 % 9.4 C
3335 30-07-2015 12:15:00 19.3 C 53 % 9.49 C
3336 30-07-2015 12:20:00 19.4 C 53 % 9.58 C
3337 30-07-2015 12:25:00 19.3 C 53 % 9.49 C
3338 30-07-2015 12:30:00 19 C 55 % 9.76 C
3339 30-07-2015 12:35:00 18.8 C 58 % 10.37 C
3340 30-07-2015 12:40:00 18.6 C 58 % 10.18 C
3341 30-07-2015 12:45:00 18.6 C 59 % 10.44 C
3342 30-07-2015 12:50:00 18.6 C 59 % 10.44 C
3343 30-07-2015 12:55:00 18.7 C 59 % 10.53 C
3344 30-07-2015 13:00:00 18.7 C 58 % 10.28 C
3345 30-07-2015 13:05:00 18.7 C 56 % 9.75 C
3346 30-07-2015 13:10:00 18.6 C 57 % 9.92 C
3347 30-07-2015 13:15:00 18.6 C 59 % 10.44 C
3348 30-07-2015 13:20:00 18.5 C 61 % 10.84 C
3349 30-07-2015 13:25:00 18.7 C 61 % 11.03 C
3350 30-07-2015 13:30:00 18.9 C 61 % 11.22 C
Sensor: Nr:Datum:Temp:Feuchte:Taupunkt:
Aussen-T/F 3351 30-07-2015 13:35:00 19.1 C 58 % 10.65 C
3352 30-07-2015 13:40:00 19.3 C 61 % 11.6 C
3353 30-07-2015 13:45:00 19.4 C 59 % 11.19 C
3354 30-07-2015 13:50:00 19.4 C 56 % 10.4 C
3355 30-07-2015 13:55:00 19.4 C 55 % 10.13 C
3356 30-07-2015 14:00:00 19.6 C 55 % 10.32 C
3357 30-07-2015 14:05:00 19.7 C 55 % 10.41 C
3358 30-07-2015 14:10:00 20.1 C 52 % 9.94 C
3359 30-07-2015 14:15:00 20.6 C 51 % 10.12 C
3360 30-07-2015 14:20:00 21.1 C 46 % 9.04 C
3361 30-07-2015 14:25:00 21.7 C 47 % 9.9 C
3362 30-07-2015 14:30:00 21.7 C 48 % 10.22 C
3363 30-07-2015 14:35:00 21.1 C 51 % 10.58 C
3364 30-07-2015 14:40:00 20.3 C 53 % 10.41 C
3365 30-07-2015 14:45:00 19.7 C 55 % 10.41 C
3366 30-07-2015 14:50:00 19.3 C 58 % 10.84 C
3367 30-07-2015 14:55:00 19.2 C 58 % 10.74 C
3368 30-07-2015 15:00:00 19 C 58 % 10.56 C
3369 30-07-2015 15:05:00 18.8 C 58 % 10.37 C
3370 30-07-2015 15:10:00 18.8 C 59 % 10.63 C
3371 30-07-2015 15:15:00 18.7 C 58 % 10.28 C
3372 30-07-2015 15:20:00 18.7 C 60 % 10.78 C
3373 30-07-2015 15:25:00 18.4 C 58 % 9.99 C
3374 30-07-2015 15:30:00 18 C 63 % 10.86 C
3375 30-07-2015 15:35:00 17.6 C 67 % 11.4 C
Sensor: Nr:Datum:Temp:Feuchte:Taupunkt:
Aussen-T/F 3376 30-07-2015 15:40:00 17.1 C 68 % 11.15 C
3377 30-07-2015 15:45:00 17 C 70 % 11.49 C
3378 30-07-2015 15:50:00 16.4 C 72 % 11.34 C
3379 30-07-2015 15:55:00 16.3 C 73 % 11.46 C
3380 30-07-2015 16:00:00 16.2 C 75 % 11.77 C
3381 30-07-2015 16:05:00 16.2 C 75 % 11.77 C
3382 30-07-2015 16:10:00 15.9 C 74 % 11.28 C
3383 30-07-2015 16:15:00 15.9 C 74 % 11.28 C
3384 30-07-2015 16:20:00 16.1 C 74 % 11.47 C
3385 30-07-2015 16:25:00 16.2 C 74 % 11.56 C
3386 30-07-2015 16:30:00 16.2 C 74 % 11.56 C
3387 30-07-2015 16:35:00 16.3 C 75 % 11.86 C
3388 30-07-2015 16:40:00 16.3 C 75 % 11.86 C
3389 30-07-2015 16:45:00 16.3 C 72 % 11.25 C
3390 30-07-2015 16:50:00 16.1 C 73 % 11.26 C
3391 30-07-2015 16:55:00 15.8 C 73 % 10.97 C
3392 30-07-2015 17:00:00 15.7 C 71 % 10.46 C
3393 30-07-2015 17:05:00 15.4 C 73 % 10.59 C
3394 30-07-2015 17:10:00 15.3 C 74 % 10.7 C
3395 30-07-2015 17:15:00 15.2 C 76 % 11 C
3396 30-07-2015 17:20:00 14.9 C 77 % 10.91 C
3397 30-07-2015 17:25:00 14.8 C 77 % 10.81 C
3398 30-07-2015 17:30:00 14.8 C 77 % 10.81 C
3399 30-07-2015 17:35:00 14.7 C 78 % 10.91 C
3400 30-07-2015 17:40:00 14.8 C 77 % 10.81 C
Sensor: Nr:Datum:Temp:Feuchte:Taupunkt:
Aussen-T/F 3401 30-07-2015 17:45:00 14.9 C 77 % 10.91 C
3402 30-07-2015 17:50:00 15 C 77 % 11 C
3403 30-07-2015 17:55:00 15.1 C 76 % 10.9 C
3404 30-07-2015 18:00:00 15.2 C 76 % 11 C
3405 30-07-2015 18:05:00 15.3 C 76 % 11.1 C
3406 30-07-2015 18:10:00 15.4 C 75 % 11 C
3407 30-07-2015 18:15:00 15.6 C 73 % 10.78 C
3408 30-07-2015 18:20:00 15.7 C 73 % 10.88 C
3409 30-07-2015 18:25:00 15.7 C 72 % 10.67 C
3410 30-07-2015 18:30:00 15.7 C 73 % 10.88 C
3411 30-07-2015 18:35:00 15.7 C 72 % 10.67 C
3412 30-07-2015 18:40:00 15.7 C 73 % 10.88 C
3413 30-07-2015 18:45:00 15.6 C 74 % 10.99 C
3414 30-07-2015 18:50:00 15.6 C 74 % 10.99 C
3415 30-07-2015 18:55:00 15.6 C 74 % 10.99 C
3416 30-07-2015 19:00:00 15.7 C 73 % 10.88 C
3417 30-07-2015 19:05:00 15.7 C 73 % 10.88 C
3418 30-07-2015 19:10:00 15.8 C 73 % 10.97 C
3419 30-07-2015 19:15:00 15.8 C 73 % 10.97 C
3420 30-07-2015 19:20:00 15.9 C 73 % 11.07 C
3421 30-07-2015 19:25:00 15.9 C 73 % 11.07 C
3422 30-07-2015 19:30:00 16 C 73 % 11.17 C
3423 30-07-2015 19:35:00 16 C 73 % 11.17 C
3424 30-07-2015 19:40:00 16 C 74 % 11.37 C
3425 30-07-2015 19:45:00 16 C 74 % 11.37 C
Sensor: Nr:Datum:Temp:Feuchte:Taupunkt:
Aussen-T/F 3426 30-07-2015 19:50:00 15.7 C 75 % 11.28 C
3427 30-07-2015 19:55:00 15.7 C 75 % 11.28 C
3428 30-07-2015 20:00:00 15.6 C 76 % 11.39 C
3429 30-07-2015 20:05:00 15.6 C 76 % 11.39 C
3430 30-07-2015 20:10:00 15.6 C 76 % 11.39 C
3431 30-07-2015 20:15:00 15.6 C 77 % 11.59 C
3432 30-07-2015 20:20:00 15.4 C 80 % 11.97 C
3433 30-07-2015 20:25:00 15.4 C 81 % 12.16 C
3434 30-07-2015 20:30:00 15.4 C 81 % 12.16 C
3435 30-07-2015 20:35:00 15.4 C 85 % 12.89 C
3436 30-07-2015 20:40:00 15.4 C 85 % 12.89 C
3437 30-07-2015 20:45:00 15.4 C 85 % 12.89 C
3438 31-07-2015 00:10:00 11.2 C 94 % 10.27 C
3439 31-07-2015 00:15:00 11.2 C 94 % 10.27 C
3440 31-07-2015 00:20:00 11.2 C 94 % 10.27 C
3441 31-07-2015 00:25:00 11.2 C 94 % 10.27 C
3442 31-07-2015 00:30:00 11.2 C 94 % 10.27 C
3443 31-07-2015 00:35:00 11.2 C 94 % 10.27 C
3444 31-07-2015 00:55:00 10.9 C 94 % 9.97 C
3445 31-07-2015 01:00:00 10.9 C 94 % 9.97 C
3446 31-07-2015 01:05:00 10.9 C 94 % 9.97 C
3447 31-07-2015 01:10:00 10.8 C 94 % 9.87 C
3448 31-07-2015 01:15:00 10.7 C 94 % 9.77 C
3449 31-07-2015 01:20:00 10.7 C 94 % 9.77 C
3450 31-07-2015 01:25:00 10.6 C 94 % 9.68 C
Sensor: Nr:Datum:Temp:Feuchte:Taupunkt:
Aussen-T/F 3451 31-07-2015 01:30:00 10.6 C 94 % 9.68 C
3452 31-07-2015 03:20:00 10.2 C 95 % 9.44 C
3453 31-07-2015 03:25:00 10.3 C 95 % 9.54 C
3454 31-07-2015 03:30:00 10.3 C 95 % 9.54 C
3455 31-07-2015 03:35:00 10.3 C 95 % 9.54 C
3456 31-07-2015 03:40:00 10.4 C 95 % 9.63 C
3457 31-07-2015 03:45:00 10.4 C 95 % 9.63 C
3458 31-07-2015 03:50:00 10.4 C 95 % 9.63 C
3459 31-07-2015 03:55:00 10.5 C 95 % 9.73 C
3460 31-07-2015 04:00:00 10.4 C 95 % 9.63 C
3461 31-07-2015 04:05:00 10.4 C 95 % 9.63 C
3462 31-07-2015 04:10:00 10.4 C 95 % 9.63 C
3463 31-07-2015 04:15:00 10.5 C 95 % 9.73 C
3464 31-07-2015 04:20:00 10.5 C 95 % 9.73 C
3465 31-07-2015 04:25:00 10.6 C 95 % 9.83 C
3466 31-07-2015 04:30:00 10.6 C 95 % 9.83 C
3467 31-07-2015 04:35:00 10.6 C 95 % 9.83 C
3468 31-07-2015 04:40:00 10.6 C 95 % 9.83 C
3469 31-07-2015 04:45:00 10.7 C 95 % 9.93 C
3470 31-07-2015 04:50:00 10.7 C 95 % 9.93 C
3471 31-07-2015 04:55:00 10.7 C 95 % 9.93 C
3472 31-07-2015 05:00:00 10.7 C 95 % 9.93 C
3473 31-07-2015 05:05:00 10.7 C 95 % 9.93 C
3474 31-07-2015 05:10:00 10.7 C 95 % 9.93 C
3475 31-07-2015 05:15:00 10.7 C 95 % 9.93 C
Sensor: Nr:Datum:Temp:Feuchte:Taupunkt:
Aussen-T/F 3476 31-07-2015 05:20:00 10.7 C 95 % 9.93 C
3477 31-07-2015 05:25:00 10.7 C 95 % 9.93 C
3478 31-07-2015 05:30:00 10.7 C 95 % 9.93 C
3479 31-07-2015 05:35:00 10.7 C 95 % 9.93 C
3480 31-07-2015 07:05:00 10.3 C 95 % 9.54 C
3481 31-07-2015 07:10:00 10.3 C 95 % 9.54 C
3482 31-07-2015 07:15:00 10.4 C 95 % 9.63 C
3483 31-07-2015 07:20:00 10.6 C 95 % 9.83 C
3484 31-07-2015 07:25:00 10.7 C 95 % 9.93 C
3485 31-07-2015 07:30:00 10.9 C 95 % 10.13 C
3486 31-07-2015 07:35:00 10.9 C 95 % 10.13 C
3487 31-07-2015 07:40:00 11.1 C 95 % 10.33 C
3488 31-07-2015 07:45:00 11.1 C 95 % 10.33 C
3489 31-07-2015 07:50:00 11.2 C 95 % 10.43 C
3490 31-07-2015 07:55:00 11.2 C 94 % 10.27 C
3491 31-07-2015 08:00:00 11.3 C 94 % 10.37 C
3492 31-07-2015 08:05:00 11.3 C 95 % 10.53 C
3493 31-07-2015 08:10:00 11.4 C 94 % 10.47 C
3494 31-07-2015 08:15:00 11.6 C 94 % 10.67 C
3495 31-07-2015 08:20:00 11.7 C 94 % 10.77 C
3496 31-07-2015 08:25:00 11.8 C 94 % 10.87 C
3497 31-07-2015 08:30:00 12.1 C 94 % 11.16 C
3498 31-07-2015 08:35:00 12.3 C 93 % 11.2 C
3499 31-07-2015 08:40:00 12.4 C 92 % 11.14 C
3500 31-07-2015 08:45:00 12.4 C 91 % 10.97 C
Sensor: Nr:Datum:Temp:Feuchte:Taupunkt:
Aussen-T/F 3501 31-07-2015 08:50:00 12.6 C 89 % 10.84 C
3502 31-07-2015 08:55:00 12.7 C 88 % 10.77 C
3503 31-07-2015 09:00:00 12.9 C 88 % 10.96 C
3504 31-07-2015 09:05:00 13 C 87 % 10.89 C
3505 31-07-2015 09:10:00 13.1 C 86 % 10.81 C
3506 31-07-2015 09:15:00 13.3 C 86 % 11.01 C
3507 31-07-2015 09:20:00 13.4 C 86 % 11.11 C
3508 31-07-2015 09:25:00 13.6 C 85 % 11.13 C
3509 31-07-2015 09:30:00 13.7 C 84 % 11.05 C
3510 31-07-2015 09:35:00 13.8 C 84 % 11.15 C
3511 31-07-2015 09:40:00 13.8 C 83 % 10.97 C
3512 31-07-2015 09:45:00 13.9 C 84 % 11.24 C
3513 31-07-2015 09:50:00 13.9 C 82 % 10.88 C
3514 31-07-2015 09:55:00 14 C 82 % 10.98 C
3515 31-07-2015 10:00:00 14.1 C 80 % 10.71 C
3516 31-07-2015 10:05:00 14.2 C 79 % 10.61 C
3517 31-07-2015 10:10:00 14.3 C 79 % 10.71 C
3518 31-07-2015 10:15:00 14.6 C 78 % 10.81 C
3519 31-07-2015 10:20:00 14.8 C 76 % 10.61 C
3520 31-07-2015 10:25:00 15.1 C 76 % 10.9 C
3521 31-07-2015 10:30:00 15.3 C 76 % 11.1 C
3522 31-07-2015 10:35:00 15.3 C 75 % 10.9 C
3523 31-07-2015 10:40:00 15.4 C 74 % 10.79 C
3524 31-07-2015 10:45:00 15.7 C 72 % 10.67 C
3525 31-07-2015 10:50:00 15.9 C 69 % 10.23 C
Sensor: Nr:Datum:Temp:Feuchte:Taupunkt:
Aussen-T/F 3526 31-07-2015 10:55:00 15.9 C 70 % 10.44 C
3527 31-07-2015 11:00:00 16.2 C 72 % 11.15 C
3528 31-07-2015 11:05:00 16.4 C 68 % 10.48 C
3529 31-07-2015 11:10:00 16.7 C 68 % 10.77 C
3530 31-07-2015 11:15:00 16.7 C 65 % 10.09 C
3531 31-07-2015 11:20:00 16.8 C 66 % 10.42 C
3532 31-07-2015 11:25:00 17 C 62 % 9.67 C
3533 31-07-2015 11:30:00 17 C 63 % 9.91 C
3534 31-07-2015 11:35:00 17.3 C 63 % 10.2 C
3535 31-07-2015 11:40:00 17.6 C 62 % 10.24 C
3536 31-07-2015 11:45:00 17.7 C 60 % 9.84 C
3537 31-07-2015 11:50:00 17.7 C 62 % 10.33 C
3538 31-07-2015 11:55:00 17.8 C 63 % 10.67 C
3539 31-07-2015 12:00:00 17.9 C 62 % 10.52 C
3540 31-07-2015 12:05:00 18 C 61 % 10.37 C
3541 31-07-2015 12:10:00 18.2 C 61 % 10.56 C
3542 31-07-2015 12:15:00 18.3 C 61 % 10.66 C
3543 31-07-2015 12:20:00 18.4 C 57 % 9.74 C
3544 31-07-2015 12:25:00 18.7 C 58 % 10.28 C
3545 31-07-2015 12:30:00 18.9 C 57 % 10.2 C
3546 31-07-2015 12:35:00 19.1 C 56 % 10.12 C
3547 31-07-2015 12:40:00 19.1 C 55 % 9.86 C
3548 31-07-2015 12:45:00 19.1 C 56 % 10.12 C
3549 31-07-2015 12:50:00 19.2 C 55 % 9.95 C
3550 31-07-2015 12:55:00 19.3 C 55 % 10.04 C
Sensor: Nr:Datum:Temp:Feuchte:Taupunkt:
Aussen-T/F 3551 31-07-2015 13:00:00 19.4 C 55 % 10.13 C
3552 31-07-2015 13:05:00 19.7 C 53 % 9.86 C
3553 31-07-2015 13:10:00 19.8 C 50 % 9.09 C
3554 31-07-2015 13:15:00 19.8 C 53 % 9.95 C
3555 31-07-2015 13:20:00 20 C 51 % 9.56 C
3556 31-07-2015 13:25:00 20.1 C 52 % 9.94 C
3557 31-07-2015 13:30:00 20.2 C 48 % 8.85 C
3558 31-07-2015 13:35:00 20.2 C 51 % 9.75 C
3559 31-07-2015 13:40:00 20.3 C 50 % 9.54 C
3560 31-07-2015 13:45:00 20.4 C 51 % 9.93 C
3561 31-07-2015 13:50:00 20.6 C 48 % 9.21 C
3562 31-07-2015 13:55:00 20.7 C 47 % 8.99 C
3563 31-07-2015 14:00:00 20.5 C 45 % 8.17 C
3564 31-07-2015 14:05:00 20.9 C 45 % 8.53 C
3565 31-07-2015 14:10:00 20.9 C 45 % 8.53 C
3566 31-07-2015 14:15:00 21.3 C 44 % 8.56 C
3567 31-07-2015 14:20:00 21.4 C 45 % 8.99 C
3568 31-07-2015 14:25:00 21.6 C 45 % 9.17 C
3569 31-07-2015 14:30:00 21.6 C 45 % 9.17 C
3570 31-07-2015 14:35:00 21.6 C 45 % 9.17 C
3571 31-07-2015 14:40:00 21.7 C 42 % 8.24 C
3572 31-07-2015 14:45:00 21.8 C 44 % 9.01 C
3573 31-07-2015 14:50:00 21.9 C 43 % 8.76 C
3574 31-07-2015 14:55:00 21.9 C 44 % 9.1 C
3575 31-07-2015 15:00:00 22 C 44 % 9.2 C
Sensor: Nr:Datum:Temp:Feuchte:Taupunkt:
Aussen-T/F 3576 31-07-2015 15:05:00 22.1 C 42 % 8.6 C
3577 31-07-2015 15:10:00 22.1 C 40 % 7.88 C
3578 31-07-2015 15:15:00 22.3 C 40 % 8.06 C
3579 31-07-2015 15:20:00 22.3 C 39 % 7.69 C
3580 31-07-2015 15:25:00 22.5 C 41 % 8.6 C
3581 31-07-2015 15:30:00 22.5 C 40 % 8.24 C
3582 31-07-2015 15:35:00 22.6 C 40 % 8.33 C
3583 31-07-2015 15:40:00 22.7 C 40 % 8.42 C
3584 31-07-2015 15:45:00 22.9 C 40 % 8.59 C
3585 31-07-2015 15:50:00 23.1 C 37 % 7.63 C
3586 31-07-2015 15:55:00 22.9 C 38 % 7.84 C
3587 31-07-2015 16:00:00 22.6 C 40 % 8.33 C
3588 31-07-2015 16:05:00 22.4 C 38 % 7.4 C
3589 31-07-2015 16:10:00 22.7 C 39 % 8.04 C
3590 31-07-2015 16:15:00 22.9 C 38 % 7.84 C
3591 31-07-2015 16:20:00 22.9 C 39 % 8.22 C
3592 31-07-2015 16:25:00 22.8 C 39 % 8.13 C
3593 31-07-2015 16:30:00 22.7 C 39 % 8.04 C
3594 31-07-2015 16:35:00 22.5 C 41 % 8.6 C
3595 31-07-2015 16:40:00 22.2 C 40 % 7.97 C
3596 31-07-2015 16:45:00 22.1 C 41 % 8.24 C
3597 31-07-2015 16:50:00 22.2 C 41 % 8.33 C
3598 31-07-2015 16:55:00 22.3 C 41 % 8.42 C
3599 31-07-2015 17:00:00 22.5 C 39 % 7.86 C
3600 31-07-2015 17:05:00 23 C 39 % 8.31 C
Sensor: Nr:Datum:Temp:Feuchte:Taupunkt:
Aussen-T/F 3601 31-07-2015 17:10:00 23.2 C 38 % 8.11 C
3602 31-07-2015 17:15:00 23.2 C 39 % 8.49 C
3603 31-07-2015 17:20:00 23.3 C 38 % 8.19 C
3604 31-07-2015 17:25:00 23.5 C 37 % 7.98 C
3605 31-07-2015 17:30:00 23.4 C 38 % 8.28 C
3606 31-07-2015 17:35:00 23.1 C 37 % 7.63 C
3607 31-07-2015 17:40:00 23.2 C 38 % 8.11 C
3608 31-07-2015 17:45:00 23.6 C 36 % 7.67 C
3609 31-07-2015 17:50:00 23.7 C 37 % 8.16 C
3610 31-07-2015 17:55:00 23.7 C 37 % 8.16 C
3611 31-07-2015 18:00:00 23.7 C 36 % 7.75 C
3612 31-07-2015 18:05:00 23.7 C 36 % 7.75 C
3613 31-07-2015 18:10:00 23.9 C 37 % 8.33 C
3614 31-07-2015 18:15:00 24.2 C 36 % 8.2 C
3615 31-07-2015 18:20:00 24.2 C 36 % 8.2 C
3616 31-07-2015 18:25:00 23.9 C 36 % 7.93 C
3617 31-07-2015 18:30:00 23.6 C 39 % 8.84 C
3618 31-07-2015 18:35:00 23.5 C 36 % 7.58 C
3619 31-07-2015 18:40:00 23.5 C 36 % 7.58 C
3620 31-07-2015 18:45:00 23.6 C 36 % 7.67 C
3621 31-07-2015 18:50:00 23.4 C 38 % 8.28 C
3622 31-07-2015 18:55:00 23.3 C 38 % 8.19 C
3623 31-07-2015 19:00:00 23.3 C 39 % 8.58 C
3624 31-07-2015 19:05:00 23.3 C 38 % 8.19 C
3625 31-07-2015 19:10:00 22.9 C 37 % 7.45 C
Sensor: Nr:Datum:Temp:Feuchte:Taupunkt:
Aussen-T/F 3626 31-07-2015 19:15:00 22.9 C 39 % 8.22 C
3627 31-07-2015 19:20:00 23.1 C 38 % 8.02 C
3628 31-07-2015 19:25:00 23.1 C 39 % 8.4 C
3629 31-07-2015 19:30:00 22.8 C 39 % 8.13 C
3630 31-07-2015 19:35:00 22.3 C 40 % 8.06 C
3631 31-07-2015 19:40:00 21.8 C 40 % 7.61 C
3632 31-07-2015 19:45:00 21.7 C 41 % 7.88 C
3633 31-07-2015 19:50:00 21.6 C 42 % 8.15 C
3634 31-07-2015 19:55:00 21.5 C 43 % 8.4 C
3635 31-07-2015 20:00:00 21.4 C 43 % 8.31 C
3636 31-07-2015 20:05:00 21.3 C 43 % 8.22 C
3637 31-07-2015 20:10:00 21.2 C 43 % 8.13 C
3638 31-07-2015 20:15:00 21 C 44 % 8.29 C
3639 31-07-2015 20:20:00 20.8 C 45 % 8.44 C
3640 31-07-2015 20:25:00 20.7 C 45 % 8.35 C
3641 31-07-2015 20:30:00 20.5 C 46 % 8.49 C
3642 31-07-2015 20:35:00 20.3 C 47 % 8.63 C
3643 31-07-2015 20:40:00 20.1 C 48 % 8.76 C
3644 31-07-2015 20:45:00 20.1 C 48 % 8.76 C
3645 31-07-2015 20:50:00 20.1 C 48 % 8.76 C
3646 31-07-2015 20:55:00 20.1 C 48 % 8.76 C
3647 31-07-2015 21:00:00 18.1 C 48 % 6.93 C
3648 31-07-2015 21:05:00 18.1 C 48 % 6.93 C
3649 31-07-2015 21:10:00 17.2 C 48 % 6.11 C
3650 31-07-2015 21:15:00 17.2 C 48 % 6.11 C
Sensor: Nr:Datum:Temp:Feuchte:Taupunkt:
Aussen-T/F 3651 31-07-2015 21:35:00 16.1 C 66 % 9.75 C
3652 31-07-2015 21:40:00 15.9 C 66 % 9.56 C
3653 31-07-2015 21:45:00 15.8 C 67 % 9.69 C
3654 31-07-2015 21:50:00 15.7 C 67 % 9.6 C
3655 31-07-2015 21:55:00 15.6 C 68 % 9.72 C
3656 31-07-2015 22:00:00 15.4 C 68 % 9.53 C
3657 31-07-2015 22:05:00 15.3 C 69 % 9.65 C
3658 31-07-2015 22:10:00 15.2 C 68 % 9.34 C
3659 31-07-2015 22:15:00 15.1 C 69 % 9.46 C
3660 31-07-2015 22:20:00 15.1 C 70 % 9.67 C
3661 31-07-2015 22:25:00 15 C 69 % 9.36 C
3662 31-07-2015 22:30:00 14.9 C 68 % 9.05 C
3663 31-07-2015 22:35:00 14.8 C 69 % 9.17 C
3664 31-07-2015 22:40:00 14.7 C 69 % 9.08 C
3665 31-07-2015 22:45:00 14.6 C 70 % 9.2 C
3666 31-07-2015 22:50:00 14.5 C 69 % 8.89 C
3667 31-07-2015 22:55:00 14.4 C 70 % 9 C
3668 31-07-2015 23:00:00 14.3 C 70 % 8.91 C
3669 31-07-2015 23:05:00 14.2 C 70 % 8.81 C
3670 31-07-2015 23:10:00 14.1 C 71 % 8.93 C
3671 31-07-2015 23:15:00 13.9 C 71 % 8.73 C
3672 31-07-2015 23:20:00 13.8 C 72 % 8.85 C
3673 31-07-2015 23:25:00 13.8 C 72 % 8.85 C
3674 31-07-2015 23:30:00 13.7 C 71 % 8.54 C
3675 31-07-2015 23:35:00 13.6 C 72 % 8.65 C
Sensor: Nr:Datum:Temp:Feuchte:Taupunkt:
Aussen-T/F 3676 31-07-2015 23:40:00 13.6 C 71 % 8.45 C
3677 31-07-2015 23:45:00 13.6 C 73 % 8.86 C
3678 31-07-2015 23:50:00 13.5 C 73 % 8.76 C
3679 31-07-2015 23:55:00 13.4 C 73 % 8.66 C
3680 01-08-2015 00:00:00 13.4 C 73 % 8.66 C
3681 01-08-2015 00:05:00 13.4 C 73 % 8.66 C
3682 01-08-2015 00:10:00 13.3 C 73 % 8.57 C
3683 01-08-2015 00:15:00 13.3 C 73 % 8.57 C
3684 01-08-2015 00:20:00 13.2 C 74 % 8.67 C
3685 01-08-2015 00:25:00 13.2 C 75 % 8.87 C
3686 01-08-2015 00:30:00 13.2 C 75 % 8.87 C
3687 01-08-2015 00:35:00 13.1 C 75 % 8.77 C
3688 01-08-2015 00:40:00 13.1 C 75 % 8.77 C
3689 01-08-2015 00:45:00 13.1 C 75 % 8.77 C
3690 01-08-2015 00:50:00 13.1 C 75 % 8.77 C
3691 01-08-2015 00:55:00 13.1 C 75 % 8.77 C
3692 01-08-2015 01:00:00 13.1 C 75 % 8.77 C
3693 01-08-2015 01:05:00 13.1 C 75 % 8.77 C
3694 01-08-2015 01:10:00 13.1 C 75 % 8.77 C
3695 01-08-2015 01:15:00 13.1 C 75 % 8.77 C
3696 01-08-2015 01:20:00 13.1 C 75 % 8.77 C
3697 01-08-2015 01:25:00 13.1 C 75 % 8.77 C
3698 01-08-2015 01:30:00 13.1 C 75 % 8.77 C
3699 01-08-2015 01:35:00 13.2 C 75 % 8.87 C
3700 01-08-2015 01:40:00 13.1 C 75 % 8.77 C
Sensor: Nr:Datum:Temp:Feuchte:Taupunkt:
Aussen-T/F 3701 01-08-2015 01:45:00 13.1 C 75 % 8.77 C
3702 01-08-2015 01:50:00 13.1 C 75 % 8.77 C
3703 01-08-2015 01:55:00 13 C 76 % 8.87 C
3704 01-08-2015 02:00:00 13 C 76 % 8.87 C
3705 01-08-2015 02:05:00 12.9 C 76 % 8.78 C
3706 01-08-2015 02:10:00 12.9 C 76 % 8.78 C
3707 01-08-2015 02:15:00 12.9 C 76 % 8.78 C
3708 01-08-2015 02:20:00 12.9 C 76 % 8.78 C
3709 01-08-2015 02:25:00 12.8 C 76 % 8.68 C
3710 01-08-2015 02:30:00 12.9 C 75 % 8.58 C
3711 01-08-2015 02:35:00 12.8 C 74 % 8.29 C
3712 01-08-2015 02:40:00 12.8 C 75 % 8.48 C
3713 01-08-2015 02:45:00 12.8 C 75 % 8.48 C
3714 01-08-2015 02:50:00 12.8 C 75 % 8.48 C
3715 01-08-2015 02:55:00 12.7 C 74 % 8.19 C
3716 01-08-2015 03:00:00 12.7 C 74 % 8.19 C
3717 01-08-2015 03:05:00 12.7 C 75 % 8.39 C
3718 01-08-2015 03:10:00 12.7 C 74 % 8.19 C
3719 01-08-2015 03:15:00 12.8 C 75 % 8.48 C
3720 01-08-2015 03:20:00 12.8 C 75 % 8.48 C
3721 01-08-2015 03:25:00 12.8 C 74 % 8.29 C
3722 01-08-2015 03:30:00 12.8 C 74 % 8.29 C
3723 01-08-2015 03:35:00 12.8 C 74 % 8.29 C
3724 01-08-2015 03:40:00 12.8 C 75 % 8.48 C
3725 01-08-2015 03:45:00 12.8 C 74 % 8.29 C
Sensor: Nr:Datum:Temp:Feuchte:Taupunkt:
Aussen-T/F 3726 01-08-2015 03:50:00 12.7 C 74 % 8.19 C
3727 01-08-2015 03:55:00 12.7 C 74 % 8.19 C
3728 01-08-2015 04:00:00 12.6 C 75 % 8.29 C
3729 01-08-2015 04:05:00 12.6 C 76 % 8.49 C
3730 01-08-2015 04:10:00 12.6 C 75 % 8.29 C
3731 01-08-2015 04:15:00 12.6 C 75 % 8.29 C
3732 01-08-2015 04:20:00 12.7 C 75 % 8.39 C
3733 01-08-2015 04:25:00 12.7 C 76 % 8.58 C
3734 01-08-2015 04:30:00 12.7 C 75 % 8.39 C
3735 01-08-2015 04:35:00 12.7 C 76 % 8.58 C
3736 01-08-2015 04:40:00 12.7 C 75 % 8.39 C
3737 01-08-2015 04:45:00 12.6 C 75 % 8.29 C
3738 01-08-2015 04:50:00 12.7 C 75 % 8.39 C
3739 01-08-2015 04:55:00 12.8 C 76 % 8.68 C
3740 01-08-2015 05:00:00 12.8 C 76 % 8.68 C
3741 01-08-2015 05:05:00 12.8 C 76 % 8.68 C
3742 01-08-2015 05:10:00 12.8 C 76 % 8.68 C
3743 01-08-2015 05:15:00 12.7 C 75 % 8.39 C
3744 01-08-2015 05:20:00 12.7 C 76 % 8.58 C
3745 01-08-2015 05:25:00 12.7 C 75 % 8.39 C
3746 01-08-2015 05:30:00 12.7 C 76 % 8.58 C
3747 01-08-2015 05:35:00 12.6 C 76 % 8.49 C
3748 01-08-2015 05:40:00 12.6 C 75 % 8.29 C
3749 01-08-2015 05:45:00 12.6 C 76 % 8.49 C
3750 01-08-2015 05:50:00 12.6 C 76 % 8.49 C
Sensor: Nr:Datum:Temp:Feuchte:Taupunkt:
Aussen-T/F 3751 01-08-2015 05:55:00 12.6 C 77 % 8.68 C
3752 01-08-2015 06:00:00 12.5 C 77 % 8.58 C
3753 01-08-2015 06:05:00 12.4 C 77 % 8.49 C
3754 01-08-2015 06:10:00 12.4 C 77 % 8.49 C
3755 01-08-2015 06:15:00 12.4 C 77 % 8.49 C
3756 01-08-2015 06:20:00 12.3 C 78 % 8.58 C
3757 01-08-2015 06:25:00 12.3 C 77 % 8.39 C
3758 01-08-2015 06:30:00 12.2 C 77 % 8.29 C
3759 01-08-2015 06:35:00 12.2 C 78 % 8.48 C
3760 01-08-2015 06:40:00 12.1 C 79 % 8.57 C
3761 01-08-2015 06:45:00 12 C 79 % 8.48 C
3762 01-08-2015 06:50:00 11.9 C 80 % 8.56 C
3763 01-08-2015 06:55:00 11.9 C 80 % 8.56 C
3764 01-08-2015 07:00:00 12 C 81 % 8.84 C
3765 01-08-2015 07:05:00 12.1 C 81 % 8.94 C
3766 01-08-2015 07:10:00 12.3 C 81 % 9.14 C
3767 01-08-2015 07:15:00 12.4 C 82 % 9.42 C
3768 01-08-2015 07:20:00 12.6 C 82 % 9.61 C
3769 01-08-2015 07:25:00 12.7 C 81 % 9.53 C
3770 01-08-2015 07:30:00 12.9 C 81 % 9.72 C
3771 01-08-2015 07:35:00 13 C 81 % 9.82 C
3772 01-08-2015 07:40:00 13.2 C 80 % 9.83 C
3773 01-08-2015 07:45:00 13.3 C 80 % 9.93 C
3774 01-08-2015 07:50:00 13.4 C 80 % 10.02 C
3775 01-08-2015 07:55:00 13.6 C 79 % 10.03 C
Sensor: Nr:Datum:Temp:Feuchte:Taupunkt:
Aussen-T/F 3776 01-08-2015 08:00:00 13.7 C 78 % 9.94 C
3777 01-08-2015 08:05:00 13.8 C 78 % 10.03 C
3778 01-08-2015 08:10:00 13.9 C 78 % 10.13 C
3779 01-08-2015 08:15:00 13.9 C 78 % 10.13 C
3780 01-08-2015 08:20:00 14.1 C 79 % 10.52 C
3781 01-08-2015 08:25:00 14.2 C 77 % 10.23 C
3782 01-08-2015 08:30:00 14.4 C 75 % 10.03 C
3783 01-08-2015 08:35:00 14.6 C 73 % 9.82 C
3784 01-08-2015 08:40:00 14.7 C 71 % 9.5 C
3785 01-08-2015 08:45:00 14.8 C 72 % 9.81 C
3786 01-08-2015 08:50:00 14.9 C 71 % 9.69 C
3787 01-08-2015 08:55:00 15.1 C 71 % 9.89 C
3788 01-08-2015 09:00:00 15.3 C 70 % 9.87 C
3789 01-08-2015 09:05:00 15.3 C 70 % 9.87 C
3790 01-08-2015 09:10:00 15.3 C 70 % 9.87 C
3791 01-08-2015 09:15:00 15.3 C 71 % 10.08 C
3792 01-08-2015 09:20:00 15.2 C 72 % 10.19 C
3793 01-08-2015 09:25:00 15.2 C 72 % 10.19 C
3794 01-08-2015 09:30:00 15.3 C 71 % 10.08 C
3795 01-08-2015 09:35:00 15.4 C 69 % 9.75 C
3796 01-08-2015 09:40:00 15.5 C 71 % 10.27 C
3797 01-08-2015 09:45:00 15.7 C 69 % 10.03 C
3798 01-08-2015 09:50:00 15.8 C 70 % 10.34 C
3799 01-08-2015 09:55:00 15.9 C 71 % 10.65 C
3800 01-08-2015 10:00:00 15.9 C 68 % 10.01 C
Sensor: Nr:Datum:Temp:Feuchte:Taupunkt:
Aussen-T/F 3801 01-08-2015 10:05:00 16 C 68 % 10.1 C
3802 01-08-2015 10:10:00 16.2 C 68 % 10.29 C
3803 01-08-2015 10:15:00 16.3 C 67 % 10.17 C
3804 01-08-2015 10:20:00 16.6 C 65 % 10 C
3805 01-08-2015 10:25:00 17 C 65 % 10.38 C
3806 01-08-2015 10:30:00 17.3 C 65 % 10.66 C
3807 01-08-2015 10:35:00 17.7 C 63 % 10.57 C
3808 01-08-2015 10:40:00 17.9 C 61 % 10.28 C
3809 01-08-2015 10:45:00 18.1 C 62 % 10.71 C
3810 01-08-2015 10:50:00 18.3 C 60 % 10.41 C
3811 01-08-2015 10:55:00 18.6 C 60 % 10.69 C
3812 01-08-2015 11:00:00 18.8 C 58 % 10.37 C
3813 01-08-2015 11:05:00 19.1 C 60 % 11.16 C
3814 01-08-2015 11:10:00 19.7 C 59 % 11.47 C
3815 01-08-2015 11:15:00 20.1 C 54 % 10.51 C
3816 01-08-2015 11:20:00 20.3 C 54 % 10.69 C
3817 01-08-2015 11:25:00 20.5 C 56 % 11.43 C
3818 01-08-2015 11:30:00 20.7 C 54 % 11.07 C
3819 01-08-2015 11:35:00 20.9 C 52 % 10.68 C
3820 01-08-2015 11:40:00 21 C 53 % 11.06 C
3821 01-08-2015 11:45:00 21.2 C 51 % 10.67 C
3822 01-08-2015 11:50:00 21.4 C 50 % 10.55 C
3823 01-08-2015 11:55:00 21.6 C 52 % 11.33 C
3824 01-08-2015 12:00:00 21.9 C 50 % 11.01 C
3825 01-08-2015 12:05:00 22.1 C 50 % 11.2 C
Sensor: Nr:Datum:Temp:Feuchte:Taupunkt:
Aussen-T/F 3826 01-08-2015 12:10:00 22.4 C 49 % 11.17 C
3827 01-08-2015 12:15:00 22.7 C 48 % 11.13 C
3828 01-08-2015 12:20:00 22.7 C 46 % 10.49 C
3829 01-08-2015 12:25:00 22.9 C 47 % 11 C
3830 01-08-2015 12:30:00 23.2 C 46 % 10.95 C
3831 01-08-2015 12:35:00 23.3 C 45 % 10.71 C
3832 01-08-2015 12:40:00 23.5 C 45 % 10.89 C
3833 01-08-2015 12:45:00 23.8 C 47 % 11.82 C
3834 01-08-2015 12:50:00 24.3 C 44 % 11.27 C
3835 01-08-2015 12:55:00 24.4 C 44 % 11.36 C
3836 01-08-2015 13:00:00 24.4 C 43 % 11.02 C
3837 01-08-2015 13:05:00 24.6 C 41 % 10.48 C
3838 01-08-2015 13:10:00 24.8 C 40 % 10.29 C
3839 01-08-2015 13:15:00 25 C 42 % 11.2 C
3840 01-08-2015 13:20:00 24.9 C 40 % 10.38 C
3841 01-08-2015 13:25:00 24.9 C 40 % 10.38 C
3842 01-08-2015 13:30:00 25.1 C 42 % 11.29 C
3843 01-08-2015 13:35:00 25.5 C 41 % 11.29 C
3844 01-08-2015 13:40:00 25.7 C 39 % 10.71 C
3845 01-08-2015 13:45:00 25.8 C 40 % 11.18 C
3846 01-08-2015 13:50:00 26.1 C 40 % 11.45 C
3847 01-08-2015 13:55:00 26.3 C 38 % 10.86 C
3848 01-08-2015 14:00:00 26.6 C 37 % 10.72 C
3849 01-08-2015 14:05:00 26.7 C 35 % 9.98 C
3850 01-08-2015 14:10:00 26.6 C 38 % 11.12 C
Sensor: Nr:Datum:Temp:Feuchte:Taupunkt:
Aussen-T/F 3851 01-08-2015 14:15:00 26.7 C 37 % 10.81 C
3852 01-08-2015 14:20:00 26.8 C 39 % 11.69 C
3853 01-08-2015 14:25:00 27 C 36 % 10.66 C
3854 01-08-2015 14:30:00 27 C 37 % 11.07 C
3855 01-08-2015 14:35:00 26.9 C 38 % 11.39 C
3856 01-08-2015 14:40:00 27.2 C 37 % 11.25 C
3857 01-08-2015 14:45:00 27.4 C 37 % 11.43 C
3858 01-08-2015 14:50:00 27.3 C 36 % 10.93 C
3859 01-08-2015 14:55:00 27.4 C 37 % 11.43 C
3860 01-08-2015 15:00:00 27.7 C 35 % 10.85 C
3861 01-08-2015 15:05:00 27.7 C 35 % 10.85 C
3862 01-08-2015 15:10:00 27.8 C 35 % 10.94 C
3863 01-08-2015 15:15:00 27.8 C 35 % 10.94 C
3864 01-08-2015 15:20:00 27.9 C 35 % 11.03 C
3865 01-08-2015 15:25:00 28.1 C 33 % 10.32 C
3866 01-08-2015 15:30:00 27.9 C 34 % 10.59 C
3867 01-08-2015 15:35:00 28 C 36 % 11.54 C
3868 01-08-2015 15:40:00 28.3 C 34 % 10.94 C
3869 01-08-2015 15:45:00 28.3 C 35 % 11.38 C
3870 01-08-2015 15:50:00 28.3 C 36 % 11.81 C
3871 01-08-2015 15:55:00 28.3 C 33 % 10.49 C
3872 01-08-2015 16:00:00 28.1 C 34 % 10.77 C
3873 01-08-2015 16:05:00 28.3 C 33 % 10.49 C
3874 01-08-2015 16:10:00 28.5 C 32 % 10.21 C
3875 01-08-2015 16:15:00 28.4 C 34 % 11.03 C
Sensor: Nr:Datum:Temp:Feuchte:Taupunkt:
Aussen-T/F 3876 01-08-2015 16:20:00 28.6 C 33 % 10.76 C
3877 01-08-2015 16:25:00 28.9 C 33 % 11.02 C
3878 01-08-2015 16:30:00 28.8 C 34 % 11.38 C
3879 01-08-2015 16:35:00 28.7 C 33 % 10.84 C
3880 01-08-2015 16:40:00 27.9 C 32 %